Wetterdaten: Samstag, 13.02.2016
Datum Zeit Auen-Temp. Temp gefhlt Luftfeuchte Luftdruck Regen Wind Richtung Richtung Sonnenschein Taupunkt Windben
13.02.2016 00:00 0,0 C -0,3 C 74 % 996,0 hPa 0,0 mm 0,0 km/h (0 Bft) O-SO 112 0 min -4,1 C 0,0 km/h (0 Bft)
13.02.2016 00:01 0,0 C -0,3 C 74 % 996,0 hPa 0,0 mm 0,0 km/h (0 Bft) O-SO 112 0 min -4,1 C 0,0 km/h (0 Bft)
13.02.2016 00:02 0,0 C -0,3 C 74 % 996,0 hPa 0,0 mm 0,0 km/h (0 Bft) O-SO 112 0 min -4,1 C 0,0 km/h (0 Bft)
13.02.2016 00:03 0,0 C -0,3 C 74 % 996,0 hPa 0,0 mm 0,0 km/h (0 Bft) O-SO 112 0 min -4,1 C 0,0 km/h (0 Bft)
13.02.2016 00:04 0,0 C -0,3 C 74 % 996,0 hPa 0,0 mm 0,0 km/h (0 Bft) O-SO 112 0 min -4,1 C 0,0 km/h (0 Bft)
13.02.2016 00:05 -0,1 C -0,4 C 74 % 996,0 hPa 0,0 mm 0,0 km/h (0 Bft) O-SO 112 0 min -4,2 C 0,0 km/h (0 Bft)
13.02.2016 00:06 -0,1 C -0,4 C 74 % 996,0 hPa 0,0 mm 0,0 km/h (0 Bft) O-SO 112 0 min -4,2 C 0,0 km/h (0 Bft)
13.02.2016 00:07 -0,1 C -0,4 C 74 % 996,0 hPa 0,0 mm 0,0 km/h (0 Bft) O-SO 112 0 min -4,2 C 0,0 km/h (0 Bft)
13.02.2016 00:08 -0,1 C -0,4 C 74 % 996,0 hPa 0,0 mm 0,0 km/h (0 Bft) O-SO 112 0 min -4,2 C 0,0 km/h (0 Bft)
13.02.2016 00:09 0,0 C -0,3 C 74 % 996,0 hPa 0,0 mm 0,0 km/h (0 Bft) SW 225 0 min -4,1 C 0,0 km/h (0 Bft)
13.02.2016 00:10 0,0 C -0,3 C 74 % 996,0 hPa 0,0 mm 0,0 km/h (0 Bft) SW 225 0 min -4,1 C 0,0 km/h (0 Bft)
13.02.2016 00:11 0,0 C -0,3 C 74 % 996,0 hPa 0,0 mm 0,0 km/h (0 Bft) SW 225 0 min -4,1 C 0,0 km/h (0 Bft)
13.02.2016 00:12 0,0 C -0,3 C 74 % 996,0 hPa 0,0 mm 0,0 km/h (0 Bft) SW 225 0 min -4,1 C 0,0 km/h (0 Bft)
13.02.2016 00:13 0,0 C -0,2 C 72 % 996,0 hPa 0,0 mm 0,0 km/h (0 Bft) O-SO 112 0 min -4,4 C 0,0 km/h (0 Bft)
13.02.2016 00:14 0,0 C -0,2 C 72 % 996,0 hPa 0,0 mm 0,0 km/h (0 Bft) O-SO 112 0 min -4,4 C 0,0 km/h (0 Bft)
13.02.2016 00:15 0,0 C -0,3 C 75 % 996,0 hPa 0,0 mm 0,0 km/h (0 Bft) W-NW 292 0 min -3,9 C 3,0 km/h (1 Bft)
13.02.2016 00:16 0,0 C -0,3 C 75 % 996,0 hPa 0,0 mm 0,0 km/h (0 Bft) W-NW 292 0 min -3,9 C 3,0 km/h (1 Bft)
13.02.2016 00:17 0,0 C -0,2 C 73 % 996,0 hPa 0,0 mm 0,6 km/h (0 Bft) W-NW 292 0 min -4,2 C 0,0 km/h (0 Bft)
13.02.2016 00:18 0,0 C -0,2 C 73 % 996,0 hPa 0,0 mm 0,6 km/h (0 Bft) W-NW 292 0 min -4,2 C 0,0 km/h (0 Bft)
13.02.2016 00:19 0,0 C -0,2 C 73 % 996,0 hPa 0,0 mm 0,9 km/h (0 Bft) O-NO 67 0 min -4,2 C 3,3 km/h (1 Bft)
13.02.2016 00:20 0,0 C -0,2 C 73 % 996,0 hPa 0,0 mm 0,9 km/h (0 Bft) O-NO 67 0 min -4,2 C 3,3 km/h (1 Bft)
13.02.2016 00:21 0,0 C -0,1 C 73 % 996,0 hPa 0,0 mm 0,9 km/h (0 Bft) NO 45 0 min -4,2 C 0,0 km/h (0 Bft)
13.02.2016 00:22 0,0 C -0,1 C 73 % 996,0 hPa 0,0 mm 0,9 km/h (0 Bft) NO 45 0 min -4,2 C 0,0 km/h (0 Bft)
13.02.2016 00:23 0,1 C -0,1 C 75 % 996,1 hPa 0,0 mm 0,9 km/h (0 Bft) W 270 0 min -3,8 C 0,0 km/h (0 Bft)
13.02.2016 00:24 0,1 C -0,1 C 75 % 996,1 hPa 0,0 mm 0,9 km/h (0 Bft) W 270 0 min -3,8 C 0,0 km/h (0 Bft)
13.02.2016 00:25 0,1 C -0,1 C 76 % 996,1 hPa 0,0 mm 1,5 km/h (1 Bft) O-NO 67 0 min -3,6 C 7,5 km/h (2 Bft)
13.02.2016 00:26 0,1 C -0,1 C 76 % 996,1 hPa 0,0 mm 1,5 km/h (1 Bft) O-NO 67 0 min -3,6 C 7,5 km/h (2 Bft)
13.02.2016 00:27 0,1 C -0,1 C 76 % 996,1 hPa 0,0 mm 2,1 km/h (1 Bft) NO 45 0 min -3,6 C 7,7 km/h (2 Bft)
13.02.2016 00:28 0,1 C -0,1 C 76 % 996,1 hPa 0,0 mm 2,1 km/h (1 Bft) NO 45 0 min -3,6 C 7,7 km/h (2 Bft)
13.02.2016 00:29 0,1 C 0,0 C 73 % 996,1 hPa 0,0 mm 2,1 km/h (1 Bft) NW 315 0 min -4,2 C 0,0 km/h (0 Bft)
13.02.2016 00:30 0,1 C 0,0 C 73 % 996,1 hPa 0,0 mm 2,1 km/h (1 Bft) NW 315 0 min -4,2 C 0,0 km/h (0 Bft)
13.02.2016 00:31 0,1 C -0,1 C 75 % 996,1 hPa 0,0 mm 2,1 km/h (1 Bft) NW 315 0 min -3,8 C 0,0 km/h (0 Bft)
13.02.2016 00:32 0,1 C -0,1 C 75 % 996,1 hPa 0,0 mm 2,1 km/h (1 Bft) NW 315 0 min -3,8 C 0,0 km/h (0 Bft)
13.02.2016 00:33 0,1 C -0,1 C 75 % 996,1 hPa 0,0 mm 2,1 km/h (1 Bft) N-NO 22 0 min -3,8 C 0,0 km/h (0 Bft)
13.02.2016 00:34 0,1 C -0,1 C 75 % 996,1 hPa 0,0 mm 2,1 km/h (1 Bft) N-NO 22 0 min -3,8 C 7,7 km/h (2 Bft)
13.02.2016 00:35 0,0 C -0,1 C 75 % 996,1 hPa 0,0 mm 2,7 km/h (1 Bft) W 270 0 min -3,9 C 7,5 km/h (2 Bft)
13.02.2016 00:36 0,0 C -0,1 C 75 % 996,1 hPa 0,0 mm 2,7 km/h (1 Bft) W 270 0 min -3,9 C 7,5 km/h (2 Bft)
13.02.2016 00:37 -0,1 C -0,2 C 75 % 996,1 hPa 0,0 mm 1,5 km/h (1 Bft) S 180 0 min -4,0 C 0,0 km/h (0 Bft)
13.02.2016 00:38 -0,1 C -0,2 C 75 % 996,1 hPa 0,0 mm 1,5 km/h (1 Bft) S 180 0 min -4,0 C 0,0 km/h (0 Bft)
13.02.2016 00:39 -0,1 C -0,3 C 75 % 996,1 hPa 0,0 mm 0,6 km/h (0 Bft) O-SO 112 0 min -4,0 C 0,0 km/h (0 Bft)
13.02.2016 00:40 -0,1 C -0,3 C 75 % 996,1 hPa 0,0 mm 0,6 km/h (0 Bft) O-SO 112 0 min -4,0 C 0,0 km/h (0 Bft)
13.02.2016 00:41 -0,1 C -0,3 C 76 % 996,1 hPa 0,0 mm 0,6 km/h (0 Bft) O-SO 112 0 min -3,8 C 0,0 km/h (0 Bft)
13.02.2016 00:42 -0,1 C -0,3 C 76 % 996,1 hPa 0,0 mm 0,6 km/h (0 Bft) O-SO 112 0 min -3,8 C 0,0 km/h (0 Bft)
13.02.2016 00:43 -0,1 C -0,3 C 76 % 996,0 hPa 0,0 mm 0,6 km/h (0 Bft) O-SO 112 0 min -3,8 C 0,0 km/h (0 Bft)
13.02.2016 00:44 -0,1 C -0,3 C 76 % 996,0 hPa 0,0 mm 0,6 km/h (0 Bft) O-SO 112 0 min -3,8 C 0,0 km/h (0 Bft)
13.02.2016 00:45 -0,2 C -0,4 C 76 % 996,0 hPa 0,0 mm 0,3 km/h (0 Bft) S-SW 202 0 min -3,9 C 0,0 km/h (0 Bft)
13.02.2016 00:46 -0,2 C -0,4 C 76 % 996,0 hPa 0,0 mm 0,3 km/h (0 Bft) S-SW 202 0 min -3,9 C 0,0 km/h (0 Bft)
13.02.2016 00:47 -0,3 C -0,5 C 75 % 996,0 hPa 0,0 mm 0,0 km/h (0 Bft) O-NO 67 0 min -4,2 C 0,0 km/h (0 Bft)
13.02.2016 00:48 -0,3 C -0,5 C 75 % 996,0 hPa 0,0 mm 0,0 km/h (0 Bft) O-NO 67 0 min -4,2 C 0,0 km/h (0 Bft)
13.02.2016 00:49 -0,3 C -0,5 C 76 % 996,0 hPa 0,0 mm 0,0 km/h (0 Bft) O-NO 67 0 min -4,0 C 0,0 km/h (0 Bft)
13.02.2016 00:50 -0,3 C -0,5 C 76 % 996,0 hPa 0,0 mm 0,0 km/h (0 Bft) O-NO 67 0 min -4,0 C 0,0 km/h (0 Bft)
13.02.2016 00:51 -0,3 C -0,6 C 76 % 996,0 hPa 0,0 mm 0,0 km/h (0 Bft) NO 45 0 min -4,0 C 0,0 km/h (0 Bft)
13.02.2016 00:52 -0,3 C -0,6 C 76 % 996,0 hPa 0,0 mm 0,0 km/h (0 Bft) NO 45 0 min -4,0 C 0,0 km/h (0 Bft)
13.02.2016 00:53 -0,4 C -0,6 C 76 % 996,0 hPa 0,0 mm 0,0 km/h (0 Bft) NO 45 0 min -4,1 C 0,0 km/h (0 Bft)
13.02.2016 00:54 -0,4 C -0,6 C 76 % 996,0 hPa 0,0 mm 0,0 km/h (0 Bft) NO 45 0 min -4,1 C 0,0 km/h (0 Bft)
13.02.2016 00:55 -0,4 C -0,6 C 76 % 996,0 hPa 0,0 mm 0,0 km/h (0 Bft) W 270 0 min -4,1 C 0,0 km/h (0 Bft)
13.02.2016 00:56 -0,4 C -0,6 C 76 % 996,0 hPa 0,0 mm 0,0 km/h (0 Bft) W 270 0 min -4,1 C 0,0 km/h (0 Bft)
13.02.2016 00:57 -0,4 C -0,6 C 76 % 996,0 hPa 0,0 mm 0,0 km/h (0 Bft) SO 135 0 min -4,1 C 0,0 km/h (0 Bft)
13.02.2016 00:58 -0,4 C -0,6 C 76 % 996,0 hPa 0,0 mm 0,0 km/h (0 Bft) SO 135 0 min -4,1 C 0,0 km/h (0 Bft)
13.02.2016 00:59 -0,3 C -0,6 C 76 % 996,0 hPa 0,0 mm 0,0 km/h (0 Bft) O-SO 112 0 min -4,0 C 0,0 km/h (0 Bft)
13.02.2016 01:00 -0,3 C -0,6 C 76 % 996,0 hPa 0,0 mm 0,0 km/h (0 Bft) O-SO 112 0 min -4,0 C 0,0 km/h (0 Bft)
13.02.2016 01:01 -0,4 C -0,7 C 76 % 996,0 hPa 0,0 mm 0,0 km/h (0 Bft) W 270 0 min -4,1 C 0,0 km/h (0 Bft)
13.02.2016 01:02 -0,4 C -0,7 C 76 % 996,0 hPa 0,0 mm 0,0 km/h (0 Bft) W 270 0 min -4,1 C 0,0 km/h (0 Bft)
13.02.2016 01:03 -0,6 C -0,9 C 76 % 995,8 hPa 0,0 mm 0,0 km/h (0 Bft) W 270 0 min -4,3 C 0,0 km/h (0 Bft)
13.02.2016 01:04 -0,6 C -0,9 C 76 % 995,8 hPa 0,0 mm 0,0 km/h (0 Bft) W 270 0 min -4,3 C 0,0 km/h (0 Bft)
13.02.2016 01:05 -0,6 C -0,9 C 76 % 995,8 hPa 0,0 mm 0,0 km/h (0 Bft) SW 225 0 min -4,3 C 0,0 km/h (0 Bft)
13.02.2016 01:06 -0,6 C -0,9 C 76 % 995,8 hPa 0,0 mm 0,0 km/h (0 Bft) SW 225 0 min -4,3 C 0,0 km/h (0 Bft)
13.02.2016 01:07 -0,6 C -0,9 C 76 % 995,8 hPa 0,0 mm 0,0 km/h (0 Bft) SW 225 0 min -4,3 C 0,0 km/h (0 Bft)
13.02.2016 01:08 -0,6 C -0,9 C 76 % 995,8 hPa 0,0 mm 0,0 km/h (0 Bft) SW 225 0 min -4,3 C 0,0 km/h (0 Bft)
13.02.2016 01:09 -0,4 C -0,8 C 76 % 995,8 hPa 0,0 mm 0,0 km/h (0 Bft) SO 135 0 min -4,1 C 0,0 km/h (0 Bft)
13.02.2016 01:10 -0,4 C -0,8 C 76 % 995,8 hPa 0,0 mm 0,0 km/h (0 Bft) SO 135 0 min -4,1 C 0,0 km/h (0 Bft)
13.02.2016 01:11 -0,3 C -0,7 C 76 % 995,8 hPa 0,0 mm 0,0 km/h (0 Bft) W-SW 247 0 min -4,0 C 0,0 km/h (0 Bft)
13.02.2016 01:12 -0,3 C -0,7 C 76 % 995,8 hPa 0,0 mm 0,0 km/h (0 Bft) W-SW 247 0 min -4,0 C 0,0 km/h (0 Bft)
13.02.2016 01:13 -0,3 C -0,7 C 76 % 995,8 hPa 0,0 mm 0,0 km/h (0 Bft) S-SW 202 0 min -4,0 C 0,0 km/h (0 Bft)
13.02.2016 01:14 -0,3 C -0,7 C 76 % 995,8 hPa 0,0 mm 0,0 km/h (0 Bft) S-SW 202 0 min -4,0 C 0,0 km/h (0 Bft)
13.02.2016 01:15 -0,4 C -0,7 C 76 % 995,8 hPa 0,0 mm 0,0 km/h (0 Bft) S-SW 202 0 min -4,1 C 0,0 km/h (0 Bft)
13.02.2016 01:16 -0,4 C -0,7 C 76 % 995,8 hPa 0,0 mm 0,0 km/h (0 Bft) S-SW 202 0 min -4,1 C 0,0 km/h (0 Bft)
13.02.2016 01:17 -0,4 C -0,7 C 76 % 995,8 hPa 0,0 mm 0,0 km/h (0 Bft) S-SW 202 0 min -4,1 C 0,0 km/h (0 Bft)
13.02.2016 01:18 -0,4 C -0,7 C 76 % 995,8 hPa 0,0 mm 0,0 km/h (0 Bft) S-SW 202 0 min -4,1 C 0,0 km/h (0 Bft)
13.02.2016 01:19 -0,4 C -0,7 C 76 % 995,8 hPa 0,0 mm 0,0 km/h (0 Bft) SO 135 0 min -4,1 C 0,0 km/h (0 Bft)
13.02.2016 01:20 -0,4 C -0,7 C 76 % 995,8 hPa 0,0 mm 0,0 km/h (0 Bft) SO 135 0 min -4,1 C 0,0 km/h (0 Bft)
13.02.2016 01:21 -0,4 C -0,7 C 76 % 995,8 hPa 0,0 mm 0,0 km/h (0 Bft) SO 135 0 min -4,1 C 0,0 km/h (0 Bft)
13.02.2016 01:22 -0,4 C -0,7 C 76 % 995,8 hPa 0,0 mm 0,0 km/h (0 Bft) SO 135 0 min -4,1 C 0,0 km/h (0 Bft)
13.02.2016 01:23 -0,5 C -0,7 C 76 % 995,7 hPa 0,0 mm 0,3 km/h (0 Bft) W 270 0 min -4,2 C 0,0 km/h (0 Bft)
13.02.2016 01:24 -0,5 C -0,7 C 76 % 995,7 hPa 0,0 mm 0,3 km/h (0 Bft) W 270 0 min -4,2 C 0,0 km/h (0 Bft)
13.02.2016 01:25 -0,6 C -0,8 C 76 % 995,7 hPa 0,0 mm 0,3 km/h (0 Bft) W 270 0 min -4,3 C 0,0 km/h (0 Bft)
13.02.2016 01:26 -0,6 C -0,8 C 76 % 995,7 hPa 0,0 mm 0,3 km/h (0 Bft) W 270 0 min -4,3 C 0,0 km/h (0 Bft)
13.02.2016 01:27 -0,6 C -0,8 C 76 % 995,7 hPa 0,0 mm 0,3 km/h (0 Bft) S-SO 157 0 min -4,3 C 0,0 km/h (0 Bft)
13.02.2016 01:28 -0,6 C -0,8 C 76 % 995,7 hPa 0,0 mm 0,3 km/h (0 Bft) S-SO 157 0 min -4,3 C 0,0 km/h (0 Bft)
13.02.2016 01:29 -0,5 C -0,7 C 76 % 995,7 hPa 0,0 mm 0,3 km/h (0 Bft) SO 135 0 min -4,2 C 0,0 km/h (0 Bft)
13.02.2016 01:30 -0,5 C -0,7 C 76 % 995,7 hPa 0,0 mm 0,3 km/h (0 Bft) SO 135 0 min -4,2 C 0,0 km/h (0 Bft)
13.02.2016 01:31 -0,4 C -0,7 C 76 % 995,7 hPa 0,0 mm 0,3 km/h (0 Bft) S 180 0 min -4,1 C 0,0 km/h (0 Bft)
13.02.2016 01:32 -0,4 C -0,7 C 76 % 995,7 hPa 0,0 mm 0,3 km/h (0 Bft) S 180 0 min -4,1 C 0,0 km/h (0 Bft)
13.02.2016 01:33 -0,3 C -0,5 C 74 % 995,7 hPa 0,0 mm 0,3 km/h (0 Bft) SO 135 0 min -4,4 C 0,0 km/h (0 Bft)
13.02.2016 01:34 -0,3 C -0,5 C 74 % 995,7 hPa 0,0 mm 0,3 km/h (0 Bft) SO 135 0 min -4,4 C 0,0 km/h (0 Bft)
13.02.2016 01:35 -0,2 C -0,4 C 74 % 995,7 hPa 0,0 mm 0,3 km/h (0 Bft) SO 135 0 min -4,3 C 0,0 km/h (0 Bft)
13.02.2016 01:36 -0,2 C -0,4 C 74 % 995,7 hPa 0,0 mm 0,3 km/h (0 Bft) SO 135 0 min -4,3 C 0,0 km/h (0 Bft)
13.02.2016 01:37 -0,1 C -0,4 C 74 % 995,7 hPa 0,0 mm 0,3 km/h (0 Bft) S-SO 157 0 min -4,2 C 0,0 km/h (0 Bft)
13.02.2016 01:38 -0,1 C -0,4 C 74 % 995,7 hPa 0,0 mm 0,3 km/h (0 Bft) S-SO 157 0 min -4,2 C 0,0 km/h (0 Bft)
13.02.2016 01:39 -0,1 C -0,4 C 76 % 995,7 hPa 0,0 mm 0,9 km/h (0 Bft) SW 225 0 min -3,8 C 5,1 km/h (1 Bft)
13.02.2016 01:40 -0,1 C -0,4 C 76 % 995,7 hPa 0,0 mm 0,9 km/h (0 Bft) SW 225 0 min -3,8 C 5,1 km/h (1 Bft)
13.02.2016 01:41 0,0 C -0,2 C 74 % 995,7 hPa 0,0 mm 0,9 km/h (0 Bft) S 180 0 min -4,1 C 0,0 km/h (0 Bft)
13.02.2016 01:42 0,0 C -0,2 C 74 % 995,7 hPa 0,0 mm 0,9 km/h (0 Bft) S 180 0 min -4,1 C 0,0 km/h (0 Bft)
13.02.2016 01:43 0,1 C -0,2 C 76 % 995,6 hPa 0,0 mm 0,9 km/h (0 Bft) N-NO 22 0 min -3,6 C 0,0 km/h (0 Bft)
13.02.2016 01:44 0,1 C -0,2 C 76 % 995,6 hPa 0,0 mm 0,9 km/h (0 Bft) N-NO 22 0 min -3,6 C 0,0 km/h (0 Bft)
13.02.2016 01:45 0,0 C -0,3 C 76 % 995,6 hPa 0,0 mm 0,6 km/h (0 Bft) W 270 0 min -3,7 C 0,0 km/h (0 Bft)
13.02.2016 01:46 0,0 C -0,3 C 76 % 995,6 hPa 0,0 mm 0,6 km/h (0 Bft) W 270 0 min -3,7 C 0,0 km/h (0 Bft)
13.02.2016 01:47 -0,1 C -0,4 C 76 % 995,6 hPa 0,0 mm 0,6 km/h (0 Bft) SO 135 0 min -3,8 C 0,0 km/h (0 Bft)
13.02.2016 01:48 -0,1 C -0,4 C 76 % 995,6 hPa 0,0 mm 0,6 km/h (0 Bft) SO 135 0 min -3,8 C 0,0 km/h (0 Bft)
13.02.2016 01:49 -0,1 C -0,4 C 76 % 995,6 hPa 0,0 mm 0,6 km/h (0 Bft) SO 135 0 min -3,8 C 0,0 km/h (0 Bft)
13.02.2016 01:50 -0,1 C -0,4 C 76 % 995,6 hPa 0,0 mm 0,6 km/h (0 Bft) SO 135 0 min -3,8 C 0,0 km/h (0 Bft)
13.02.2016 01:51 0,0 C -0,3 C 76 % 995,6 hPa 0,0 mm 0,3 km/h (0 Bft) SO 135 0 min -3,7 C 0,0 km/h (0 Bft)
13.02.2016 01:52 0,0 C -0,3 C 76 % 995,6 hPa 0,0 mm 0,3 km/h (0 Bft) SO 135 0 min -3,7 C 0,0 km/h (0 Bft)
13.02.2016 01:53 0,1 C -0,2 C 76 % 995,6 hPa 0,0 mm 0,3 km/h (0 Bft) O-SO 112 0 min -3,6 C 0,0 km/h (0 Bft)
13.02.2016 01:54 0,1 C -0,2 C 76 % 995,6 hPa 0,0 mm 0,3 km/h (0 Bft) O-SO 112 0 min -3,6 C 0,0 km/h (0 Bft)
13.02.2016 01:55 0,1 C -0,2 C 76 % 995,6 hPa 0,0 mm 0,3 km/h (0 Bft) O-SO 112 0 min -3,6 C 0,0 km/h (0 Bft)
13.02.2016 01:56 0,1 C -0,2 C 76 % 995,6 hPa 0,0 mm 0,3 km/h (0 Bft) O-SO 112 0 min -3,6 C 0,0 km/h (0 Bft)
13.02.2016 01:57 0,0 C -0,3 C 76 % 995,6 hPa 0,0 mm 0,9 km/h (0 Bft) N-NW 337 0 min -3,7 C 5,1 km/h (1 Bft)
13.02.2016 01:58 0,0 C -0,3 C 76 % 995,6 hPa 0,0 mm 0,9 km/h (0 Bft) N-NW 337 0 min -3,7 C 5,1 km/h (1 Bft)
13.02.2016 01:59 -0,1 C -0,3 C 76 % 995,6 hPa 0,0 mm 1,5 km/h (1 Bft) W-NW 292 0 min -3,8 C 3,0 km/h (1 Bft)
13.02.2016 02:00 -0,1 C -0,3 C 76 % 995,6 hPa 0,0 mm 1,5 km/h (1 Bft) W-NW 292 0 min -3,8 C 3,0 km/h (1 Bft)
13.02.2016 02:01 -0,3 C -0,5 C 76 % 995,6 hPa 0,0 mm 1,5 km/h (1 Bft) SW 225 0 min -4,0 C 0,0 km/h (0 Bft)
13.02.2016 02:02 -0,3 C -0,5 C 76 % 995,6 hPa 0,0 mm 1,5 km/h (1 Bft) SW 225 0 min -4,0 C 0,0 km/h (0 Bft)
13.02.2016 02:03 -0,4 C -0,6 C 76 % 995,5 hPa 0,0 mm 1,8 km/h (1 Bft) S 180 0 min -4,1 C 4,5 km/h (1 Bft)
13.02.2016 02:04 -0,4 C -0,6 C 76 % 995,5 hPa 0,0 mm 1,8 km/h (1 Bft) S 180 0 min -4,1 C 4,5 km/h (1 Bft)
13.02.2016 02:05 -0,3 C -0,5 C 76 % 995,5 hPa 0,0 mm 1,8 km/h (1 Bft) SO 135 0 min -4,0 C 0,0 km/h (0 Bft)
13.02.2016 02:06 -0,3 C -0,5 C 76 % 995,5 hPa 0,0 mm 1,8 km/h (1 Bft) SO 135 0 min -4,0 C 0,0 km/h (0 Bft)
13.02.2016 02:07 -0,2 C -0,5 C 77 % 995,5 hPa 0,0 mm 1,8 km/h (1 Bft) O-SO 112 0 min -3,7 C 0,0 km/h (0 Bft)
13.02.2016 02:08 -0,2 C -0,5 C 77 % 995,5 hPa 0,0 mm 1,8 km/h (1 Bft) O-SO 112 0 min -3,7 C 0,0 km/h (0 Bft)
13.02.2016 02:09 -0,2 C -0,4 C 74 % 995,5 hPa 0,0 mm 0,9 km/h (0 Bft) O-SO 112 0 min -4,3 C 0,0 km/h (0 Bft)
13.02.2016 02:10 -0,2 C -0,4 C 74 % 995,5 hPa 0,0 mm 0,9 km/h (0 Bft) O-SO 112 0 min -4,3 C 0,0 km/h (0 Bft)
13.02.2016 02:11 -0,2 C -0,4 C 76 % 995,5 hPa 0,0 mm 0,3 km/h (0 Bft) O-SO 112 0 min -3,9 C 0,0 km/h (0 Bft)
13.02.2016 02:12 -0,2 C -0,4 C 76 % 995,5 hPa 0,0 mm 0,3 km/h (0 Bft) O-SO 112 0 min -3,9 C 0,0 km/h (0 Bft)
13.02.2016 02:13 -0,4 C -0,6 C 76 % 995,5 hPa 0,0 mm 0,3 km/h (0 Bft) N 360 0 min -4,1 C 0,0 km/h (0 Bft)
13.02.2016 02:14 -0,4 C -0,6 C 76 % 995,5 hPa 0,0 mm 0,3 km/h (0 Bft) N 360 0 min -4,1 C 0,0 km/h (0 Bft)
13.02.2016 02:15 -0,4 C -0,6 C 76 % 995,5 hPa 0,0 mm 0,0 km/h (0 Bft) N-NW 337 0 min -4,1 C 0,0 km/h (0 Bft)
13.02.2016 02:16 -0,4 C -0,6 C 76 % 995,5 hPa 0,0 mm 0,0 km/h (0 Bft) N-NW 337 0 min -4,1 C 0,0 km/h (0 Bft)
13.02.2016 02:17 -0,5 C -0,7 C 76 % 995,5 hPa 0,0 mm 0,0 km/h (0 Bft) W 270 0 min -4,2 C 0,0 km/h (0 Bft)
13.02.2016 02:18 -0,5 C -0,7 C 76 % 995,5 hPa 0,0 mm 0,0 km/h (0 Bft) W 270 0 min -4,2 C 0,0 km/h (0 Bft)
13.02.2016 02:19 -0,5 C -0,7 C 76 % 995,5 hPa 0,0 mm 0,0 km/h (0 Bft) S 180 0 min -4,2 C 0,0 km/h (0 Bft)
13.02.2016 02:20 -0,5 C -0,7 C 76 % 995,5 hPa 0,0 mm 0,0 km/h (0 Bft) S 180 0 min -4,2 C 0,0 km/h (0 Bft)
13.02.2016 02:21 -0,5 C -0,7 C 76 % 995,5 hPa 0,0 mm 0,0 km/h (0 Bft) W-SW 247 0 min -4,2 C 0,0 km/h (0 Bft)
13.02.2016 02:22 -0,5 C -0,7 C 76 % 995,5 hPa 0,0 mm 0,0 km/h (0 Bft) W-SW 247 0 min -4,2 C 0,0 km/h (0 Bft)
13.02.2016 02:23 -0,5 C -0,7 C 76 % 995,5 hPa 0,0 mm 0,0 km/h (0 Bft) W-SW 247 0 min -4,2 C 0,0 km/h (0 Bft)
13.02.2016 02:24 -0,5 C -0,7 C 76 % 995,5 hPa 0,0 mm 0,0 km/h (0 Bft) W-SW 247 0 min -4,2 C 0,0 km/h (0 Bft)
13.02.2016 02:25 -0,4 C -0,6 C 76 % 995,5 hPa 0,0 mm 0,0 km/h (0 Bft) NW 315 0 min -4,1 C 0,0 km/h (0 Bft)
13.02.2016 02:26 -0,4 C -0,6 C 76 % 995,5 hPa 0,0 mm 0,0 km/h (0 Bft) NW 315 0 min -4,1 C 0,0 km/h (0 Bft)
13.02.2016 02:27 -0,4 C -0,6 C 76 % 995,5 hPa 0,0 mm 0,0 km/h (0 Bft) NW 315 0 min -4,1 C 0,0 km/h (0 Bft)
13.02.2016 02:28 -0,4 C -0,6 C 76 % 995,5 hPa 0,0 mm 0,0 km/h (0 Bft) NW 315 0 min -4,1 C 0,0 km/h (0 Bft)
13.02.2016 02:29 -0,4 C -0,6 C 76 % 995,5 hPa 0,0 mm 0,0 km/h (0 Bft) N-NW 337 0 min -4,1 C 0,0 km/h (0 Bft)
13.02.2016 02:30 -0,4 C -0,6 C 76 % 995,5 hPa 0,0 mm 0,0 km/h (0 Bft) N-NW 337 0 min -4,1 C 0,0 km/h (0 Bft)
13.02.2016 02:31 -0,4 C -0,6 C 76 % 995,5 hPa 0,0 mm 0,0 km/h (0 Bft) NW 315 0 min -4,1 C 0,0 km/h (0 Bft)
13.02.2016 02:32 -0,4 C -0,6 C 76 % 995,5 hPa 0,0 mm 0,0 km/h (0 Bft) NW 315 0 min -4,1 C 0,0 km/h (0 Bft)
13.02.2016 02:33 -0,4 C -0,6 C 76 % 995,5 hPa 0,0 mm 0,0 km/h (0 Bft) W 270 0 min -4,1 C 0,0 km/h (0 Bft)
13.02.2016 02:34 -0,4 C -0,6 C 76 % 995,5 hPa 0,0 mm 0,0 km/h (0 Bft) W 270 0 min -4,1 C 0,0 km/h (0 Bft)
13.02.2016 02:35 -0,4 C -0,6 C 76 % 995,5 hPa 0,0 mm 0,3 km/h (0 Bft) SW 225 0 min -4,1 C 4,8 km/h (1 Bft)
13.02.2016 02:36 -0,4 C -0,6 C 76 % 995,5 hPa 0,0 mm 0,3 km/h (0 Bft) SW 225 0 min -4,1 C 4,8 km/h (1 Bft)
13.02.2016 02:37 -0,3 C -0,5 C 77 % 995,5 hPa 0,0 mm 0,9 km/h (0 Bft) S-SO 157 0 min -3,8 C 0,0 km/h (0 Bft)
13.02.2016 02:38 -0,3 C -0,5 C 77 % 995,5 hPa 0,0 mm 0,9 km/h (0 Bft) S-SO 157 0 min -3,8 C 0,0 km/h (0 Bft)
13.02.2016 02:39 -0,2 C -0,4 C 75 % 995,5 hPa 0,0 mm 0,9 km/h (0 Bft) O-SO 112 0 min -4,1 C 3,0 km/h (1 Bft)
13.02.2016 02:40 -0,2 C -0,4 C 75 % 995,5 hPa 0,0 mm 0,9 km/h (0 Bft) O-SO 112 0 min -4,1 C 3,0 km/h (1 Bft)
13.02.2016 02:41 -0,2 C -0,4 C 75 % 995,5 hPa 0,0 mm 0,9 km/h (0 Bft) SO 135 0 min -4,1 C 0,0 km/h (0 Bft)
13.02.2016 02:42 -0,2 C -0,4 C 75 % 995,5 hPa 0,0 mm 0,9 km/h (0 Bft) SO 135 0 min -4,1 C 0,0 km/h (0 Bft)
13.02.2016 02:44 -0,1 C -0,3 C 77 % 995,6 hPa 0,0 mm 1,5 km/h (1 Bft) W-SW 247 0 min -3,6 C 4,8 km/h (1 Bft)
13.02.2016 02:45 -0,1 C -0,2 C 75 % 995,6 hPa 0,0 mm 2,1 km/h (1 Bft) SO 135 0 min -4,0 C 3,6 km/h (1 Bft)
13.02.2016 02:46 -0,1 C -0,2 C 75 % 995,6 hPa 0,0 mm 2,1 km/h (1 Bft) SO 135 0 min -4,0 C 3,6 km/h (1 Bft)
13.02.2016 02:47 0,0 C -0,2 C 75 % 995,6 hPa 0,0 mm 1,8 km/h (1 Bft) SO 135 0 min -3,9 C 0,0 km/h (0 Bft)
13.02.2016 02:48 0,0 C -0,2 C 75 % 995,6 hPa 0,0 mm 1,8 km/h (1 Bft) SO 135 0 min -3,9 C 0,0 km/h (0 Bft)
13.02.2016 02:49 0,1 C -0,1 C 75 % 995,6 hPa 0,0 mm 1,5 km/h (1 Bft) SO 135 0 min -3,8 C 4,5 km/h (1 Bft)
13.02.2016 02:50 0,1 C -0,1 C 75 % 995,6 hPa 0,0 mm 1,5 km/h (1 Bft) SO 135 0 min -3,8 C 4,5 km/h (1 Bft)
13.02.2016 02:51 0,1 C 0,0 C 75 % 995,6 hPa 0,0 mm 1,8 km/h (1 Bft) S-SO 157 0 min -3,8 C 0,0 km/h (0 Bft)
13.02.2016 02:52 0,1 C 0,0 C 75 % 995,6 hPa 0,0 mm 1,8 km/h (1 Bft) S-SO 157 0 min -3,8 C 0,0 km/h (0 Bft)
13.02.2016 02:53 0,2 C 0,1 C 75 % 995,6 hPa 0,0 mm 1,8 km/h (1 Bft) S 180 0 min -3,7 C 0,0 km/h (0 Bft)
13.02.2016 02:54 0,2 C 0,1 C 75 % 995,6 hPa 0,0 mm 1,8 km/h (1 Bft) S 180 0 min -3,7 C 0,0 km/h (0 Bft)
13.02.2016 02:55 0,2 C 0,1 C 75 % 995,6 hPa 0,0 mm 0,9 km/h (0 Bft) N 360 0 min -3,7 C 0,0 km/h (0 Bft)
13.02.2016 02:56 0,2 C 0,1 C 75 % 995,6 hPa 0,0 mm 0,9 km/h (0 Bft) N 360 0 min -3,7 C 0,0 km/h (0 Bft)
13.02.2016 02:57 0,2 C 0,0 C 77 % 995,6 hPa 0,0 mm 0,6 km/h (0 Bft) W-SW 247 0 min -3,3 C 0,0 km/h (0 Bft)
13.02.2016 02:58 0,2 C 0,0 C 77 % 995,6 hPa 0,0 mm 0,6 km/h (0 Bft) W-SW 247 0 min -3,3 C 0,0 km/h (0 Bft)
13.02.2016 02:59 0,2 C 0,0 C 77 % 995,6 hPa 0,0 mm 0,6 km/h (0 Bft) SO 135 0 min -3,3 C 0,0 km/h (0 Bft)
13.02.2016 03:00 0,2 C 0,0 C 77 % 995,6 hPa 0,0 mm 0,6 km/h (0 Bft) SO 135 0 min -3,3 C 0,0 km/h (0 Bft)
13.02.2016 03:01 0,1 C 0,0 C 77 % 995,6 hPa 0,0 mm 0,0 km/h (0 Bft) O-NO 67 0 min -3,4 C 0,0 km/h (0 Bft)
13.02.2016 03:02 0,1 C 0,0 C 77 % 995,6 hPa 0,0 mm 0,0 km/h (0 Bft) O-NO 67 0 min -3,4 C 0,0 km/h (0 Bft)
13.02.2016 03:03 0,1 C 0,0 C 77 % 995,6 hPa 0,0 mm 0,0 km/h (0 Bft) O-NO 67 0 min -3,4 C 0,0 km/h (0 Bft)
13.02.2016 03:04 0,1 C 0,0 C 77 % 995,6 hPa 0,0 mm 0,0 km/h (0 Bft) O-NO 67 0 min -3,4 C 0,0 km/h (0 Bft)
13.02.2016 03:05 0,0 C -0,1 C 77 % 995,6 hPa 0,0 mm 0,0 km/h (0 Bft) O-NO 67 0 min -3,5 C 0,0 km/h (0 Bft)
13.02.2016 03:06 0,0 C -0,1 C 77 % 995,6 hPa 0,0 mm 0,0 km/h (0 Bft) O-NO 67 0 min -3,5 C 0,0 km/h (0 Bft)
13.02.2016 03:07 0,0 C -0,2 C 77 % 995,6 hPa 0,0 mm 0,0 km/h (0 Bft) O-NO 67 0 min -3,5 C 0,0 km/h (0 Bft)
13.02.2016 03:08 0,0 C -0,2 C 77 % 995,6 hPa 0,0 mm 0,0 km/h (0 Bft) O-NO 67 0 min -3,5 C 0,0 km/h (0 Bft)
13.02.2016 03:09 0,0 C -0,2 C 77 % 995,6 hPa 0,0 mm 0,0 km/h (0 Bft) O-NO 67 0 min -3,5 C 0,0 km/h (0 Bft)
13.02.2016 03:10 0,0 C -0,2 C 77 % 995,6 hPa 0,0 mm 0,0 km/h (0 Bft) O-NO 67 0 min -3,5 C 0,0 km/h (0 Bft)
13.02.2016 03:11 0,0 C -0,2 C 77 % 995,6 hPa 0,0 mm 0,0 km/h (0 Bft) O-NO 67 0 min -3,5 C 0,0 km/h (0 Bft)
13.02.2016 03:12 0,0 C -0,2 C 77 % 995,6 hPa 0,0 mm 0,0 km/h (0 Bft) O-NO 67 0 min -3,5 C 0,0 km/h (0 Bft)
13.02.2016 03:13 0,0 C -0,2 C 78 % 995,6 hPa 0,0 mm 0,0 km/h (0 Bft) O 90 0 min -3,4 C 0,0 km/h (0 Bft)
13.02.2016 03:14 0,0 C -0,2 C 78 % 995,6 hPa 0,0 mm 0,0 km/h (0 Bft) O 90 0 min -3,4 C 0,0 km/h (0 Bft)
13.02.2016 03:15 0,0 C -0,2 C 78 % 995,6 hPa 0,0 mm 0,0 km/h (0 Bft) O 90 0 min -3,4 C 0,0 km/h (0 Bft)
13.02.2016 03:16 0,0 C -0,2 C 78 % 995,6 hPa 0,0 mm 0,0 km/h (0 Bft) O 90 0 min -3,4 C 0,0 km/h (0 Bft)
13.02.2016 03:17 -0,1 C -0,3 C 78 % 995,6 hPa 0,0 mm 0,0 km/h (0 Bft) O 90 0 min -3,5 C 0,0 km/h (0 Bft)
13.02.2016 03:18 -0,1 C -0,3 C 78 % 995,6 hPa 0,0 mm 0,0 km/h (0 Bft) O 90 0 min -3,5 C 0,0 km/h (0 Bft)
13.02.2016 03:19 -0,1 C -0,3 C 77 % 995,6 hPa 0,0 mm 0,0 km/h (0 Bft) W-SW 247 0 min -3,6 C 0,0 km/h (0 Bft)
13.02.2016 03:20 -0,1 C -0,3 C 77 % 995,6 hPa 0,0 mm 0,0 km/h (0 Bft) W-SW 247 0 min -3,6 C 0,0 km/h (0 Bft)
13.02.2016 03:21 -0,1 C -0,3 C 77 % 995,6 hPa 0,0 mm 0,0 km/h (0 Bft) W 270 0 min -3,6 C 0,0 km/h (0 Bft)
13.02.2016 03:22 -0,1 C -0,3 C 77 % 995,6 hPa 0,0 mm 0,0 km/h (0 Bft) W 270 0 min -3,6 C 0,0 km/h (0 Bft)
13.02.2016 03:23 -0,1 C -0,3 C 77 % 995,5 hPa 0,0 mm 0,0 km/h (0 Bft) S 180 0 min -3,6 C 0,0 km/h (0 Bft)
13.02.2016 03:24 -0,1 C -0,3 C 77 % 995,5 hPa 0,0 mm 0,0 km/h (0 Bft) S 180 0 min -3,6 C 0,0 km/h (0 Bft)
13.02.2016 03:25 0,0 C -0,3 C 77 % 995,5 hPa 0,0 mm 0,0 km/h (0 Bft) SO 135 0 min -3,5 C 0,0 km/h (0 Bft)
13.02.2016 03:26 0,0 C -0,3 C 77 % 995,5 hPa 0,0 mm 0,0 km/h (0 Bft) SO 135 0 min -3,5 C 0,0 km/h (0 Bft)
13.02.2016 03:27 0,1 C -0,2 C 78 % 995,5 hPa 0,0 mm 0,0 km/h (0 Bft) O-SO 112 0 min -3,3 C 0,0 km/h (0 Bft)
13.02.2016 03:28 0,1 C -0,2 C 78 % 995,5 hPa 0,0 mm 0,0 km/h (0 Bft) O-SO 112 0 min -3,3 C 0,0 km/h (0 Bft)
13.02.2016 03:29 0,1 C -0,1 C 75 % 995,5 hPa 0,0 mm 0,0 km/h (0 Bft) SO 135 0 min -3,8 C 0,0 km/h (0 Bft)
13.02.2016 03:30 0,1 C -0,1 C 75 % 995,5 hPa 0,0 mm 0,0 km/h (0 Bft) SO 135 0 min -3,8 C 0,0 km/h (0 Bft)
13.02.2016 03:31 0,1 C -0,2 C 78 % 995,5 hPa 0,0 mm 0,0 km/h (0 Bft) S 180 0 min -3,3 C 0,0 km/h (0 Bft)
13.02.2016 03:32 0,1 C -0,2 C 78 % 995,5 hPa 0,0 mm 0,0 km/h (0 Bft) S 180 0 min -3,3 C 0,0 km/h (0 Bft)
13.02.2016 03:33 0,1 C -0,2 C 78 % 995,5 hPa 0,0 mm 0,0 km/h (0 Bft) O-SO 112 0 min -3,3 C 0,0 km/h (0 Bft)
13.02.2016 03:34 0,1 C -0,2 C 78 % 995,5 hPa 0,0 mm 0,0 km/h (0 Bft) O-SO 112 0 min -3,3 C 0,0 km/h (0 Bft)
13.02.2016 03:35 0,1 C -0,1 C 78 % 995,5 hPa 0,0 mm 0,0 km/h (0 Bft) SO 135 0 min -3,3 C 0,0 km/h (0 Bft)
13.02.2016 03:36 0,1 C -0,1 C 78 % 995,5 hPa 0,0 mm 0,0 km/h (0 Bft) SO 135 0 min -3,3 C 0,0 km/h (0 Bft)
13.02.2016 03:37 0,1 C -0,1 C 78 % 995,5 hPa 0,0 mm 0,0 km/h (0 Bft) S-SO 157 0 min -3,3 C 0,0 km/h (0 Bft)
13.02.2016 03:38 0,1 C -0,1 C 78 % 995,5 hPa 0,0 mm 0,0 km/h (0 Bft) S-SO 157 0 min -3,3 C 0,0 km/h (0 Bft)
13.02.2016 03:39 0,1 C -0,1 C 75 % 995,5 hPa 0,0 mm 0,0 km/h (0 Bft) O-SO 112 0 min -3,8 C 0,0 km/h (0 Bft)
13.02.2016 03:40 0,1 C -0,1 C 75 % 995,5 hPa 0,0 mm 0,0 km/h (0 Bft) O-SO 112 0 min -3,8 C 0,0 km/h (0 Bft)
13.02.2016 03:41 0,1 C -0,1 C 75 % 995,5 hPa 0,0 mm 0,0 km/h (0 Bft) O-SO 112 0 min -3,8 C 0,0 km/h (0 Bft)
13.02.2016 03:42 0,1 C -0,1 C 75 % 995,5 hPa 0,0 mm 0,0 km/h (0 Bft) O-SO 112 0 min -3,8 C 0,0 km/h (0 Bft)
13.02.2016 03:43 0,1 C 0,0 C 75 % 995,6 hPa 0,0 mm 0,0 km/h (0 Bft) O 90 0 min -3,8 C 0,0 km/h (0 Bft)
13.02.2016 03:44 0,1 C 0,0 C 75 % 995,6 hPa 0,0 mm 0,0 km/h (0 Bft) O 90 0 min -3,8 C 0,0 km/h (0 Bft)
13.02.2016 03:45 0,1 C 0,0 C 75 % 995,6 hPa 0,0 mm 0,0 km/h (0 Bft) O 90 0 min -3,8 C 0,0 km/h (0 Bft)
13.02.2016 03:46 0,1 C 0,0 C 75 % 995,6 hPa 0,0 mm 0,0 km/h (0 Bft) O 90 0 min -3,8 C 0,0 km/h (0 Bft)
13.02.2016 03:47 0,1 C -0,1 C 77 % 995,6 hPa 0,0 mm 0,0 km/h (0 Bft) O 90 0 min -3,4 C 0,0 km/h (0 Bft)
13.02.2016 03:48 0,1 C -0,1 C 77 % 995,6 hPa 0,0 mm 0,0 km/h (0 Bft) O 90 0 min -3,4 C 0,0 km/h (0 Bft)
13.02.2016 03:49 0,1 C -0,1 C 77 % 995,6 hPa 0,0 mm 0,0 km/h (0 Bft) O 90 0 min -3,4 C 0,0 km/h (0 Bft)
13.02.2016 03:50 0,1 C -0,1 C 77 % 995,6 hPa 0,0 mm 0,0 km/h (0 Bft) O 90 0 min -3,4 C 0,0 km/h (0 Bft)
13.02.2016 03:51 0,0 C -0,1 C 77 % 995,6 hPa 0,0 mm 0,0 km/h (0 Bft) NO 45 0 min -3,5 C 0,0 km/h (0 Bft)
13.02.2016 03:52 0,0 C -0,1 C 77 % 995,6 hPa 0,0 mm 0,0 km/h (0 Bft) NO 45 0 min -3,5 C 0,0 km/h (0 Bft)
13.02.2016 03:53 0,1 C 0,0 C 75 % 995,6 hPa 0,0 mm 0,0 km/h (0 Bft) O-NO 67 0 min -3,8 C 0,0 km/h (0 Bft)
13.02.2016 03:54 0,1 C 0,0 C 75 % 995,6 hPa 0,0 mm 0,0 km/h (0 Bft) O-NO 67 0 min -3,8 C 0,0 km/h (0 Bft)
13.02.2016 03:55 0,1 C 0,1 C 75 % 995,6 hPa 0,0 mm 0,0 km/h (0 Bft) O-SO 112 0 min -3,8 C 0,0 km/h (0 Bft)
13.02.2016 03:56 0,1 C 0,1 C 75 % 995,6 hPa 0,0 mm 0,0 km/h (0 Bft) O-SO 112 0 min -3,8 C 0,0 km/h (0 Bft)
13.02.2016 03:57 0,2 C 0,0 C 77 % 995,6 hPa 0,0 mm 0,0 km/h (0 Bft) O-NO 67 0 min -3,3 C 0,0 km/h (0 Bft)
13.02.2016 03:58 0,2 C 0,0 C 77 % 995,6 hPa 0,0 mm 0,0 km/h (0 Bft) O-NO 67 0 min -3,3 C 0,0 km/h (0 Bft)
13.02.2016 03:59 0,1 C 0,1 C 75 % 995,6 hPa 0,0 mm 0,3 km/h (0 Bft) NW 315 0 min -3,8 C 3,9 km/h (1 Bft)
13.02.2016 04:00 0,1 C 0,1 C 75 % 995,6 hPa 0,0 mm 0,3 km/h (0 Bft) NW 315 0 min -3,8 C 3,9 km/h (1 Bft)
13.02.2016 04:01 0,2 C 0,1 C 75 % 995,6 hPa 0,0 mm 1,5 km/h (1 Bft) W 270 0 min -3,7 C 8,9 km/h (2 Bft)
13.02.2016 04:02 0,2 C 0,1 C 75 % 995,6 hPa 0,0 mm 1,5 km/h (1 Bft) W 270 0 min -3,7 C 8,9 km/h (2 Bft)
13.02.2016 04:03 0,2 C 0,3 C 75 % 995,7 hPa 0,0 mm 1,8 km/h (1 Bft) O 90 0 min -3,7 C 0,0 km/h (0 Bft)
13.02.2016 04:04 0,2 C 0,3 C 75 % 995,7 hPa 0,0 mm 1,8 km/h (1 Bft) O 90 0 min -3,7 C 8,9 km/h (2 Bft)
13.02.2016 04:05 0,4 C 0,3 C 75 % 995,7 hPa 0,0 mm 1,8 km/h (1 Bft) O 90 0 min -3,5 C 0,0 km/h (0 Bft)
13.02.2016 04:06 0,4 C 0,3 C 75 % 995,7 hPa 0,0 mm 1,8 km/h (1 Bft) O 90 0 min -3,5 C 0,0 km/h (0 Bft)
13.02.2016 04:07 0,4 C 0,3 C 77 % 995,7 hPa 0,0 mm 1,8 km/h (1 Bft) W-SW 247 0 min -3,1 C 0,0 km/h (0 Bft)
13.02.2016 04:08 0,4 C 0,3 C 77 % 995,7 hPa 0,0 mm 1,8 km/h (1 Bft) W-SW 247 0 min -3,1 C 0,0 km/h (0 Bft)
13.02.2016 04:09 0,4 C 0,3 C 77 % 995,7 hPa 0,0 mm 1,8 km/h (1 Bft) W-NW 292 0 min -3,1 C 0,0 km/h (0 Bft)
13.02.2016 04:10 0,4 C 0,3 C 77 % 995,7 hPa 0,0 mm 1,8 km/h (1 Bft) W-NW 292 0 min -3,1 C 0,0 km/h (0 Bft)
13.02.2016 04:11 0,5 C 0,5 C 75 % 995,7 hPa 0,0 mm 1,5 km/h (1 Bft) SO 135 0 min -3,4 C 3,6 km/h (1 Bft)
13.02.2016 04:12 0,5 C 0,5 C 75 % 995,7 hPa 0,0 mm 1,5 km/h (1 Bft) SO 135 0 min -3,4 C 3,6 km/h (1 Bft)
13.02.2016 04:13 0,5 C 0,5 C 75 % 995,7 hPa 0,0 mm 0,9 km/h (0 Bft) SW 225 0 min -3,4 C 0,0 km/h (0 Bft)
13.02.2016 04:14 0,5 C 0,5 C 75 % 995,7 hPa 0,0 mm 0,9 km/h (0 Bft) SW 225 0 min -3,4 C 0,0 km/h (0 Bft)
13.02.2016 04:15 0,6 C 0,5 C 75 % 995,7 hPa 0,0 mm 0,6 km/h (0 Bft) NW 315 0 min -3,3 C 0,0 km/h (0 Bft)
13.02.2016 04:16 0,6 C 0,5 C 75 % 995,7 hPa 0,0 mm 0,6 km/h (0 Bft) NW 315 0 min -3,3 C 0,0 km/h (0 Bft)
13.02.2016 04:17 0,6 C 0,5 C 76 % 995,7 hPa 0,0 mm 0,6 km/h (0 Bft) O-SO 112 0 min -3,1 C 0,0 km/h (0 Bft)
13.02.2016 04:18 0,6 C 0,5 C 76 % 995,7 hPa 0,0 mm 0,6 km/h (0 Bft) O-SO 112 0 min -3,1 C 0,0 km/h (0 Bft)
13.02.2016 04:19 0,6 C 0,5 C 75 % 995,7 hPa 0,0 mm 0,6 km/h (0 Bft) O-SO 112 0 min -3,3 C 0,0 km/h (0 Bft)
13.02.2016 04:20 0,6 C 0,5 C 75 % 995,7 hPa 0,0 mm 0,6 km/h (0 Bft) O-SO 112 0 min -3,3 C 0,0 km/h (0 Bft)
13.02.2016 04:21 0,7 C 0,6 C 75 % 995,7 hPa 0,0 mm 0,6 km/h (0 Bft) W-SW 247 0 min -3,2 C 0,0 km/h (0 Bft)
13.02.2016 04:22 0,7 C 0,6 C 75 % 995,7 hPa 0,0 mm 0,6 km/h (0 Bft) W-SW 247 0 min -3,2 C 0,0 km/h (0 Bft)
13.02.2016 04:23 0,8 C 0,6 C 76 % 995,8 hPa 0,0 mm 0,3 km/h (0 Bft) W 270 0 min -2,9 C 3,0 km/h (1 Bft)
13.02.2016 04:24 0,8 C 0,6 C 76 % 995,8 hPa 0,0 mm 0,3 km/h (0 Bft) W 270 0 min -2,9 C 3,0 km/h (1 Bft)
13.02.2016 04:25 0,8 C 0,6 C 76 % 995,8 hPa 0,0 mm 0,6 km/h (0 Bft) S-SO 157 0 min -2,9 C 0,0 km/h (0 Bft)
13.02.2016 04:26 0,8 C 0,6 C 76 % 995,8 hPa 0,0 mm 0,6 km/h (0 Bft) S-SO 157 0 min -2,9 C 0,0 km/h (0 Bft)
13.02.2016 04:27 0,7 C 0,6 C 76 % 995,8 hPa 0,0 mm 0,6 km/h (0 Bft) O-NO 67 0 min -3,0 C 0,0 km/h (0 Bft)
13.02.2016 04:28 0,7 C 0,6 C 76 % 995,8 hPa 0,0 mm 0,6 km/h (0 Bft) O-NO 67 0 min -3,0 C 0,0 km/h (0 Bft)
13.02.2016 04:29 0,5 C 0,4 C 76 % 995,8 hPa 0,0 mm 0,6 km/h (0 Bft) N-NO 22 0 min -3,2 C 0,0 km/h (0 Bft)
13.02.2016 04:30 0,5 C 0,4 C 76 % 995,8 hPa 0,0 mm 0,6 km/h (0 Bft) N-NO 22 0 min -3,2 C 0,0 km/h (0 Bft)
13.02.2016 04:31 0,4 C 0,3 C 76 % 995,8 hPa 0,0 mm 0,3 km/h (0 Bft) O-NO 67 0 min -3,3 C 0,0 km/h (0 Bft)
13.02.2016 04:32 0,4 C 0,3 C 76 % 995,8 hPa 0,0 mm 0,3 km/h (0 Bft) O-NO 67 0 min -3,3 C 0,0 km/h (0 Bft)
13.02.2016 04:33 0,4 C 0,3 C 76 % 995,8 hPa 0,0 mm 0,3 km/h (0 Bft) O-NO 67 0 min -3,3 C 0,0 km/h (0 Bft)
13.02.2016 04:34 0,4 C 0,3 C 76 % 995,8 hPa 0,0 mm 0,3 km/h (0 Bft) O-NO 67 0 min -3,3 C 0,0 km/h (0 Bft)
13.02.2016 04:35 0,3 C 0,2 C 76 % 995,8 hPa 0,0 mm 0,0 km/h (0 Bft) O-NO 67 0 min -3,4 C 0,0 km/h (0 Bft)
13.02.2016 04:36 0,3 C 0,2 C 76 % 995,8 hPa 0,0 mm 0,0 km/h (0 Bft) O-NO 67 0 min -3,4 C 0,0 km/h (0 Bft)
13.02.2016 04:37 0,3 C 0,2 C 76 % 995,8 hPa 0,0 mm 0,0 km/h (0 Bft) O-NO 67 0 min -3,4 C 0,0 km/h (0 Bft)
13.02.2016 04:38 0,3 C 0,2 C 76 % 995,8 hPa 0,0 mm 0,0 km/h (0 Bft) O-NO 67 0 min -3,4 C 0,0 km/h (0 Bft)
13.02.2016 04:39 0,3 C 0,1 C 76 % 995,8 hPa 0,0 mm 0,0 km/h (0 Bft) N-NW 337 0 min -3,4 C 0,0 km/h (0 Bft)
13.02.2016 04:40 0,3 C 0,1 C 76 % 995,8 hPa 0,0 mm 0,0 km/h (0 Bft) N-NW 337 0 min -3,4 C 0,0 km/h (0 Bft)
13.02.2016 04:41 0,3 C 0,1 C 76 % 995,8 hPa 0,0 mm 0,3 km/h (0 Bft) W-SW 247 0 min -3,4 C 3,3 km/h (1 Bft)
13.02.2016 04:42 0,3 C 0,1 C 76 % 995,8 hPa 0,0 mm 0,3 km/h (0 Bft) W-SW 247 0 min -3,4 C 3,3 km/h (1 Bft)
13.02.2016 04:43 0,6 C 0,3 C 76 % 995,9 hPa 0,0 mm 0,6 km/h (0 Bft) W-SW 247 0 min -3,1 C 0,0 km/h (0 Bft)
13.02.2016 04:44 0,6 C 0,3 C 76 % 995,9 hPa 0,0 mm 0,6 km/h (0 Bft) W-SW 247 0 min -3,1 C 0,0 km/h (0 Bft)
13.02.2016 04:45 0,8 C 0,6 C 74 % 995,9 hPa 0,0 mm 1,8 km/h (1 Bft) SW 225 0 min -3,3 C 8,6 km/h (2 Bft)
13.02.2016 04:46 0,8 C 0,6 C 74 % 995,9 hPa 0,0 mm 1,8 km/h (1 Bft) SW 225 0 min -3,3 C 8,6 km/h (2 Bft)
13.02.2016 04:47 1,0 C 0,7 C 76 % 995,9 hPa 0,0 mm 2,4 km/h (1 Bft) S-SW 202 0 min -2,7 C 4,5 km/h (1 Bft)
13.02.2016 04:48 1,0 C 0,7 C 76 % 995,9 hPa 0,0 mm 2,4 km/h (1 Bft) S-SW 202 0 min -2,7 C 4,5 km/h (1 Bft)
13.02.2016 04:49 1,1 C 0,9 C 76 % 995,9 hPa 0,0 mm 3,0 km/h (1 Bft) SW 225 0 min -2,6 C 3,3 km/h (1 Bft)
13.02.2016 04:50 1,1 C 0,9 C 76 % 995,9 hPa 0,0 mm 3,0 km/h (1 Bft) SW 225 0 min -2,6 C 3,3 km/h (1 Bft)
13.02.2016 04:51 1,1 C 0,9 C 76 % 995,9 hPa 0,0 mm 3,9 km/h (1 Bft) SW 225 0 min -2,6 C 6,6 km/h (2 Bft)
13.02.2016 04:52 1,1 C 0,9 C 76 % 995,9 hPa 0,0 mm 3,9 km/h (1 Bft) SW 225 0 min -2,6 C 6,6 km/h (2 Bft)
13.02.2016 04:53 1,2 C 1,0 C 76 % 995,9 hPa 0,0 mm 4,5 km/h (1 Bft) W-SW 247 0 min -2,5 C 5,7 km/h (1 Bft)
13.02.2016 04:54 1,2 C 1,0 C 76 % 995,9 hPa 0,0 mm 4,5 km/h (1 Bft) W-SW 247 0 min -2,5 C 5,7 km/h (1 Bft)
13.02.2016 04:55 1,1 C 0,9 C 76 % 995,9 hPa 0,0 mm 4,8 km/h (1 Bft) S-SW 202 0 min -2,6 C 4,5 km/h (1 Bft)
13.02.2016 04:56 1,1 C 0,9 C 76 % 995,9 hPa 0,0 mm 4,8 km/h (1 Bft) S-SW 202 0 min -2,6 C 4,5 km/h (1 Bft)
13.02.2016 04:57 1,1 C 0,9 C 76 % 995,9 hPa 0,0 mm 5,1 km/h (1 Bft) SW 225 0 min -2,6 C 6,3 km/h (2 Bft)
13.02.2016 04:58 1,1 C 0,9 C 76 % 995,9 hPa 0,0 mm 5,1 km/h (1 Bft) SW 225 0 min -2,6 C 6,3 km/h (2 Bft)
13.02.2016 04:59 1,2 C 0,9 C 76 % 995,9 hPa 0,0 mm 5,1 km/h (1 Bft) W 270 0 min -2,5 C 0,0 km/h (0 Bft)
13.02.2016 05:00 1,2 C 0,9 C 76 % 995,9 hPa 0,0 mm 5,1 km/h (1 Bft) W 270 0 min -2,5 C 0,0 km/h (0 Bft)
13.02.2016 05:01 1,1 C 0,8 C 77 % 995,9 hPa 0,0 mm 5,1 km/h (1 Bft) S 180 0 min -2,5 C 6,9 km/h (2 Bft)
13.02.2016 05:02 1,1 C 0,8 C 77 % 995,9 hPa 0,0 mm 5,1 km/h (1 Bft) S 180 0 min -2,5 C 6,9 km/h (2 Bft)
13.02.2016 05:03 1,2 C 0,9 C 77 % 995,9 hPa 0,0 mm 5,4 km/h (1 Bft) W-SW 247 0 min -2,4 C 6,0 km/h (2 Bft)
13.02.2016 05:04 1,2 C 0,9 C 77 % 995,9 hPa 0,0 mm 5,4 km/h (1 Bft) W-SW 247 0 min -2,4 C 10,7 km/h (2 Bft)
13.02.2016 05:05 1,2 C 0,9 C 77 % 995,9 hPa 0,0 mm 5,4 km/h (1 Bft) W-SW 247 0 min -2,4 C 6,0 km/h (2 Bft)
13.02.2016 05:06 1,2 C 0,9 C 77 % 995,9 hPa 0,0 mm 5,4 km/h (1 Bft) W-SW 247 0 min -2,4 C 6,0 km/h (2 Bft)
13.02.2016 05:07 1,2 C 0,9 C 77 % 995,9 hPa 0,0 mm 5,1 km/h (1 Bft) S 180 0 min -2,4 C 8,3 km/h (2 Bft)
13.02.2016 05:08 1,2 C 0,9 C 77 % 995,9 hPa 0,0 mm 5,1 km/h (1 Bft) S 180 0 min -2,4 C 8,3 km/h (2 Bft)
13.02.2016 05:09 1,2 C 0,8 C 77 % 995,9 hPa 0,0 mm 5,7 km/h (1 Bft) W-SW 247 0 min -2,4 C 3,0 km/h (1 Bft)
13.02.2016 05:10 1,2 C 0,8 C 77 % 995,9 hPa 0,0 mm 5,7 km/h (1 Bft) W-SW 247 0 min -2,4 C 3,0 km/h (1 Bft)
13.02.2016 05:11 1,2 C 0,7 C 77 % 995,9 hPa 0,0 mm 6,3 km/h (2 Bft) SW 225 0 min -2,4 C 6,9 km/h (2 Bft)
13.02.2016 05:12 1,2 C 0,7 C 77 % 995,9 hPa 0,0 mm 6,3 km/h (2 Bft) SW 225 0 min -2,4 C 6,9 km/h (2 Bft)
13.02.2016 05:13 1,2 C 0,7 C 78 % 995,9 hPa 0,0 mm 6,3 km/h (2 Bft) SW 225 0 min -2,2 C 14,0 km/h (3 Bft)
13.02.2016 05:14 1,2 C 0,7 C 78 % 995,9 hPa 0,0 mm 6,3 km/h (2 Bft) SW 225 0 min -2,2 C 14,0 km/h (3 Bft)
13.02.2016 05:15 1,2 C 0,7 C 78 % 995,9 hPa 0,0 mm 6,6 km/h (2 Bft) SW 225 0 min -2,2 C 4,5 km/h (1 Bft)
13.02.2016 05:16 1,2 C 0,7 C 78 % 995,9 hPa 0,0 mm 6,6 km/h (2 Bft) SW 225 0 min -2,2 C 4,5 km/h (1 Bft)
13.02.2016 05:17 1,2 C 0,7 C 78 % 995,9 hPa 0,0 mm 7,2 km/h (2 Bft) W 270 0 min -2,2 C 16,4 km/h (3 Bft)
13.02.2016 05:18 1,2 C 0,7 C 78 % 995,9 hPa 0,0 mm 7,2 km/h (2 Bft) W 270 0 min -2,2 C 16,4 km/h (3 Bft)
13.02.2016 05:19 1,2 C 0,6 C 78 % 995,9 hPa 0,0 mm 7,7 km/h (2 Bft) W 270 0 min -2,2 C 18,5 km/h (3 Bft)
13.02.2016 05:20 1,2 C 0,6 C 78 % 995,9 hPa 0,0 mm 7,7 km/h (2 Bft) W 270 0 min -2,2 C 18,5 km/h (3 Bft)
13.02.2016 05:21 1,2 C 0,5 C 79 % 995,9 hPa 0,0 mm 8,3 km/h (2 Bft) W-SW 247 0 min -2,0 C 15,2 km/h (3 Bft)
13.02.2016 05:22 1,2 C 0,5 C 79 % 995,9 hPa 0,0 mm 8,3 km/h (2 Bft) W-SW 247 0 min -2,0 C 15,2 km/h (3 Bft)
13.02.2016 05:23 1,2 C 0,5 C 79 % 996,3 hPa 0,0 mm 9,2 km/h (2 Bft) SW 225 0 min -2,0 C 13,1 km/h (3 Bft)
13.02.2016 05:24 1,2 C 0,5 C 79 % 996,3 hPa 0,0 mm 9,2 km/h (2 Bft) SW 225 0 min -2,0 C 19,7 km/h (3 Bft)
13.02.2016 05:25 1,2 C 0,4 C 79 % 996,3 hPa 0,0 mm 8,9 km/h (2 Bft) W-SW 247 0 min -2,0 C 8,0 km/h (2 Bft)
13.02.2016 05:26 1,2 C 0,4 C 79 % 996,3 hPa 0,0 mm 8,9 km/h (2 Bft) W-SW 247 0 min -2,0 C 8,0 km/h (2 Bft)
13.02.2016 05:27 1,1 C 0,4 C 79 % 996,3 hPa 0,0 mm 8,9 km/h (2 Bft) W-NW 292 0 min -2,1 C 7,5 km/h (2 Bft)
13.02.2016 05:28 1,1 C 0,4 C 79 % 996,3 hPa 0,0 mm 8,9 km/h (2 Bft) W-NW 292 0 min -2,1 C 7,5 km/h (2 Bft)
13.02.2016 05:29 1,1 C 0,4 C 79 % 996,3 hPa 0,0 mm 8,3 km/h (2 Bft) S-SW 202 0 min -2,1 C 11,9 km/h (2 Bft)
13.02.2016 05:30 1,1 C 0,4 C 79 % 996,3 hPa 0,0 mm 8,3 km/h (2 Bft) S-SW 202 0 min -2,1 C 11,9 km/h (2 Bft)
13.02.2016 05:31 1,1 C 0,4 C 80 % 996,3 hPa 0,0 mm 7,7 km/h (2 Bft) NO 45 0 min -2,0 C 12,2 km/h (2 Bft)
13.02.2016 05:32 1,1 C 0,4 C 80 % 996,3 hPa 0,0 mm 7,7 km/h (2 Bft) NO 45 0 min -2,0 C 12,2 km/h (2 Bft)
13.02.2016 05:33 1,0 C 0,4 C 81 % 996,3 hPa 0,0 mm 7,5 km/h (2 Bft) W-SW 247 0 min -1,9 C 8,3 km/h (2 Bft)
13.02.2016 05:34 1,0 C 0,4 C 81 % 996,3 hPa 0,0 mm 7,5 km/h (2 Bft) W-SW 247 0 min -1,9 C 8,3 km/h (2 Bft)
13.02.2016 05:35 1,0 C 0,4 C 81 % 996,3 hPa 0,0 mm 7,5 km/h (2 Bft) W-NW 292 0 min -1,9 C 16,1 km/h (3 Bft)
13.02.2016 05:36 1,0 C 0,4 C 81 % 996,3 hPa 0,0 mm 7,5 km/h (2 Bft) W-NW 292 0 min -1,9 C 16,1 km/h (3 Bft)
13.02.2016 05:37 1,0 C 0,3 C 81 % 996,3 hPa 0,0 mm 8,0 km/h (2 Bft) O-SO 112 0 min -1,9 C 9,2 km/h (2 Bft)
13.02.2016 05:38 1,0 C 0,3 C 81 % 996,3 hPa 0,0 mm 8,0 km/h (2 Bft) O-SO 112 0 min -1,9 C 9,2 km/h (2 Bft)
13.02.2016 05:39 1,0 C 0,3 C 82 % 996,3 hPa 0,0 mm 8,0 km/h (2 Bft) W-SW 247 0 min -1,7 C 10,4 km/h (2 Bft)
13.02.2016 05:40 1,0 C 0,3 C 82 % 996,3 hPa 0,0 mm 8,0 km/h (2 Bft) W-SW 247 0 min -1,7 C 10,4 km/h (2 Bft)
13.02.2016 05:41 1,0 C 0,3 C 82 % 996,3 hPa 0,0 mm 8,0 km/h (2 Bft) SW 225 0 min -1,7 C 10,1 km/h (2 Bft)
13.02.2016 05:42 1,0 C 0,3 C 82 % 996,3 hPa 0,0 mm 8,0 km/h (2 Bft) SW 225 0 min -1,7 C 10,1 km/h (2 Bft)
13.02.2016 05:43 1,0 C 0,3 C 82 % 996,3 hPa 0,0 mm 8,0 km/h (2 Bft) SW 225 0 min -1,7 C 11,0 km/h (2 Bft)
13.02.2016 05:44 1,0 C 0,3 C 82 % 996,3 hPa 0,0 mm 8,0 km/h (2 Bft) SW 225 0 min -1,7 C 11,0 km/h (2 Bft)
13.02.2016 05:45 0,9 C 0,4 C 83 % 996,3 hPa 0,0 mm 6,6 km/h (2 Bft) S 180 0 min -1,7 C 5,1 km/h (1 Bft)
13.02.2016 05:46 0,9 C 0,4 C 83 % 996,3 hPa 0,0 mm 6,6 km/h (2 Bft) S 180 0 min -1,7 C 5,1 km/h (1 Bft)
13.02.2016 05:47 0,9 C 0,5 C 83 % 996,3 hPa 0,0 mm 6,3 km/h (2 Bft) S-SO 157 0 min -1,7 C 7,2 km/h (2 Bft)
13.02.2016 05:48 0,9 C 0,5 C 83 % 996,3 hPa 0,0 mm 6,3 km/h (2 Bft) S-SO 157 0 min -1,7 C 7,2 km/h (2 Bft)
13.02.2016 05:49 0,9 C 0,4 C 83 % 996,3 hPa 0,0 mm 6,6 km/h (2 Bft) W 270 0 min -1,7 C 13,7 km/h (3 Bft)
13.02.2016 05:50 0,9 C 0,4 C 83 % 996,3 hPa 0,0 mm 6,6 km/h (2 Bft) W 270 0 min -1,7 C 13,7 km/h (3 Bft)
13.02.2016 05:51 0,9 C 0,4 C 83 % 996,3 hPa 0,0 mm 6,0 km/h (2 Bft) W 270 0 min -1,7 C 3,6 km/h (1 Bft)
13.02.2016 05:52 0,9 C 0,4 C 83 % 996,3 hPa 0,0 mm 6,0 km/h (2 Bft) W 270 0 min -1,7 C 3,6 km/h (1 Bft)
13.02.2016 05:53 0,8 C 0,4 C 83 % 996,3 hPa 0,0 mm 6,0 km/h (2 Bft) W-SW 247 0 min -1,8 C 12,5 km/h (3 Bft)
13.02.2016 05:54 0,8 C 0,4 C 83 % 996,3 hPa 0,0 mm 6,0 km/h (2 Bft) W-SW 247 0 min -1,8 C 12,5 km/h (3 Bft)
13.02.2016 05:55 0,8 C 0,4 C 83 % 996,3 hPa 0,0 mm 6,0 km/h (2 Bft) W-SW 247 0 min -1,8 C 6,9 km/h (2 Bft)
13.02.2016 05:56 0,8 C 0,4 C 83 % 996,3 hPa 0,0 mm 6,0 km/h (2 Bft) W-SW 247 0 min -1,8 C 6,9 km/h (2 Bft)
13.02.2016 05:57 0,8 C 0,3 C 83 % 996,3 hPa 0,0 mm 6,6 km/h (2 Bft) W 270 0 min -1,8 C 4,2 km/h (1 Bft)
13.02.2016 05:58 0,8 C 0,3 C 83 % 996,3 hPa 0,0 mm 6,6 km/h (2 Bft) W 270 0 min -1,8 C 4,2 km/h (1 Bft)
13.02.2016 05:59 0,8 C 0,3 C 83 % 996,3 hPa 0,0 mm 6,3 km/h (2 Bft) W-SW 247 0 min -1,8 C 7,2 km/h (2 Bft)
13.02.2016 06:00 0,8 C 0,3 C 83 % 996,3 hPa 0,0 mm 6,3 km/h (2 Bft) W-SW 247 0 min -1,8 C 7,2 km/h (2 Bft)
13.02.2016 06:01 0,8 C 0,3 C 84 % 996,3 hPa 0,0 mm 6,6 km/h (2 Bft) W-NW 292 0 min -1,6 C 6,6 km/h (2 Bft)
13.02.2016 06:02 0,8 C 0,3 C 84 % 996,3 hPa 0,0 mm 6,6 km/h (2 Bft) W-NW 292 0 min -1,6 C 6,6 km/h (2 Bft)
13.02.2016 06:03 0,8 C 0,3 C 84 % 996,5 hPa 0,0 mm 6,6 km/h (2 Bft) W-NW 292 0 min -1,6 C 6,6 km/h (2 Bft)
13.02.2016 06:04 0,8 C 0,3 C 84 % 996,5 hPa 0,0 mm 6,6 km/h (2 Bft) W-NW 292 0 min -1,6 C 6,6 km/h (2 Bft)
13.02.2016 06:05 0,8 C 0,3 C 84 % 996,5 hPa 0,0 mm 6,0 km/h (2 Bft) W-SW 247 0 min -1,6 C 6,0 km/h (2 Bft)
13.02.2016 06:06 0,8 C 0,3 C 84 % 996,5 hPa 0,0 mm 6,0 km/h (2 Bft) W-SW 247 0 min -1,6 C 6,0 km/h (2 Bft)
13.02.2016 06:07 0,7 C 0,3 C 84 % 996,5 hPa 0,0 mm 5,7 km/h (1 Bft) SW 225 0 min -1,7 C 8,9 km/h (2 Bft)
13.02.2016 06:08 0,7 C 0,3 C 84 % 996,5 hPa 0,0 mm 5,7 km/h (1 Bft) SW 225 0 min -1,7 C 8,9 km/h (2 Bft)
13.02.2016 06:09 0,7 C 0,3 C 84 % 996,5 hPa 0,0 mm 5,4 km/h (1 Bft) W 270 0 min -1,7 C 4,5 km/h (1 Bft)
13.02.2016 06:10 0,7 C 0,3 C 84 % 996,5 hPa 0,0 mm 5,4 km/h (1 Bft) W 270 0 min -1,7 C 4,5 km/h (1 Bft)
13.02.2016 06:11 0,7 C 0,4 C 84 % 996,5 hPa 0,0 mm 4,8 km/h (1 Bft) W-SW 247 0 min -1,7 C 6,9 km/h (2 Bft)
13.02.2016 06:12 0,7 C 0,4 C 84 % 996,5 hPa 0,0 mm 4,8 km/h (1 Bft) W-SW 247 0 min -1,7 C 6,9 km/h (2 Bft)
13.02.2016 06:13 0,7 C 0,5 C 84 % 996,5 hPa 0,0 mm 4,2 km/h (1 Bft) SW 225 0 min -1,7 C 4,5 km/h (1 Bft)
13.02.2016 06:14 0,7 C 0,5 C 84 % 996,5 hPa 0,0 mm 4,2 km/h (1 Bft) SW 225 0 min -1,7 C 4,5 km/h (1 Bft)
13.02.2016 06:15 0,7 C 0,5 C 84 % 996,5 hPa 0,0 mm 3,9 km/h (1 Bft) SW 225 0 min -1,7 C 10,4 km/h (2 Bft)
13.02.2016 06:16 0,7 C 0,5 C 84 % 996,5 hPa 0,0 mm 3,9 km/h (1 Bft) SW 225 0 min -1,7 C 10,4 km/h (2 Bft)
13.02.2016 06:17 0,7 C 0,5 C 84 % 996,5 hPa 0,0 mm 3,9 km/h (1 Bft) W-SW 247 0 min -1,7 C 0,0 km/h (0 Bft)
13.02.2016 06:18 0,7 C 0,5 C 84 % 996,5 hPa 0,0 mm 3,9 km/h (1 Bft) W-SW 247 0 min -1,7 C 0,0 km/h (0 Bft)
13.02.2016 06:19 0,7 C 0,5 C 84 % 996,5 hPa 0,0 mm 3,6 km/h (1 Bft) SW 225 0 min -1,7 C 6,0 km/h (2 Bft)
13.02.2016 06:20 0,7 C 0,5 C 84 % 996,5 hPa 0,0 mm 3,6 km/h (1 Bft) SW 225 0 min -1,7 C 6,0 km/h (2 Bft)
13.02.2016 06:21 0,8 C 0,5 C 84 % 996,5 hPa 0,0 mm 4,2 km/h (1 Bft) SO 135 0 min -1,6 C 6,3 km/h (2 Bft)
13.02.2016 06:22 0,8 C 0,5 C 84 % 996,5 hPa 0,0 mm 4,2 km/h (1 Bft) SO 135 0 min -1,6 C 6,3 km/h (2 Bft)
13.02.2016 06:23 0,8 C 0,5 C 84 % 996,8 hPa 0,0 mm 4,2 km/h (1 Bft) W-SW 247 0 min -1,6 C 5,1 km/h (1 Bft)
13.02.2016 06:24 0,8 C 0,5 C 84 % 996,8 hPa 0,0 mm 4,2 km/h (1 Bft) W-SW 247 0 min -1,6 C 5,1 km/h (1 Bft)
13.02.2016 06:25 0,8 C 0,6 C 84 % 996,8 hPa 0,0 mm 3,9 km/h (1 Bft) SW 225 0 min -1,6 C 3,9 km/h (1 Bft)
13.02.2016 06:26 0,8 C 0,6 C 84 % 996,8 hPa 0,0 mm 3,9 km/h (1 Bft) SW 225 0 min -1,6 C 3,9 km/h (1 Bft)
13.02.2016 06:27 0,8 C 0,6 C 84 % 996,8 hPa 0,0 mm 4,2 km/h (1 Bft) SW 225 0 min -1,6 C 8,3 km/h (2 Bft)
13.02.2016 06:28 0,8 C 0,6 C 84 % 996,8 hPa 0,0 mm 4,2 km/h (1 Bft) SW 225 0 min -1,6 C 8,3 km/h (2 Bft)
13.02.2016 06:29 0,8 C 0,6 C 84 % 996,8 hPa 0,0 mm 4,2 km/h (1 Bft) W 270 0 min -1,6 C 3,3 km/h (1 Bft)
13.02.2016 06:30 0,8 C 0,6 C 84 % 996,8 hPa 0,0 mm 4,2 km/h (1 Bft) W 270 0 min -1,6 C 3,3 km/h (1 Bft)
13.02.2016 06:31 0,8 C 0,6 C 84 % 996,8 hPa 0,0 mm 3,6 km/h (1 Bft) S-SW 202 0 min -1,6 C 8,6 km/h (2 Bft)
13.02.2016 06:32 0,8 C 0,6 C 84 % 996,8 hPa 0,0 mm 3,6 km/h (1 Bft) S-SW 202 0 min -1,6 C 8,6 km/h (2 Bft)
13.02.2016 06:33 0,8 C 0,6 C 84 % 996,8 hPa 0,0 mm 3,3 km/h (1 Bft) W-NW 292 0 min -1,6 C 3,6 km/h (1 Bft)
13.02.2016 06:34 0,8 C 0,6 C 84 % 996,8 hPa 0,0 mm 3,3 km/h (1 Bft) W-NW 292 0 min -1,6 C 3,6 km/h (1 Bft)
13.02.2016 06:35 0,7 C 0,5 C 84 % 996,8 hPa 0,0 mm 3,0 km/h (1 Bft) S-SW 202 0 min -1,7 C 3,6 km/h (1 Bft)
13.02.2016 06:36 0,7 C 0,5 C 84 % 996,8 hPa 0,0 mm 3,0 km/h (1 Bft) S-SW 202 0 min -1,7 C 3,6 km/h (1 Bft)
13.02.2016 06:37 0,7 C 0,5 C 84 % 996,8 hPa 0,0 mm 3,3 km/h (1 Bft) W-SW 247 0 min -1,7 C 7,2 km/h (2 Bft)
13.02.2016 06:38 0,7 C 0,5 C 84 % 996,8 hPa 0,0 mm 3,3 km/h (1 Bft) W-SW 247 0 min -1,7 C 7,2 km/h (2 Bft)
13.02.2016 06:39 0,7 C 0,5 C 84 % 996,8 hPa 0,0 mm 3,3 km/h (1 Bft) W-SW 247 0 min -1,7 C 5,7 km/h (1 Bft)
13.02.2016 06:40 0,7 C 0,5 C 84 % 996,8 hPa 0,0 mm 3,3 km/h (1 Bft) W-SW 247 0 min -1,7 C 5,7 km/h (1 Bft)
13.02.2016 06:41 0,7 C 0,5 C 84 % 996,8 hPa 0,0 mm 3,9 km/h (1 Bft) SW 225 0 min -1,7 C 5,1 km/h (1 Bft)
13.02.2016 06:42 0,7 C 0,5 C 84 % 996,8 hPa 0,0 mm 3,9 km/h (1 Bft) SW 225 0 min -1,7 C 5,1 km/h (1 Bft)
13.02.2016 06:43 0,7 C 0,5 C 85 % 996,6 hPa 0,0 mm 3,9 km/h (1 Bft) W-NW 292 0 min -1,5 C 5,7 km/h (1 Bft)
13.02.2016 06:44 0,7 C 0,5 C 85 % 996,6 hPa 0,0 mm 3,9 km/h (1 Bft) W-NW 292 0 min -1,5 C 5,7 km/h (1 Bft)
13.02.2016 06:45 0,7 C 0,5 C 85 % 996,6 hPa 0,0 mm 4,5 km/h (1 Bft) W-SW 247 0 min -1,5 C 7,7 km/h (2 Bft)
13.02.2016 06:46 0,7 C 0,5 C 85 % 996,6 hPa 0,0 mm 4,5 km/h (1 Bft) W-SW 247 0 min -1,5 C 7,7 km/h (2 Bft)
13.02.2016 06:47 0,8 C 0,4 C 85 % 996,6 hPa 0,0 mm 5,4 km/h (1 Bft) SW 225 0 min -1,4 C 7,2 km/h (2 Bft)
13.02.2016 06:48 0,8 C 0,4 C 85 % 996,6 hPa 0,0 mm 5,4 km/h (1 Bft) SW 225 0 min -1,4 C 7,2 km/h (2 Bft)
13.02.2016 06:49 0,8 C 0,5 C 85 % 996,6 hPa 0,0 mm 4,8 km/h (1 Bft) W-SW 247 0 min -1,4 C 3,9 km/h (1 Bft)
13.02.2016 06:50 0,8 C 0,5 C 85 % 996,6 hPa 0,0 mm 4,8 km/h (1 Bft) W-SW 247 0 min -1,4 C 3,9 km/h (1 Bft)
13.02.2016 06:51 0,8 C 0,6 C 85 % 996,6 hPa 0,0 mm 4,5 km/h (1 Bft) SW 225 0 min -1,4 C 7,2 km/h (2 Bft)
13.02.2016 06:52 0,8 C 0,6 C 85 % 996,6 hPa 0,0 mm 4,5 km/h (1 Bft) SW 225 0 min -1,4 C 7,2 km/h (2 Bft)
13.02.2016 06:53 0,8 C 0,6 C 85 % 996,6 hPa 0,0 mm 4,5 km/h (1 Bft) S 180 0 min -1,4 C 4,5 km/h (1 Bft)
13.02.2016 06:54 0,8 C 0,6 C 85 % 996,6 hPa 0,0 mm 4,5 km/h (1 Bft) S 180 0 min -1,4 C 4,5 km/h (1 Bft)
13.02.2016 06:55 0,9 C 0,7 C 85 % 996,6 hPa 0,0 mm 3,9 km/h (1 Bft) SW 225 0 min -1,3 C 0,0 km/h (0 Bft)
13.02.2016 06:56 0,9 C 0,7 C 85 % 996,6 hPa 0,0 mm 3,9 km/h (1 Bft) SW 225 0 min -1,3 C 0,0 km/h (0 Bft)
13.02.2016 06:57 0,9 C 0,7 C 85 % 996,6 hPa 0,0 mm 3,0 km/h (1 Bft) SW 225 0 min -1,3 C 6,3 km/h (2 Bft)
13.02.2016 06:58 0,9 C 0,7 C 85 % 996,6 hPa 0,0 mm 3,0 km/h (1 Bft) SW 225 0 min -1,3 C 6,3 km/h (2 Bft)
13.02.2016 06:59 0,9 C 0,7 C 85 % 996,6 hPa 0,0 mm 2,7 km/h (1 Bft) W-SW 247 0 min -1,3 C 5,4 km/h (1 Bft)
13.02.2016 07:00 0,9 C 0,7 C 85 % 996,6 hPa 0,0 mm 2,7 km/h (1 Bft) W-SW 247 0 min -1,3 C 5,4 km/h (1 Bft)
13.02.2016 07:01 0,9 C 0,7 C 85 % 996,6 hPa 0,0 mm 3,3 km/h (1 Bft) W-SW 247 0 min -1,3 C 5,4 km/h (1 Bft)
13.02.2016 07:02 0,9 C 0,7 C 85 % 996,6 hPa 0,0 mm 3,3 km/h (1 Bft) W-SW 247 0 min -1,3 C 5,4 km/h (1 Bft)
13.02.2016 07:03 0,8 C 0,6 C 85 % 996,8 hPa 0,0 mm 3,3 km/h (1 Bft) W 270 0 min -1,4 C 4,5 km/h (1 Bft)
13.02.2016 07:04 0,8 C 0,6 C 85 % 996,8 hPa 0,0 mm 3,3 km/h (1 Bft) W 270 0 min -1,4 C 4,5 km/h (1 Bft)
13.02.2016 07:05 0,9 C 0,7 C 86 % 996,8 hPa 0,0 mm 3,9 km/h (1 Bft) W 270 0 min -1,2 C 8,3 km/h (2 Bft)
13.02.2016 07:06 0,9 C 0,7 C 86 % 996,8 hPa 0,0 mm 3,9 km/h (1 Bft) W 270 0 min -1,2 C 8,3 km/h (2 Bft)
13.02.2016 07:07 0,9 C 0,7 C 86 % 996,8 hPa 0,0 mm 4,5 km/h (1 Bft) W 270 0 min -1,2 C 4,8 km/h (1 Bft)
13.02.2016 07:08 0,9 C 0,7 C 86 % 996,8 hPa 0,0 mm 4,5 km/h (1 Bft) W 270 0 min -1,2 C 4,8 km/h (1 Bft)
13.02.2016 07:09 0,9 C 0,6 C 86 % 996,8 hPa 0,0 mm 4,8 km/h (1 Bft) W-SW 247 0 min -1,2 C 3,6 km/h (1 Bft)
13.02.2016 07:10 0,9 C 0,6 C 86 % 996,8 hPa 0,0 mm 4,8 km/h (1 Bft) W-SW 247 0 min -1,2 C 3,6 km/h (1 Bft)
13.02.2016 07:11 0,9 C 0,6 C 86 % 996,8 hPa 0,0 mm 4,8 km/h (1 Bft) W-SW 247 0 min -1,2 C 3,9 km/h (1 Bft)
13.02.2016 07:12 0,9 C 0,6 C 86 % 996,8 hPa 0,0 mm 4,8 km/h (1 Bft) W-SW 247 0 min -1,2 C 3,9 km/h (1 Bft)
13.02.2016 07:13 0,9 C 0,7 C 86 % 996,8 hPa 0,7 mm 4,5 km/h (1 Bft) SW 225 0 min -1,2 C 5,7 km/h (1 Bft)
13.02.2016 07:14 0,9 C 0,7 C 86 % 996,8 hPa 0,0 mm 4,5 km/h (1 Bft) SW 225 0 min -1,2 C 5,7 km/h (1 Bft)
13.02.2016 07:15 0,9 C 0,7 C 86 % 996,8 hPa 0,0 mm 4,5 km/h (1 Bft) W 270 0 min -1,2 C 0,0 km/h (0 Bft)
13.02.2016 07:16 0,9 C 0,7 C 86 % 996,8 hPa 0,0 mm 4,5 km/h (1 Bft) W 270 0 min -1,2 C 0,0 km/h (0 Bft)
13.02.2016 07:17 0,9 C 0,7 C 86 % 996,8 hPa 0,0 mm 3,6 km/h (1 Bft) W 270 0 min -1,2 C 0,0 km/h (0 Bft)
13.02.2016 07:18 0,9 C 0,7 C 86 % 996,8 hPa 0,0 mm 3,6 km/h (1 Bft) W 270 0 min -1,2 C 0,0 km/h (0 Bft)
13.02.2016 07:19 0,9 C 0,7 C 86 % 996,8 hPa 0,0 mm 3,6 km/h (1 Bft) W 270 0 min -1,2 C 4,8 km/h (1 Bft)
13.02.2016 07:20 0,9 C 0,7 C 86 % 996,8 hPa 0,0 mm 3,6 km/h (1 Bft) W 270 0 min -1,2 C 4,8 km/h (1 Bft)
13.02.2016 07:21 0,9 C 0,7 C 86 % 996,8 hPa 0,0 mm 3,0 km/h (1 Bft) W-SW 247 0 min -1,2 C 0,0 km/h (0 Bft)
13.02.2016 07:22 0,9 C 0,7 C 86 % 996,8 hPa 0,0 mm 3,0 km/h (1 Bft) W-SW 247 0 min -1,2 C 0,0 km/h (0 Bft)
13.02.2016 07:23 0,9 C 0,7 C 86 % 996,5 hPa 0,0 mm 2,7 km/h (1 Bft) SW 225 0 min -1,2 C 4,2 km/h (1 Bft)
13.02.2016 07:24 0,9 C 0,7 C 86 % 996,5 hPa 0,0 mm 2,7 km/h (1 Bft) SW 225 0 min -1,2 C 4,2 km/h (1 Bft)
13.02.2016 07:25 0,9 C 0,7 C 86 % 996,5 hPa 0,0 mm 2,4 km/h (1 Bft) S-SW 202 0 min -1,2 C 3,0 km/h (1 Bft)
13.02.2016 07:26 0,9 C 0,7 C 86 % 996,5 hPa 0,0 mm 2,4 km/h (1 Bft) S-SW 202 0 min -1,2 C 3,0 km/h (1 Bft)
13.02.2016 07:27 1,0 C 0,8 C 86 % 996,5 hPa 0,0 mm 2,4 km/h (1 Bft) SW 225 0 min -1,1 C 3,3 km/h (1 Bft)
13.02.2016 07:28 1,0 C 0,8 C 86 % 996,5 hPa 0,0 mm 2,4 km/h (1 Bft) SW 225 0 min -1,1 C 3,3 km/h (1 Bft)
13.02.2016 07:29 0,9 C 0,7 C 86 % 996,5 hPa 0,0 mm 2,4 km/h (1 Bft) S 180 0 min -1,2 C 5,4 km/h (1 Bft)
13.02.2016 07:30 0,9 C 0,7 C 86 % 996,5 hPa 0,0 mm 2,4 km/h (1 Bft) S 180 0 min -1,2 C 5,4 km/h (1 Bft)
13.02.2016 07:31 0,9 C 0,7 C 86 % 996,5 hPa 0,0 mm 2,4 km/h (1 Bft) SW 225 0 min -1,2 C 5,4 km/h (1 Bft)
13.02.2016 07:32 0,9 C 0,7 C 86 % 996,5 hPa 0,0 mm 2,4 km/h (1 Bft) SW 225 0 min -1,2 C 5,4 km/h (1 Bft)
13.02.2016 07:33 1,0 C 0,8 C 86 % 996,5 hPa 0,0 mm 3,3 km/h (1 Bft) W-SW 247 0 min -1,1 C 5,7 km/h (1 Bft)
13.02.2016 07:34 1,0 C 0,8 C 86 % 996,5 hPa 0,0 mm 3,3 km/h (1 Bft) W-SW 247 0 min -1,1 C 5,7 km/h (1 Bft)
13.02.2016 07:36 1,0 C 0,8 C 86 % 996,5 hPa 0,0 mm 3,6 km/h (1 Bft) SW 225 0 min -1,1 C 6,6 km/h (2 Bft)
13.02.2016 07:39 1,0 C 0,8 C 86 % 996,5 hPa 0,0 mm 3,9 km/h (1 Bft) SW 225 0 min -1,1 C 5,4 km/h (1 Bft)
13.02.2016 07:40 1,0 C 0,8 C 86 % 996,5 hPa 0,0 mm 3,9 km/h (1 Bft) SW 225 0 min -1,1 C 5,4 km/h (1 Bft)
13.02.2016 07:41 1,0 C 0,8 C 86 % 996,5 hPa 0,0 mm 3,9 km/h (1 Bft) S 180 0 min -1,1 C 4,2 km/h (1 Bft)
13.02.2016 07:43 1,1 C 0,9 C 86 % 996,6 hPa 0,0 mm 3,0 km/h (1 Bft) W-SW 247 0 min -1,0 C 0,0 km/h (0 Bft)
13.02.2016 07:46 1,1 C 0,9 C 86 % 996,6 hPa 0,0 mm 2,7 km/h (1 Bft) W 270 0 min -1,0 C 3,9 km/h (1 Bft)
13.02.2016 07:47 1,1 C 0,9 C 86 % 996,6 hPa 0,0 mm 3,0 km/h (1 Bft) W-SW 247 0 min -1,0 C 4,5 km/h (1 Bft)
13.02.2016 07:48 1,1 C 0,9 C 86 % 996,6 hPa 0,0 mm 3,0 km/h (1 Bft) W-SW 247 0 min -1,0 C 4,5 km/h (1 Bft)
13.02.2016 07:49 1,1 C 0,9 C 86 % 996,6 hPa 0,0 mm 3,3 km/h (1 Bft) S-SW 202 0 min -1,0 C 4,8 km/h (1 Bft)
13.02.2016 07:54 1,1 C 0,9 C 86 % 996,6 hPa 0,0 mm 3,3 km/h (1 Bft) W-SW 247 0 min -1,0 C 3,0 km/h (1 Bft)
13.02.2016 07:59 1,2 C 1,0 C 86 % 996,6 hPa 0,0 mm 3,3 km/h (1 Bft) SW 225 0 min -0,9 C 3,0 km/h (1 Bft)
13.02.2016 08:04 1,2 C 1,0 C 86 % 996,8 hPa 0,0 mm 2,4 km/h (1 Bft) S 180 0 min -0,9 C 0,0 km/h (0 Bft)
13.02.2016 08:09 1,2 C 0,9 C 86 % 996,8 hPa 0,0 mm 2,1 km/h (1 Bft) SW 225 0 min -0,9 C 0,0 km/h (0 Bft)
13.02.2016 08:14 1,3 C 1,0 C 86 % 996,8 hPa 0,0 mm 3,6 km/h (1 Bft) W-SW 247 0 min -0,8 C 4,5 km/h (1 Bft)
13.02.2016 08:19 1,4 C 1,2 C 86 % 996,8 hPa 0,0 mm 4,2 km/h (1 Bft) W 270 0 min -0,7 C 4,5 km/h (1 Bft)
13.02.2016 08:24 1,5 C 1,3 C 87 % 996,8 hPa 0,0 mm 4,5 km/h (1 Bft) W-SW 247 0 min -0,4 C 6,9 km/h (2 Bft)
13.02.2016 08:29 1,5 C 1,3 C 83 % 996,8 hPa 0,0 mm 5,1 km/h (1 Bft) W-SW 247 0 min -1,1 C 3,6 km/h (1 Bft)
13.02.2016 08:34 1,6 C 1,3 C 87 % 996,8 hPa 0,0 mm 5,7 km/h (1 Bft) S 180 0 min -0,3 C 5,7 km/h (1 Bft)
13.02.2016 08:39 1,6 C 1,4 C 83 % 996,8 hPa 0,0 mm 5,1 km/h (1 Bft) S-SW 202 0 min -1,0 C 6,6 km/h (2 Bft)
13.02.2016 08:45 1,6 C 1,5 C 83 % 996,9 hPa 0,0 mm 3,3 km/h (1 Bft) S-SW 202 0 min -1,0 C 0,0 km/h (0 Bft)
13.02.2016 08:46 1,6 C 1,5 C 83 % 996,9 hPa 0,0 mm 3,3 km/h (1 Bft) S-SW 202 0 min -1,0 C 0,0 km/h (0 Bft)
13.02.2016 08:47 1,6 C 1,5 C 87 % 996,9 hPa 0,0 mm 2,4 km/h (1 Bft) SO 135 0 min -0,3 C 0,0 km/h (0 Bft)
13.02.2016 08:48 1,6 C 1,5 C 87 % 996,9 hPa 0,0 mm 2,4 km/h (1 Bft) SO 135 0 min -0,3 C 0,0 km/h (0 Bft)
13.02.2016 08:49 1,6 C 1,5 C 87 % 996,9 hPa 0,0 mm 1,5 km/h (1 Bft) SO 135 0 min -0,3 C 0,0 km/h (0 Bft)
13.02.2016 08:50 1,6 C 1,5 C 87 % 996,9 hPa 0,0 mm 1,5 km/h (1 Bft) SO 135 0 min -0,3 C 0,0 km/h (0 Bft)
13.02.2016 08:51 1,6 C 1,5 C 87 % 996,9 hPa 0,0 mm 0,6 km/h (0 Bft) O-SO 112 0 min -0,3 C 0,0 km/h (0 Bft)
13.02.2016 08:52 1,6 C 1,5 C 87 % 996,9 hPa 0,0 mm 0,6 km/h (0 Bft) O-SO 112 0 min -0,3 C 0,0 km/h (0 Bft)
13.02.2016 08:53 1,6 C 1,5 C 87 % 996,9 hPa 0,0 mm 0,3 km/h (0 Bft) O-SO 112 0 min -0,3 C 0,0 km/h (0 Bft)
13.02.2016 08:54 1,6 C 1,5 C 87 % 996,9 hPa 0,0 mm 0,3 km/h (0 Bft) O-SO 112 0 min -0,3 C 0,0 km/h (0 Bft)
13.02.2016 08:55 1,5 C 1,5 C 83 % 996,9 hPa 0,0 mm 0,0 km/h (0 Bft) SO 135 0 min -1,1 C 0,0 km/h (0 Bft)
13.02.2016 08:56 1,5 C 1,5 C 83 % 996,9 hPa 0,0 mm 0,0 km/h (0 Bft) SO 135 0 min -1,1 C 0,0 km/h (0 Bft)
13.02.2016 08:57 1,5 C 1,5 C 83 % 996,9 hPa 0,0 mm 0,0 km/h (0 Bft) SO 135 0 min -1,1 C 0,0 km/h (0 Bft)
13.02.2016 08:58 1,5 C 1,5 C 83 % 996,9 hPa 0,0 mm 0,0 km/h (0 Bft) SO 135 0 min -1,1 C 0,0 km/h (0 Bft)
13.02.2016 08:59 1,5 C 1,5 C 83 % 996,9 hPa 0,0 mm 0,6 km/h (0 Bft) W-SW 247 0 min -1,1 C 4,2 km/h (1 Bft)
13.02.2016 09:00 1,5 C 1,5 C 83 % 996,9 hPa 0,0 mm 0,6 km/h (0 Bft) W-SW 247 0 min -1,1 C 4,2 km/h (1 Bft)
13.02.2016 09:01 1,6 C 1,6 C 83 % 996,9 hPa 0,0 mm 1,2 km/h (1 Bft) W-SW 247 0 min -1,0 C 6,3 km/h (2 Bft)
13.02.2016 09:02 1,6 C 1,6 C 83 % 996,9 hPa 0,0 mm 1,2 km/h (1 Bft) W-SW 247 0 min -1,0 C 6,3 km/h (2 Bft)
13.02.2016 09:03 1,6 C 1,7 C 83 % 997,0 hPa 0,0 mm 1,8 km/h (1 Bft) S 180 0 min -1,0 C 5,1 km/h (1 Bft)
13.02.2016 09:04 1,6 C 1,7 C 83 % 997,0 hPa 0,0 mm 1,8 km/h (1 Bft) S 180 0 min -1,0 C 5,1 km/h (1 Bft)
13.02.2016 09:05 1,7 C 1,8 C 83 % 997,0 hPa 0,0 mm 3,3 km/h (1 Bft) SW 225 0 min -0,9 C 7,2 km/h (2 Bft)
13.02.2016 09:06 1,7 C 1,8 C 83 % 997,0 hPa 0,0 mm 3,3 km/h (1 Bft) SW 225 0 min -0,9 C 7,2 km/h (2 Bft)
13.02.2016 09:07 1,7 C 1,8 C 83 % 997,0 hPa 0,0 mm 4,2 km/h (1 Bft) SW 225 0 min -0,9 C 8,9 km/h (2 Bft)
13.02.2016 09:08 1,7 C 1,8 C 83 % 997,0 hPa 0,0 mm 4,2 km/h (1 Bft) SW 225 0 min -0,9 C 8,9 km/h (2 Bft)
13.02.2016 09:09 1,7 C 1,8 C 83 % 997,0 hPa 0,0 mm 5,1 km/h (1 Bft) SW 225 0 min -0,9 C 8,3 km/h (2 Bft)
13.02.2016 09:10 1,7 C 1,8 C 83 % 997,0 hPa 0,0 mm 5,1 km/h (1 Bft) SW 225 0 min -0,9 C 8,3 km/h (2 Bft)
13.02.2016 09:11 1,7 C 1,8 C 83 % 997,0 hPa 0,0 mm 5,7 km/h (1 Bft) SW 225 0 min -0,9 C 6,3 km/h (2 Bft)
13.02.2016 09:12 1,7 C 1,8 C 83 % 997,0 hPa 0,0 mm 5,7 km/h (1 Bft) SW 225 0 min -0,9 C 6,3 km/h (2 Bft)
13.02.2016 09:13 1,8 C 1,7 C 83 % 997,0 hPa 0,0 mm 6,3 km/h (2 Bft) W-SW 247 0 min -0,8 C 6,3 km/h (2 Bft)
13.02.2016 09:14 1,8 C 1,7 C 83 % 997,0 hPa 0,0 mm 6,3 km/h (2 Bft) W-SW 247 0 min -0,8 C 6,3 km/h (2 Bft)
13.02.2016 09:15 1,8 C 1,8 C 83 % 997,0 hPa 0,0 mm 6,0 km/h (2 Bft) W-SW 247 0 min -0,8 C 5,1 km/h (1 Bft)
13.02.2016 09:16 1,8 C 1,8 C 83 % 997,0 hPa 0,0 mm 6,0 km/h (2 Bft) W-SW 247 0 min -0,8 C 5,1 km/h (1 Bft)
13.02.2016 09:17 1,8 C 1,9 C 83 % 997,0 hPa 0,0 mm 5,1 km/h (1 Bft) SW 225 0 min -0,8 C 0,0 km/h (0 Bft)
13.02.2016 09:18 1,8 C 1,9 C 83 % 997,0 hPa 0,0 mm 5,1 km/h (1 Bft) SW 225 0 min -0,8 C 0,0 km/h (0 Bft)
13.02.2016 09:19 1,8 C 2,0 C 83 % 997,0 hPa 0,0 mm 4,2 km/h (1 Bft) S 180 0 min -0,8 C 0,0 km/h (0 Bft)
13.02.2016 09:20 1,8 C 2,0 C 83 % 997,0 hPa 0,0 mm 4,2 km/h (1 Bft) S 180 0 min -0,8 C 0,0 km/h (0 Bft)
13.02.2016 09:21 1,8 C 2,0 C 83 % 997,0 hPa 0,0 mm 3,6 km/h (1 Bft) S-SO 157 0 min -0,8 C 0,0 km/h (0 Bft)
13.02.2016 09:22 1,8 C 2,0 C 83 % 997,0 hPa 0,0 mm 3,6 km/h (1 Bft) S-SO 157 0 min -0,8 C 0,0 km/h (0 Bft)
13.02.2016 09:23 1,8 C 2,0 C 83 % 997,1 hPa 0,0 mm 2,7 km/h (1 Bft) SW 225 0 min -0,8 C 4,2 km/h (1 Bft)
13.02.2016 09:24 1,8 C 2,0 C 83 % 997,1 hPa 0,0 mm 2,7 km/h (1 Bft) SW 225 0 min -0,8 C 4,2 km/h (1 Bft)
13.02.2016 09:25 1,9 C 2,0 C 83 % 997,1 hPa 0,0 mm 2,4 km/h (1 Bft) S-SW 202 0 min -0,7 C 4,8 km/h (1 Bft)
13.02.2016 09:26 1,9 C 2,0 C 83 % 997,1 hPa 0,0 mm 2,4 km/h (1 Bft) S-SW 202 0 min -0,7 C 4,8 km/h (1 Bft)
13.02.2016 09:27 1,9 C 2,1 C 83 % 997,1 hPa 0,0 mm 2,1 km/h (1 Bft) W-SW 247 0 min -0,7 C 0,0 km/h (0 Bft)
13.02.2016 09:28 1,9 C 2,1 C 83 % 997,1 hPa 0,0 mm 2,1 km/h (1 Bft) W-SW 247 0 min -0,7 C 0,0 km/h (0 Bft)
13.02.2016 09:29 1,9 C 2,2 C 83 % 997,1 hPa 0,0 mm 2,1 km/h (1 Bft) SW 225 0 min -0,7 C 0,0 km/h (0 Bft)
13.02.2016 09:30 1,9 C 2,2 C 83 % 997,1 hPa 0,0 mm 2,1 km/h (1 Bft) SW 225 0 min -0,7 C 0,0 km/h (0 Bft)
13.02.2016 09:31 2,0 C 2,5 C 82 % 997,1 hPa 0,0 mm 1,8 km/h (1 Bft) S 180 0 min -0,7 C 0,0 km/h (0 Bft)
13.02.2016 09:32 2,0 C 2,5 C 82 % 997,1 hPa 0,0 mm 1,8 km/h (1 Bft) S 180 0 min -0,7 C 0,0 km/h (0 Bft)
13.02.2016 09:33 2,0 C 2,6 C 82 % 997,1 hPa 0,0 mm 1,5 km/h (1 Bft) SW 225 0 min -0,7 C 4,2 km/h (1 Bft)
13.02.2016 09:34 2,0 C 2,6 C 82 % 997,1 hPa 0,0 mm 1,5 km/h (1 Bft) SW 225 0 min -0,7 C 4,2 km/h (1 Bft)
13.02.2016 09:35 2,2 C 2,8 C 82 % 997,1 hPa 0,0 mm 1,2 km/h (1 Bft) NW 315 0 min -0,5 C 0,0 km/h (0 Bft)
13.02.2016 09:36 2,2 C 2,8 C 82 % 997,1 hPa 0,0 mm 1,2 km/h (1 Bft) NW 315 0 min -0,5 C 0,0 km/h (0 Bft)
13.02.2016 09:37 2,2 C 2,9 C 82 % 997,1 hPa 0,0 mm 0,9 km/h (0 Bft) S-SW 202 0 min -0,5 C 3,0 km/h (1 Bft)
13.02.2016 09:38 2,2 C 2,9 C 82 % 997,1 hPa 0,0 mm 0,9 km/h (0 Bft) S-SW 202 0 min -0,5 C 3,0 km/h (1 Bft)
13.02.2016 09:39 2,3 C 3,1 C 82 % 997,1 hPa 0,0 mm 1,5 km/h (1 Bft) SW 225 0 min -0,4 C 3,6 km/h (1 Bft)
13.02.2016 09:40 2,3 C 3,1 C 82 % 997,1 hPa 0,0 mm 1,5 km/h (1 Bft) SW 225 0 min -0,4 C 3,6 km/h (1 Bft)
13.02.2016 09:41 2,3 C 3,2 C 82 % 997,1 hPa 0,0 mm 1,8 km/h (1 Bft) O-SO 112 0 min -0,4 C 0,0 km/h (0 Bft)
13.02.2016 09:42 2,3 C 3,2 C 82 % 997,1 hPa 0,0 mm 1,8 km/h (1 Bft) O-SO 112 0 min -0,4 C 0,0 km/h (0 Bft)
13.02.2016 09:43 2,4 C 3,3 C 82 % 996,8 hPa 0,0 mm 1,5 km/h (1 Bft) S 180 0 min -0,4 C 0,0 km/h (0 Bft)
13.02.2016 09:44 2,4 C 3,3 C 82 % 996,8 hPa 0,0 mm 1,5 km/h (1 Bft) S 180 0 min -0,4 C 0,0 km/h (0 Bft)
13.02.2016 09:45 2,4 C 3,4 C 82 % 996,8 hPa 0,0 mm 1,5 km/h (1 Bft) SO 135 0 min -0,4 C 0,0 km/h (0 Bft)
13.02.2016 09:46 2,4 C 3,4 C 82 % 996,8 hPa 0,0 mm 1,5 km/h (1 Bft) SO 135 0 min -0,4 C 0,0 km/h (0 Bft)
13.02.2016 09:47 2,5 C 3,6 C 82 % 996,8 hPa 0,0 mm 1,5 km/h (1 Bft) SW 225 0 min -0,3 C 4,5 km/h (1 Bft)
13.02.2016 09:48 2,5 C 3,6 C 82 % 996,8 hPa 0,0 mm 1,5 km/h (1 Bft) SW 225 0 min -0,3 C 4,5 km/h (1 Bft)
13.02.2016 09:49 2,5 C 3,7 C 82 % 996,8 hPa 0,0 mm 1,2 km/h (1 Bft) W-SW 247 0 min -0,3 C 3,3 km/h (1 Bft)
13.02.2016 09:50 2,5 C 3,7 C 82 % 996,8 hPa 0,0 mm 1,2 km/h (1 Bft) W-SW 247 0 min -0,3 C 3,3 km/h (1 Bft)
13.02.2016 09:51 2,6 C 3,9 C 82 % 996,8 hPa 0,0 mm 0,9 km/h (0 Bft) W-NW 292 0 min -0,2 C 4,8 km/h (1 Bft)
13.02.2016 09:52 2,6 C 3,9 C 82 % 996,8 hPa 0,0 mm 0,9 km/h (0 Bft) W-NW 292 0 min -0,2 C 4,8 km/h (1 Bft)
13.02.2016 09:53 2,6 C 4,0 C 82 % 996,8 hPa 0,0 mm 1,5 km/h (1 Bft) W-NW 292 0 min -0,2 C 5,1 km/h (1 Bft)
13.02.2016 09:54 2,6 C 4,0 C 82 % 996,8 hPa 0,0 mm 1,5 km/h (1 Bft) W-NW 292 0 min -0,2 C 5,1 km/h (1 Bft)
13.02.2016 09:55 2,7 C 4,0 C 82 % 996,8 hPa 0,0 mm 2,1 km/h (1 Bft) W-NW 292 0 min -0,1 C 0,0 km/h (0 Bft)
13.02.2016 09:56 2,7 C 4,0 C 82 % 996,8 hPa 0,0 mm 2,1 km/h (1 Bft) W-NW 292 0 min -0,1 C 0,0 km/h (0 Bft)
13.02.2016 09:57 2,7 C 4,0 C 82 % 996,8 hPa 0,0 mm 2,1 km/h (1 Bft) W-NW 292 0 min -0,1 C 0,0 km/h (0 Bft)
13.02.2016 09:58 2,7 C 4,0 C 82 % 996,8 hPa 0,0 mm 2,1 km/h (1 Bft) W-NW 292 0 min -0,1 C 0,0 km/h (0 Bft)
13.02.2016 09:59 2,7 C 3,8 C 82 % 996,8 hPa 0,0 mm 1,8 km/h (1 Bft) W-NW 292 0 min -0,1 C 0,0 km/h (0 Bft)
13.02.2016 10:00 2,7 C 3,8 C 82 % 996,8 hPa 0,0 mm 1,8 km/h (1 Bft) W-NW 292 0 min -0,1 C 0,0 km/h (0 Bft)
13.02.2016 10:01 2,8 C 3,9 C 82 % 996,8 hPa 0,0 mm 1,5 km/h (1 Bft) NW 315 0 min 0,0 C 0,0 km/h (0 Bft)
13.02.2016 10:02 2,8 C 3,9 C 82 % 996,8 hPa 0,0 mm 1,5 km/h (1 Bft) NW 315 0 min 0,0 C 0,0 km/h (0 Bft)
13.02.2016 10:03 2,9 C 4,0 C 82 % 996,9 hPa 0,0 mm 0,9 km/h (0 Bft) W-SW 247 0 min 0,1 C 0,0 km/h (0 Bft)
13.02.2016 10:04 2,9 C 4,0 C 82 % 996,9 hPa 0,0 mm 0,9 km/h (0 Bft) W-SW 247 0 min 0,1 C 0,0 km/h (0 Bft)
13.02.2016 10:05 2,9 C 4,3 C 82 % 996,9 hPa 0,0 mm 0,3 km/h (0 Bft) SW 225 0 min 0,1 C 0,0 km/h (0 Bft)
13.02.2016 10:06 2,9 C 4,3 C 82 % 996,9 hPa 0,0 mm 0,3 km/h (0 Bft) SW 225 0 min 0,1 C 0,0 km/h (0 Bft)
13.02.2016 10:07 3,0 C 4,4 C 81 % 996,9 hPa 0,0 mm 0,0 km/h (0 Bft) W-NW 292 0 min 0,1 C 0,0 km/h (0 Bft)
13.02.2016 10:08 3,0 C 4,4 C 81 % 996,9 hPa 0,0 mm 0,0 km/h (0 Bft) W-NW 292 0 min 0,1 C 0,0 km/h (0 Bft)
13.02.2016 10:09 3,0 C 4,6 C 81 % 996,9 hPa 0,0 mm 0,0 km/h (0 Bft) N-NW 337 0 min 0,1 C 0,0 km/h (0 Bft)
13.02.2016 10:10 3,0 C 4,6 C 81 % 996,9 hPa 0,0 mm 0,0 km/h (0 Bft) N-NW 337 0 min 0,1 C 0,0 km/h (0 Bft)
13.02.2016 10:11 3,1 C 4,7 C 81 % 996,9 hPa 0,0 mm 0,0 km/h (0 Bft) W-NW 292 0 min 0,2 C 0,0 km/h (0 Bft)
13.02.2016 10:12 3,1 C 4,7 C 81 % 996,9 hPa 0,0 mm 0,0 km/h (0 Bft) W-NW 292 0 min 0,2 C 0,0 km/h (0 Bft)
13.02.2016 10:13 3,3 C 4,7 C 80 % 996,9 hPa 0,0 mm 0,0 km/h (0 Bft) NW 315 0 min 0,2 C 0,0 km/h (0 Bft)
13.02.2016 10:14 3,3 C 4,7 C 80 % 996,9 hPa 0,0 mm 0,0 km/h (0 Bft) NW 315 0 min 0,2 C 0,0 km/h (0 Bft)
13.02.2016 10:15 3,3 C 5,0 C 80 % 996,9 hPa 0,0 mm 0,0 km/h (0 Bft) W-SW 247 0 min 0,2 C 0,0 km/h (0 Bft)
13.02.2016 10:16 3,3 C 5,0 C 80 % 996,9 hPa 0,0 mm 0,0 km/h (0 Bft) W-SW 247 0 min 0,2 C 0,0 km/h (0 Bft)
13.02.2016 10:17 3,1 C 5,0 C 80 % 996,9 hPa 0,0 mm 0,0 km/h (0 Bft) NW 315 0 min -0,0 C 0,0 km/h (0 Bft)
13.02.2016 10:18 3,1 C 5,0 C 80 % 996,9 hPa 0,0 mm 0,0 km/h (0 Bft) NW 315 0 min -0,0 C 0,0 km/h (0 Bft)
13.02.2016 10:19 3,1 C 5,0 C 80 % 996,9 hPa 0,0 mm 0,0 km/h (0 Bft) W-NW 292 0 min -0,0 C 0,0 km/h (0 Bft)
13.02.2016 10:20 3,1 C 5,0 C 80 % 996,9 hPa 0,0 mm 0,0 km/h (0 Bft) W-NW 292 0 min -0,0 C 0,0 km/h (0 Bft)
13.02.2016 10:21 3,3 C 4,7 C 80 % 996,9 hPa 0,0 mm 0,0 km/h (0 Bft) N-NO 22 0 min 0,2 C 0,0 km/h (0 Bft)
13.02.2016 10:22 3,3 C 4,7 C 80 % 996,9 hPa 0,0 mm 0,0 km/h (0 Bft) N-NO 22 0 min 0,2 C 0,0 km/h (0 Bft)
13.02.2016 10:23 3,3 C 4,7 C 80 % 997,0 hPa 0,0 mm 0,0 km/h (0 Bft) N-NW 337 0 min 0,2 C 0,0 km/h (0 Bft)
13.02.2016 10:24 3,3 C 4,7 C 80 % 997,0 hPa 0,0 mm 0,0 km/h (0 Bft) N-NW 337 0 min 0,2 C 0,0 km/h (0 Bft)
13.02.2016 10:25 3,3 C 4,7 C 80 % 997,0 hPa 0,0 mm 0,3 km/h (0 Bft) W-NW 292 0 min 0,2 C 4,2 km/h (1 Bft)
13.02.2016 10:26 3,3 C 4,7 C 80 % 997,0 hPa 0,0 mm 0,3 km/h (0 Bft) W-NW 292 0 min 0,2 C 4,2 km/h (1 Bft)
13.02.2016 10:27 3,4 C 4,6 C 80 % 997,0 hPa 0,0 mm 0,3 km/h (0 Bft) O-NO 67 0 min 0,3 C 0,0 km/h (0 Bft)
13.02.2016 10:28 3,4 C 4,6 C 80 % 997,0 hPa 0,0 mm 0,3 km/h (0 Bft) O-NO 67 0 min 0,3 C 0,0 km/h (0 Bft)
13.02.2016 10:29 3,4 C 4,6 C 80 % 997,0 hPa 0,0 mm 0,3 km/h (0 Bft) O-SO 112 0 min 0,3 C 0,0 km/h (0 Bft)
13.02.2016 10:30 3,4 C 4,6 C 80 % 997,0 hPa 0,0 mm 0,3 km/h (0 Bft) O-SO 112 0 min 0,3 C 0,0 km/h (0 Bft)
13.02.2016 10:31 3,4 C 4,7 C 80 % 997,0 hPa 0,0 mm 0,3 km/h (0 Bft) SO 135 0 min 0,3 C 0,0 km/h (0 Bft)
13.02.2016 10:32 3,4 C 4,7 C 80 % 997,0 hPa 0,0 mm 0,3 km/h (0 Bft) SO 135 0 min 0,3 C 0,0 km/h (0 Bft)
13.02.2016 10:33 3,4 C 4,7 C 80 % 997,0 hPa 0,0 mm 0,3 km/h (0 Bft) W-NW 292 0 min 0,3 C 0,0 km/h (0 Bft)
13.02.2016 10:34 3,4 C 4,7 C 80 % 997,0 hPa 0,0 mm 0,3 km/h (0 Bft) W-NW 292 0 min 0,3 C 0,0 km/h (0 Bft)
13.02.2016 10:35 3,4 C 5,0 C 80 % 997,0 hPa 0,0 mm 0,3 km/h (0 Bft) W-NW 292 0 min 0,3 C 0,0 km/h (0 Bft)
13.02.2016 10:36 3,4 C 5,0 C 80 % 997,0 hPa 0,0 mm 0,3 km/h (0 Bft) W-NW 292 0 min 0,3 C 0,0 km/h (0 Bft)
13.02.2016 10:37 3,5 C 5,0 C 80 % 997,0 hPa 0,0 mm 0,3 km/h (0 Bft) W 270 0 min 0,4 C 3,0 km/h (1 Bft)
13.02.2016 10:38 3,5 C 5,0 C 80 % 997,0 hPa 0,0 mm 0,3 km/h (0 Bft) W 270 0 min 0,4 C 3,0 km/h (1 Bft)
13.02.2016 10:39 3,5 C 5,0 C 80 % 997,0 hPa 0,0 mm 0,3 km/h (0 Bft) N 360 0 min 0,4 C 0,0 km/h (0 Bft)
13.02.2016 10:40 3,5 C 5,0 C 80 % 997,0 hPa 0,0 mm 0,3 km/h (0 Bft) N 360 0 min 0,4 C 0,0 km/h (0 Bft)
13.02.2016 10:41 3,5 C 5,0 C 79 % 997,0 hPa 0,0 mm 0,6 km/h (0 Bft) W-NW 292 0 min 0,2 C 3,3 km/h (1 Bft)
13.02.2016 10:42 3,5 C 5,0 C 79 % 997,0 hPa 0,0 mm 0,6 km/h (0 Bft) W-NW 292 0 min 0,2 C 3,3 km/h (1 Bft)
13.02.2016 10:43 3,5 C 4,8 C 79 % 997,0 hPa 0,0 mm 1,2 km/h (1 Bft) W 270 0 min 0,2 C 0,0 km/h (0 Bft)
13.02.2016 10:44 3,5 C 4,8 C 79 % 997,0 hPa 0,0 mm 1,2 km/h (1 Bft) W 270 0 min 0,2 C 0,0 km/h (0 Bft)
13.02.2016 10:45 3,6 C 4,7 C 79 % 997,0 hPa 0,0 mm 1,2 km/h (1 Bft) NW 315 0 min 0,3 C 0,0 km/h (0 Bft)
13.02.2016 10:46 3,6 C 4,7 C 79 % 997,0 hPa 0,0 mm 1,2 km/h (1 Bft) NW 315 0 min 0,3 C 0,0 km/h (0 Bft)
13.02.2016 10:47 3,6 C 4,7 C 79 % 997,0 hPa 0,0 mm 0,9 km/h (0 Bft) NW 315 0 min 0,3 C 4,2 km/h (1 Bft)
13.02.2016 10:48 3,6 C 4,7 C 79 % 997,0 hPa 0,0 mm 0,9 km/h (0 Bft) NW 315 0 min 0,3 C 4,2 km/h (1 Bft)
13.02.2016 10:49 3,7 C 4,8 C 79 % 997,0 hPa 0,0 mm 0,9 km/h (0 Bft) NW 315 0 min 0,4 C 0,0 km/h (0 Bft)
13.02.2016 10:50 3,7 C 4,8 C 79 % 997,0 hPa 0,0 mm 0,9 km/h (0 Bft) NW 315 0 min 0,4 C 0,0 km/h (0 Bft)
13.02.2016 10:51 3,7 C 5,0 C 79 % 997,0 hPa 0,0 mm 0,9 km/h (0 Bft) N-NW 337 0 min 0,4 C 0,0 km/h (0 Bft)
13.02.2016 10:52 3,7 C 5,0 C 79 % 997,0 hPa 0,0 mm 0,9 km/h (0 Bft) N-NW 337 0 min 0,4 C 0,0 km/h (0 Bft)
13.02.2016 10:53 3,8 C 5,0 C 79 % 997,0 hPa 0,0 mm 0,3 km/h (0 Bft) W-NW 292 0 min 0,5 C 0,0 km/h (0 Bft)
13.02.2016 10:54 3,8 C 5,0 C 79 % 997,0 hPa 0,0 mm 0,3 km/h (0 Bft) W-NW 292 0 min 0,5 C 0,0 km/h (0 Bft)
13.02.2016 10:55 3,8 C 5,1 C 79 % 997,0 hPa 0,0 mm 0,6 km/h (0 Bft) W-SW 247 0 min 0,5 C 0,0 km/h (0 Bft)
13.02.2016 10:56 3,8 C 5,1 C 79 % 997,0 hPa 0,0 mm 0,6 km/h (0 Bft) W-SW 247 0 min 0,5 C 0,0 km/h (0 Bft)
13.02.2016 10:57 3,8 C 5,1 C 79 % 997,0 hPa 0,0 mm 0,9 km/h (0 Bft) W 270 0 min 0,5 C 0,0 km/h (0 Bft)
13.02.2016 10:58 3,8 C 5,1 C 79 % 997,0 hPa 0,0 mm 0,9 km/h (0 Bft) W 270 0 min 0,5 C 0,0 km/h (0 Bft)
13.02.2016 10:59 3,8 C 5,1 C 79 % 997,0 hPa 0,0 mm 1,2 km/h (1 Bft) W 270 0 min 0,5 C 6,6 km/h (2 Bft)
13.02.2016 11:00 3,8 C 5,1 C 79 % 997,0 hPa 0,0 mm 1,2 km/h (1 Bft) W 270 0 min 0,5 C 6,6 km/h (2 Bft)
13.02.2016 11:01 3,8 C 5,0 C 79 % 997,0 hPa 0,0 mm 1,5 km/h (1 Bft) NW 315 0 min 0,5 C 0,0 km/h (0 Bft)
13.02.2016 11:02 3,8 C 5,0 C 79 % 997,0 hPa 0,0 mm 1,5 km/h (1 Bft) NW 315 0 min 0,5 C 0,0 km/h (0 Bft)
13.02.2016 11:03 3,9 C 5,1 C 79 % 996,9 hPa 0,0 mm 2,1 km/h (1 Bft) SW 225 0 min 0,6 C 4,2 km/h (1 Bft)
13.02.2016 11:04 3,9 C 5,1 C 79 % 996,9 hPa 0,0 mm 2,1 km/h (1 Bft) SW 225 0 min 0,6 C 4,2 km/h (1 Bft)
13.02.2016 11:05 3,9 C 5,2 C 79 % 996,9 hPa 0,0 mm 2,1 km/h (1 Bft) W-NW 292 0 min 0,6 C 5,7 km/h (1 Bft)
13.02.2016 11:06 3,9 C 5,2 C 79 % 996,9 hPa 0,0 mm 2,1 km/h (1 Bft) W-NW 292 0 min 0,6 C 5,7 km/h (1 Bft)
13.02.2016 11:07 4,1 C 5,4 C 79 % 996,9 hPa 0,0 mm 3,0 km/h (1 Bft) W-NW 292 0 min 0,8 C 10,4 km/h (2 Bft)
13.02.2016 11:08 4,1 C 5,4 C 79 % 996,9 hPa 0,0 mm 3,0 km/h (1 Bft) W-NW 292 0 min 0,8 C 10,4 km/h (2 Bft)
13.02.2016 11:09 4,0 C 5,4 C 79 % 996,9 hPa 0,0 mm 3,6 km/h (1 Bft) W 270 0 min 0,7 C 3,0 km/h (1 Bft)
13.02.2016 11:11 4,1 C 5,5 C 78 % 996,9 hPa 0,0 mm 3,6 km/h (1 Bft) N-NW 337 0 min 0,6 C 4,2 km/h (1 Bft)
13.02.2016 11:14 4,1 C 5,6 C 78 % 996,9 hPa 0,0 mm 3,9 km/h (1 Bft) W-NW 292 0 min 0,6 C 6,9 km/h (2 Bft)
13.02.2016 11:15 4,1 C 5,6 C 78 % 996,9 hPa 0,0 mm 4,8 km/h (1 Bft) W 270 0 min 0,6 C 6,3 km/h (2 Bft)
13.02.2016 11:16 4,1 C 5,6 C 78 % 996,9 hPa 0,0 mm 4,8 km/h (1 Bft) W 270 0 min 0,6 C 6,3 km/h (2 Bft)
13.02.2016 11:18 4,1 C 5,6 C 78 % 996,9 hPa 0,0 mm 4,8 km/h (1 Bft) NW 315 0 min 0,6 C 6,3 km/h (2 Bft)
13.02.2016 11:21 4,2 C 5,6 C 78 % 996,9 hPa 0,0 mm 4,5 km/h (1 Bft) SW 225 0 min 0,7 C 4,8 km/h (1 Bft)
13.02.2016 11:22 4,2 C 5,6 C 78 % 996,9 hPa 0,0 mm 4,5 km/h (1 Bft) SW 225 0 min 0,7 C 4,8 km/h (1 Bft)
13.02.2016 11:23 4,4 C 5,8 C 78 % 996,9 hPa 0,0 mm 4,5 km/h (1 Bft) W-SW 247 0 min 0,9 C 3,9 km/h (1 Bft)
13.02.2016 11:24 4,5 C 5,9 C 78 % 996,9 hPa 0,0 mm 3,9 km/h (1 Bft) W-NW 292 0 min 1,0 C 4,2 km/h (1 Bft)
13.02.2016 11:29 4,6 C 6,2 C 78 % 996,9 hPa 0,0 mm 3,3 km/h (1 Bft) NW 315 0 min 1,1 C 4,2 km/h (1 Bft)
13.02.2016 11:34 4,6 C 6,2 C 77 % 996,9 hPa 0,0 mm 1,8 km/h (1 Bft) NW 315 0 min 0,9 C 0,0 km/h (0 Bft)
13.02.2016 11:39 4,7 C 6,1 C 77 % 996,9 hPa 0,0 mm 0,9 km/h (0 Bft) N-NO 22 0 min 1,0 C 0,0 km/h (0 Bft)
13.02.2016 11:44 4,7 C 6,0 C 77 % 996,6 hPa 0,0 mm 0,0 km/h (0 Bft) N-NO 22 0 min 1,0 C 0,0 km/h (0 Bft)
13.02.2016 11:49 4,4 C 7,7 C 77 % 996,6 hPa 0,0 mm 0,0 km/h (0 Bft) SW 225 5 min 0,7 C 0,0 km/h (0 Bft)
13.02.2016 11:54 4,5 C 11,0 C 77 % 996,6 hPa 0,0 mm 0,0 km/h (0 Bft) O-SO 112 5 min 0,8 C 0,0 km/h (0 Bft)
13.02.2016 11:59 4,5 C 11,5 C 76 % 996,6 hPa 0,0 mm 0,9 km/h (0 Bft) NO 45 5 min 0,6 C 4,8 km/h (1 Bft)
13.02.2016 12:04 4,6 C 10,2 C 76 % 996,3 hPa 0,0 mm 2,4 km/h (1 Bft) SO 135 5 min 0,7 C 0,0 km/h (0 Bft)
13.02.2016 12:09 4,5 C 10,0 C 76 % 996,3 hPa 0,0 mm 2,4 km/h (1 Bft) O-NO 67 5 min 0,6 C 0,0 km/h (0 Bft)
13.02.2016 12:14 4,6 C 9,2 C 76 % 996,3 hPa 0,0 mm 2,1 km/h (1 Bft) N-NW 337 5 min 0,7 C 9,8 km/h (2 Bft)
13.02.2016 12:19 4,8 C 9,1 C 76 % 996,3 hPa 0,0 mm 1,8 km/h (1 Bft) SO 135 5 min 0,9 C 0,0 km/h (0 Bft)
13.02.2016 12:24 4,8 C 9,3 C 75 % 996,4 hPa 0,0 mm 0,6 km/h (0 Bft) SO 135 5 min 0,8 C 0,0 km/h (0 Bft)
13.02.2016 12:29 4,7 C 8,5 C 75 % 996,4 hPa 0,0 mm 0,0 km/h (0 Bft) O 90 5 min 0,7 C 0,0 km/h (0 Bft)
13.02.2016 12:34 4,7 C 8,0 C 75 % 996,4 hPa 0,0 mm 0,3 km/h (0 Bft) O-NO 67 5 min 0,7 C 6,3 km/h (2 Bft)
13.02.2016 12:39 4,7 C 7,9 C 75 % 996,4 hPa 0,0 mm 2,4 km/h (1 Bft) NO 45 5 min 0,7 C 8,3 km/h (2 Bft)
13.02.2016 12:44 4,9 C 7,8 C 75 % 996,2 hPa 0,0 mm 5,1 km/h (1 Bft) O-NO 67 0 min 0,8 C 4,2 km/h (1 Bft)
13.02.2016 12:46 4,9 C 7,8 C 75 % 996,2 hPa 0,0 mm 5,1 km/h (1 Bft) O-NO 67 0 min 0,8 C 4,2 km/h (1 Bft)
13.02.2016 12:47 5,0 C 7,8 C 75 % 996,2 hPa 0,0 mm 4,5 km/h (1 Bft) O-NO 67 0 min 0,9 C 0,0 km/h (0 Bft)
13.02.2016 12:48 5,0 C 7,8 C 75 % 996,2 hPa 0,0 mm 4,5 km/h (1 Bft) O-NO 67 0 min 0,9 C 0,0 km/h (0 Bft)
13.02.2016 12:49 5,2 C 7,8 C 74 % 996,2 hPa 0,0 mm 3,9 km/h (1 Bft) SO 135 0 min 1,0 C 5,4 km/h (1 Bft)
13.02.2016 12:50 5,2 C 7,8 C 74 % 996,2 hPa 0,0 mm 3,9 km/h (1 Bft) SO 135 0 min 1,0 C 5,4 km/h (1 Bft)
13.02.2016 12:51 5,4 C 7,9 C 74 % 996,2 hPa 0,0 mm 3,3 km/h (1 Bft) O-NO 67 0 min 1,1 C 0,0 km/h (0 Bft)
13.02.2016 12:53 5,5 C 7,9 C 74 % 996,2 hPa 0,0 mm 2,7 km/h (1 Bft) O-NO 67 0 min 1,2 C 6,6 km/h (2 Bft)
13.02.2016 12:54 5,5 C 7,9 C 74 % 996,2 hPa 0,0 mm 2,7 km/h (1 Bft) O-NO 67 0 min 1,2 C 6,6 km/h (2 Bft)
13.02.2016 12:55 5,5 C 7,8 C 73 % 996,2 hPa 0,0 mm 2,4 km/h (1 Bft) O-SO 112 0 min 1,1 C 0,0 km/h (0 Bft)
13.02.2016 12:56 5,5 C 7,8 C 73 % 996,2 hPa 0,0 mm 2,4 km/h (1 Bft) O-SO 112 0 min 1,1 C 0,0 km/h (0 Bft)
13.02.2016 12:57 5,4 C 7,8 C 73 % 996,2 hPa 0,0 mm 2,7 km/h (1 Bft) SO 135 0 min 1,0 C 3,6 km/h (1 Bft)
13.02.2016 12:58 5,4 C 7,8 C 73 % 996,2 hPa 0,0 mm 2,7 km/h (1 Bft) SO 135 0 min 1,0 C 3,6 km/h (1 Bft)
13.02.2016 12:59 5,5 C 7,7 C 73 % 996,2 hPa 0,0 mm 2,7 km/h (1 Bft) O-NO 67 0 min 1,1 C 5,1 km/h (1 Bft)
13.02.2016 13:00 5,5 C 7,7 C 73 % 996,2 hPa 0,0 mm 2,7 km/h (1 Bft) O-NO 67 0 min 1,1 C 5,1 km/h (1 Bft)
13.02.2016 13:01 5,5 C 7,7 C 73 % 996,2 hPa 0,0 mm 2,7 km/h (1 Bft) O-SO 112 0 min 1,1 C 4,2 km/h (1 Bft)
13.02.2016 13:02 5,5 C 7,7 C 73 % 996,2 hPa 0,0 mm 2,7 km/h (1 Bft) O-SO 112 0 min 1,1 C 4,2 km/h (1 Bft)
13.02.2016 13:03 5,5 C 7,8 C 73 % 995,8 hPa 0,0 mm 3,3 km/h (1 Bft) O-SO 112 0 min 1,1 C 5,7 km/h (1 Bft)
13.02.2016 13:04 5,5 C 7,8 C 73 % 995,8 hPa 0,0 mm 3,3 km/h (1 Bft) O-SO 112 0 min 1,1 C 5,7 km/h (1 Bft)
13.02.2016 13:05 5,6 C 7,9 C 73 % 995,8 hPa 0,0 mm 4,2 km/h (1 Bft) NO 45 0 min 1,2 C 8,0 km/h (2 Bft)
13.02.2016 13:06 5,6 C 7,9 C 73 % 995,8 hPa 0,0 mm 4,2 km/h (1 Bft) NO 45 0 min 1,2 C 8,0 km/h (2 Bft)
13.02.2016 13:07 5,6 C 7,9 C 73 % 995,8 hPa 0,0 mm 4,8 km/h (1 Bft) NO 45 0 min 1,2 C 6,9 km/h (2 Bft)
13.02.2016 13:08 5,6 C 7,9 C 73 % 995,8 hPa 0,0 mm 4,8 km/h (1 Bft) NO 45 0 min 1,2 C 6,9 km/h (2 Bft)
13.02.2016 13:09 5,6 C 8,0 C 73 % 995,8 hPa 0,0 mm 5,4 km/h (1 Bft) O-SO 112 0 min 1,2 C 8,9 km/h (2 Bft)
13.02.2016 13:10 5,6 C 8,0 C 73 % 995,8 hPa 0,0 mm 5,4 km/h (1 Bft) O-SO 112 0 min 1,2 C 8,9 km/h (2 Bft)
13.02.2016 13:11 5,6 C 8,0 C 72 % 995,8 hPa 0,0 mm 6,3 km/h (2 Bft) N-NO 22 0 min 1,0 C 5,7 km/h (1 Bft)
13.02.2016 13:12 5,6 C 8,0 C 72 % 995,8 hPa 0,0 mm 6,3 km/h (2 Bft) N-NO 22 0 min 1,0 C 5,7 km/h (1 Bft)
13.02.2016 13:13 5,7 C 8,1 C 72 % 995,8 hPa 0,0 mm 6,6 km/h (2 Bft) NO 45 0 min 1,1 C 6,6 km/h (2 Bft)
13.02.2016 13:14 5,7 C 8,1 C 72 % 995,8 hPa 0,0 mm 6,6 km/h (2 Bft) NO 45 0 min 1,1 C 6,6 km/h (2 Bft)
13.02.2016 13:15 5,7 C 8,1 C 72 % 995,8 hPa 0,0 mm 6,9 km/h (2 Bft) O-NO 67 0 min 1,1 C 9,8 km/h (2 Bft)
13.02.2016 13:16 5,7 C 8,1 C 72 % 995,8 hPa 0,0 mm 6,9 km/h (2 Bft) O-NO 67 0 min 1,1 C 9,8 km/h (2 Bft)
13.02.2016 13:17 5,7 C 8,2 C 72 % 995,8 hPa 0,0 mm 7,2 km/h (2 Bft) N-NO 22 0 min 1,1 C 12,8 km/h (3 Bft)
13.02.2016 13:18 5,7 C 8,2 C 72 % 995,8 hPa 0,0 mm 7,2 km/h (2 Bft) N-NO 22 0 min 1,1 C 12,8 km/h (3 Bft)
13.02.2016 13:19 5,8 C 8,3 C 72 % 995,8 hPa 0,0 mm 7,2 km/h (2 Bft) NO 45 0 min 1,2 C 4,8 km/h (1 Bft)
13.02.2016 13:20 5,8 C 8,3 C 72 % 995,8 hPa 0,0 mm 7,2 km/h (2 Bft) NO 45 0 min 1,2 C 4,8 km/h (1 Bft)
13.02.2016 13:21 5,8 C 8,5 C 72 % 995,8 hPa 0,0 mm 6,6 km/h (2 Bft) N-NO 22 0 min 1,2 C 4,5 km/h (1 Bft)
13.02.2016 13:22 5,8 C 8,5 C 72 % 995,8 hPa 0,0 mm 6,6 km/h (2 Bft) N-NO 22 0 min 1,2 C 4,5 km/h (1 Bft)
13.02.2016 13:23 5,9 C 9,1 C 72 % 995,4 hPa 0,0 mm 6,3 km/h (2 Bft) NO 45 0 min 1,2 C 8,9 km/h (2 Bft)
13.02.2016 13:24 5,9 C 9,1 C 72 % 995,4 hPa 0,0 mm 6,3 km/h (2 Bft) NO 45 0 min 1,2 C 8,9 km/h (2 Bft)
13.02.2016 13:25 6,0 C 9,7 C 70 % 995,4 hPa 0,0 mm 6,0 km/h (2 Bft) S-SO 157 1 min 1,0 C 3,9 km/h (1 Bft)
13.02.2016 13:26 6,0 C 9,7 C 70 % 995,4 hPa 0,0 mm 6,0 km/h (2 Bft) S-SO 157 1 min 1,0 C 3,9 km/h (1 Bft)
13.02.2016 13:27 6,0 C 10,1 C 70 % 995,4 hPa 0,0 mm 4,5 km/h (1 Bft) O-NO 67 1 min 1,0 C 0,0 km/h (0 Bft)
13.02.2016 13:28 6,0 C 10,1 C 70 % 995,4 hPa 0,0 mm 4,5 km/h (1 Bft) O-NO 67 1 min 1,0 C 0,0 km/h (0 Bft)
13.02.2016 13:29 6,0 C 10,1 C 70 % 995,4 hPa 0,0 mm 3,9 km/h (1 Bft) O-NO 67 1 min 1,0 C 9,2 km/h (2 Bft)
13.02.2016 13:30 6,0 C 10,1 C 70 % 995,4 hPa 0,0 mm 3,9 km/h (1 Bft) O-NO 67 1 min 1,0 C 9,2 km/h (2 Bft)
13.02.2016 13:31 5,9 C 9,9 C 71 % 995,4 hPa 0,0 mm 3,9 km/h (1 Bft) O-SO 112 1 min 1,1 C 5,7 km/h (1 Bft)
13.02.2016 13:32 5,9 C 9,9 C 71 % 995,4 hPa 0,0 mm 3,9 km/h (1 Bft) O-SO 112 1 min 1,1 C 5,7 km/h (1 Bft)
13.02.2016 13:33 5,9 C 9,4 C 70 % 995,4 hPa 0,0 mm 5,1 km/h (1 Bft) O-NO 67 1 min 0,9 C 7,2 km/h (2 Bft)
13.02.2016 13:34 5,9 C 9,4 C 70 % 995,4 hPa 0,0 mm 5,1 km/h (1 Bft) O-NO 67 1 min 0,9 C 7,2 km/h (2 Bft)
13.02.2016 13:35 5,9 C 9,0 C 70 % 995,4 hPa 0,0 mm 4,8 km/h (1 Bft) O 90 1 min 0,9 C 3,0 km/h (1 Bft)
13.02.2016 13:36 5,9 C 9,0 C 70 % 995,4 hPa 0,0 mm 4,8 km/h (1 Bft) O 90 1 min 0,9 C 3,0 km/h (1 Bft)
13.02.2016 13:37 5,8 C 8,8 C 70 % 995,4 hPa 0,0 mm 4,8 km/h (1 Bft) O-SO 112 1 min 0,8 C 5,7 km/h (1 Bft)
13.02.2016 13:38 5,8 C 8,8 C 70 % 995,4 hPa 0,0 mm 4,8 km/h (1 Bft) O-SO 112 1 min 0,8 C 5,7 km/h (1 Bft)
13.02.2016 13:39 5,8 C 8,6 C 70 % 995,4 hPa 0,0 mm 5,4 km/h (1 Bft) NO 45 0 min 0,8 C 3,0 km/h (1 Bft)
13.02.2016 13:40 5,8 C 8,6 C 70 % 995,4 hPa 0,0 mm 5,4 km/h (1 Bft) NO 45 0 min 0,8 C 3,0 km/h (1 Bft)
13.02.2016 13:41 5,9 C 8,5 C 70 % 995,4 hPa 0,0 mm 4,5 km/h (1 Bft) O 90 0 min 0,9 C 3,9 km/h (1 Bft)
13.02.2016 13:42 5,9 C 8,5 C 70 % 995,4 hPa 0,0 mm 4,5 km/h (1 Bft) O 90 0 min 0,9 C 3,9 km/h (1 Bft)
13.02.2016 13:43 5,9 C 8,4 C 70 % 995,3 hPa 0,0 mm 3,3 km/h (1 Bft) O-NO 67 0 min 0,9 C 3,9 km/h (1 Bft)
13.02.2016 13:44 5,9 C 8,4 C 70 % 995,3 hPa 0,0 mm 3,3 km/h (1 Bft) O-NO 67 0 min 0,9 C 3,9 km/h (1 Bft)
13.02.2016 13:45 5,9 C 8,3 C 70 % 995,3 hPa 0,0 mm 2,1 km/h (1 Bft) O-SO 112 0 min 0,9 C 3,3 km/h (1 Bft)
13.02.2016 13:46 5,9 C 8,3 C 70 % 995,3 hPa 0,0 mm 2,1 km/h (1 Bft) O-SO 112 0 min 0,9 C 3,3 km/h (1 Bft)
13.02.2016 13:47 5,9 C 8,2 C 70 % 995,3 hPa 0,0 mm 2,1 km/h (1 Bft) O-SO 112 0 min 0,9 C 3,0 km/h (1 Bft)
13.02.2016 13:48 5,9 C 8,2 C 70 % 995,3 hPa 0,0 mm 2,1 km/h (1 Bft) O-SO 112 0 min 0,9 C 3,0 km/h (1 Bft)
13.02.2016 13:49 5,9 C 8,2 C 70 % 995,3 hPa 0,0 mm 2,4 km/h (1 Bft) SO 135 0 min 0,9 C 0,0 km/h (0 Bft)
13.02.2016 13:50 5,9 C 8,2 C 70 % 995,3 hPa 0,0 mm 2,4 km/h (1 Bft) SO 135 0 min 0,9 C 0,0 km/h (0 Bft)
13.02.2016 13:51 5,9 C 8,1 C 70 % 995,3 hPa 0,0 mm 1,8 km/h (1 Bft) O-NO 67 0 min 0,9 C 0,0 km/h (0 Bft)
13.02.2016 13:52 5,9 C 8,1 C 70 % 995,3 hPa 0,0 mm 1,8 km/h (1 Bft) O-NO 67 0 min 0,9 C 0,0 km/h (0 Bft)
13.02.2016 13:53 6,0 C 8,1 C 69 % 995,3 hPa 0,0 mm 2,1 km/h (1 Bft) NO 45 0 min 0,8 C 6,0 km/h (2 Bft)
13.02.2016 13:54 6,0 C 8,1 C 69 % 995,3 hPa 0,0 mm 2,1 km/h (1 Bft) NO 45 0 min 0,8 C 6,0 km/h (2 Bft)
13.02.2016 13:55 6,0 C 8,1 C 69 % 995,3 hPa 0,0 mm 1,8 km/h (1 Bft) W 270 0 min 0,8 C 0,0 km/h (0 Bft)
13.02.2016 13:56 6,0 C 8,1 C 69 % 995,3 hPa 0,0 mm 1,8 km/h (1 Bft) W 270 0 min 0,8 C 0,0 km/h (0 Bft)
13.02.2016 13:57 5,9 C 8,1 C 69 % 995,3 hPa 0,0 mm 1,5 km/h (1 Bft) W 270 0 min 0,7 C 3,9 km/h (1 Bft)
13.02.2016 13:58 5,9 C 8,1 C 69 % 995,3 hPa 0,0 mm 1,5 km/h (1 Bft) W 270 0 min 0,7 C 3,9 km/h (1 Bft)
13.02.2016 13:59 5,9 C 8,1 C 69 % 995,3 hPa 0,0 mm 1,2 km/h (1 Bft) W 270 0 min 0,7 C 0,0 km/h (0 Bft)
13.02.2016 14:00 5,9 C 8,1 C 69 % 995,3 hPa 0,0 mm 1,2 km/h (1 Bft) W 270 0 min 0,7 C 0,0 km/h (0 Bft)
13.02.2016 14:01 5,9 C 8,2 C 69 % 995,3 hPa 0,0 mm 1,5 km/h (1 Bft) W 270 0 min 0,7 C 6,6 km/h (2 Bft)
13.02.2016 14:02 5,9 C 8,2 C 69 % 995,3 hPa 0,0 mm 1,5 km/h (1 Bft) W 270 0 min 0,7 C 6,6 km/h (2 Bft)
13.02.2016 14:03 5,9 C 8,1 C 69 % 995,0 hPa 0,0 mm 1,8 km/h (1 Bft) SW 225 0 min 0,7 C 0,0 km/h (0 Bft)
13.02.2016 14:04 5,9 C 8,1 C 69 % 995,0 hPa 0,0 mm 1,8 km/h (1 Bft) SW 225 0 min 0,7 C 0,0 km/h (0 Bft)
13.02.2016 14:05 5,9 C 8,0 C 69 % 995,0 hPa 0,0 mm 2,4 km/h (1 Bft) W-NW 292 0 min 0,7 C 6,6 km/h (2 Bft)
13.02.2016 14:06 5,9 C 8,0 C 69 % 995,0 hPa 0,0 mm 2,4 km/h (1 Bft) W-NW 292 0 min 0,7 C 6,6 km/h (2 Bft)
13.02.2016 14:07 5,9 C 7,8 C 69 % 995,0 hPa 0,0 mm 3,6 km/h (1 Bft) NW 315 0 min 0,7 C 5,7 km/h (1 Bft)
13.02.2016 14:08 5,9 C 7,8 C 69 % 995,0 hPa 0,0 mm 3,6 km/h (1 Bft) NW 315 0 min 0,7 C 5,7 km/h (1 Bft)
13.02.2016 14:09 5,9 C 7,7 C 69 % 995,0 hPa 0,0 mm 4,5 km/h (1 Bft) N-NW 337 0 min 0,7 C 9,8 km/h (2 Bft)
13.02.2016 14:10 5,9 C 7,7 C 69 % 995,0 hPa 0,0 mm 4,5 km/h (1 Bft) N-NW 337 0 min 0,7 C 9,8 km/h (2 Bft)
13.02.2016 14:11 6,0 C 7,6 C 68 % 995,0 hPa 0,0 mm 6,0 km/h (2 Bft) N-NW 337 0 min 0,6 C 6,6 km/h (2 Bft)
13.02.2016 14:12 6,0 C 7,6 C 68 % 995,0 hPa 0,0 mm 6,0 km/h (2 Bft) N-NW 337 0 min 0,6 C 6,6 km/h (2 Bft)
13.02.2016 14:13 6,0 C 7,4 C 68 % 995,0 hPa 0,0 mm 6,9 km/h (2 Bft) W-NW 292 0 min 0,6 C 9,2 km/h (2 Bft)
13.02.2016 14:14 6,0 C 7,4 C 68 % 995,0 hPa 0,0 mm 6,9 km/h (2 Bft) W-NW 292 0 min 0,6 C 9,2 km/h (2 Bft)
13.02.2016 14:15 6,0 C 7,5 C 68 % 995,0 hPa 0,0 mm 6,6 km/h (2 Bft) W 270 0 min 0,6 C 4,8 km/h (1 Bft)
13.02.2016 14:16 6,0 C 7,5 C 68 % 995,0 hPa 0,0 mm 6,6 km/h (2 Bft) W 270 0 min 0,6 C 4,8 km/h (1 Bft)
13.02.2016 14:17 6,0 C 7,5 C 68 % 995,0 hPa 0,0 mm 6,3 km/h (2 Bft) NW 315 0 min 0,6 C 7,2 km/h (2 Bft)
13.02.2016 14:18 6,0 C 7,5 C 68 % 995,0 hPa 0,0 mm 6,3 km/h (2 Bft) NW 315 0 min 0,6 C 7,2 km/h (2 Bft)
13.02.2016 14:19 6,2 C 7,4 C 68 % 995,0 hPa 0,0 mm 5,7 km/h (1 Bft) N-NW 337 0 min 0,7 C 0,0 km/h (0 Bft)
13.02.2016 14:20 6,2 C 7,4 C 68 % 995,0 hPa 0,0 mm 5,7 km/h (1 Bft) N-NW 337 0 min 0,7 C 0,0 km/h (0 Bft)
13.02.2016 14:21 6,0 C 7,4 C 68 % 995,0 hPa 0,0 mm 4,5 km/h (1 Bft) N-NO 22 0 min 0,6 C 0,0 km/h (0 Bft)
13.02.2016 14:22 6,0 C 7,4 C 68 % 995,0 hPa 0,0 mm 4,5 km/h (1 Bft) N-NO 22 0 min 0,6 C 0,0 km/h (0 Bft)
13.02.2016 14:23 6,0 C 7,3 C 68 % 994,9 hPa 0,0 mm 3,3 km/h (1 Bft) N-NW 337 0 min 0,6 C 0,0 km/h (0 Bft)
13.02.2016 14:24 6,0 C 7,3 C 68 % 994,9 hPa 0,0 mm 3,3 km/h (1 Bft) N-NW 337 0 min 0,6 C 0,0 km/h (0 Bft)
13.02.2016 14:25 6,0 C 7,3 C 68 % 994,9 hPa 0,0 mm 2,7 km/h (1 Bft) NW 315 0 min 0,6 C 8,9 km/h (2 Bft)
13.02.2016 14:26 6,0 C 7,3 C 68 % 994,9 hPa 0,0 mm 2,7 km/h (1 Bft) NW 315 0 min 0,6 C 8,9 km/h (2 Bft)
13.02.2016 14:27 6,0 C 7,2 C 67 % 994,9 hPa 0,0 mm 2,7 km/h (1 Bft) N-NO 22 0 min 0,3 C 5,4 km/h (1 Bft)
13.02.2016 14:28 6,0 C 7,2 C 67 % 994,9 hPa 0,0 mm 2,7 km/h (1 Bft) N-NO 22 0 min 0,3 C 5,4 km/h (1 Bft)
13.02.2016 14:29 5,9 C 7,1 C 68 % 994,9 hPa 0,0 mm 3,0 km/h (1 Bft) W-NW 292 0 min 0,5 C 9,8 km/h (2 Bft)
13.02.2016 14:30 5,9 C 7,1 C 68 % 994,9 hPa 0,0 mm 3,0 km/h (1 Bft) W-NW 292 0 min 0,5 C 9,8 km/h (2 Bft)
13.02.2016 14:31 5,9 C 6,9 C 68 % 994,9 hPa 0,0 mm 3,9 km/h (1 Bft) NW 315 0 min 0,5 C 5,4 km/h (1 Bft)
13.02.2016 14:32 5,9 C 6,9 C 68 % 994,9 hPa 0,0 mm 3,9 km/h (1 Bft) NW 315 0 min 0,5 C 5,4 km/h (1 Bft)
13.02.2016 14:33 5,9 C 6,8 C 68 % 994,9 hPa 0,0 mm 3,9 km/h (1 Bft) NW 315 0 min 0,5 C 0,0 km/h (0 Bft)
13.02.2016 14:34 5,9 C 6,8 C 68 % 994,9 hPa 0,0 mm 3,9 km/h (1 Bft) NW 315 0 min 0,5 C 0,0 km/h (0 Bft)
13.02.2016 14:35 5,8 C 6,8 C 68 % 994,9 hPa 0,0 mm 3,9 km/h (1 Bft) NW 315 0 min 0,4 C 0,0 km/h (0 Bft)
13.02.2016 14:36 5,8 C 6,8 C 68 % 994,9 hPa 0,0 mm 3,9 km/h (1 Bft) NW 315 0 min 0,4 C 0,0 km/h (0 Bft)
13.02.2016 14:37 5,8 C 6,7 C 68 % 994,9 hPa 0,0 mm 3,3 km/h (1 Bft) NW 315 0 min 0,4 C 3,9 km/h (1 Bft)
13.02.2016 14:38 5,8 C 6,7 C 68 % 994,9 hPa 0,0 mm 3,3 km/h (1 Bft) NW 315 0 min 0,4 C 3,9 km/h (1 Bft)
13.02.2016 14:39 5,8 C 6,7 C 68 % 994,9 hPa 0,0 mm 2,4 km/h (1 Bft) W-SW 247 0 min 0,4 C 0,0 km/h (0 Bft)
13.02.2016 14:40 5,8 C 6,7 C 68 % 994,9 hPa 0,0 mm 2,4 km/h (1 Bft) W-SW 247 0 min 0,4 C 0,0 km/h (0 Bft)
13.02.2016 14:41 5,8 C 6,7 C 68 % 994,9 hPa 0,0 mm 0,9 km/h (0 Bft) W-NW 292 0 min 0,4 C 3,6 km/h (1 Bft)
13.02.2016 14:42 5,8 C 6,7 C 68 % 994,9 hPa 0,0 mm 0,9 km/h (0 Bft) W-NW 292 0 min 0,4 C 3,6 km/h (1 Bft)
13.02.2016 14:43 5,8 C 6,7 C 68 % 994,6 hPa 0,0 mm 0,9 km/h (0 Bft) W-NW 292 0 min 0,4 C 3,9 km/h (1 Bft)
13.02.2016 14:44 5,8 C 6,7 C 68 % 994,6 hPa 0,0 mm 0,9 km/h (0 Bft) W-NW 292 0 min 0,4 C 3,9 km/h (1 Bft)
13.02.2016 14:45 5,8 C 6,7 C 68 % 994,6 hPa 0,0 mm 0,6 km/h (0 Bft) W-SW 247 0 min 0,4 C 0,0 km/h (0 Bft)
13.02.2016 14:46 5,8 C 6,7 C 68 % 994,6 hPa 0,0 mm 0,6 km/h (0 Bft) W-SW 247 0 min 0,4 C 0,0 km/h (0 Bft)
13.02.2016 14:47 5,8 C 6,8 C 68 % 994,6 hPa 0,0 mm 1,2 km/h (1 Bft) W-SW 247 0 min 0,4 C 4,2 km/h (1 Bft)
13.02.2016 14:48 5,8 C 6,8 C 68 % 994,6 hPa 0,0 mm 1,2 km/h (1 Bft) W-SW 247 0 min 0,4 C 4,2 km/h (1 Bft)
13.02.2016 14:49 5,8 C 6,8 C 68 % 994,6 hPa 0,0 mm 1,2 km/h (1 Bft) N-NW 337 0 min 0,4 C 4,5 km/h (1 Bft)
13.02.2016 14:50 5,8 C 6,8 C 68 % 994,6 hPa 0,0 mm 1,2 km/h (1 Bft) N-NW 337 0 min 0,4 C 4,5 km/h (1 Bft)
13.02.2016 14:51 5,8 C 6,8 C 68 % 994,6 hPa 0,0 mm 2,1 km/h (1 Bft) W-NW 292 0 min 0,4 C 4,5 km/h (1 Bft)
13.02.2016 14:52 5,8 C 6,8 C 68 % 994,6 hPa 0,0 mm 2,1 km/h (1 Bft) W-NW 292 0 min 0,4 C 4,5 km/h (1 Bft)
13.02.2016 14:53 5,8 C 6,8 C 68 % 994,6 hPa 0,0 mm 2,4 km/h (1 Bft) W 270 0 min 0,4 C 4,2 km/h (1 Bft)
13.02.2016 14:54 5,8 C 6,8 C 68 % 994,6 hPa 0,0 mm 2,4 km/h (1 Bft) W 270 0 min 0,4 C 4,2 km/h (1 Bft)
13.02.2016 14:55 5,8 C 6,8 C 68 % 994,6 hPa 0,0 mm 2,4 km/h (1 Bft) W 270 0 min 0,4 C 0,0 km/h (0 Bft)
13.02.2016 14:56 5,8 C 6,8 C 68 % 994,6 hPa 0,0 mm 2,4 km/h (1 Bft) W 270 0 min 0,4 C 0,0 km/h (0 Bft)
13.02.2016 14:57 5,8 C 6,8 C 68 % 994,6 hPa 0,0 mm 2,1 km/h (1 Bft) W-NW 292 0 min 0,4 C 0,0 km/h (0 Bft)
13.02.2016 14:58 5,8 C 6,8 C 68 % 994,6 hPa 0,0 mm 2,1 km/h (1 Bft) W-NW 292 0 min 0,4 C 0,0 km/h (0 Bft)
13.02.2016 14:59 5,8 C 6,7 C 68 % 994,6 hPa 0,0 mm 2,1 km/h (1 Bft) N-NW 337 0 min 0,4 C 0,0 km/h (0 Bft)
13.02.2016 15:00 5,8 C 6,7 C 68 % 994,6 hPa 0,0 mm 2,1 km/h (1 Bft) N-NW 337 0 min 0,4 C 0,0 km/h (0 Bft)
13.02.2016 15:01 5,8 C 6,6 C 68 % 994,6 hPa 0,0 mm 1,8 km/h (1 Bft) N-NW 337 0 min 0,4 C 0,0 km/h (0 Bft)
13.02.2016 15:02 5,8 C 6,6 C 68 % 994,6 hPa 0,0 mm 1,8 km/h (1 Bft) N-NW 337 0 min 0,4 C 0,0 km/h (0 Bft)
13.02.2016 15:03 5,7 C 6,5 C 68 % 994,3 hPa 0,0 mm 1,2 km/h (1 Bft) NW 315 0 min 0,3 C 3,6 km/h (1 Bft)
13.02.2016 15:04 5,7 C 6,5 C 68 % 994,3 hPa 0,0 mm 1,2 km/h (1 Bft) NW 315 0 min 0,3 C 3,6 km/h (1 Bft)
13.02.2016 15:05 5,7 C 6,3 C 68 % 994,3 hPa 0,0 mm 1,2 km/h (1 Bft) W 270 0 min 0,3 C 3,0 km/h (1 Bft)
13.02.2016 15:06 5,7 C 6,3 C 68 % 994,3 hPa 0,0 mm 1,2 km/h (1 Bft) W 270 0 min 0,3 C 3,0 km/h (1 Bft)
13.02.2016 15:07 5,7 C 6,1 C 68 % 994,3 hPa 0,0 mm 1,2 km/h (1 Bft) W-NW 292 0 min 0,3 C 4,2 km/h (1 Bft)
13.02.2016 15:08 5,7 C 6,1 C 68 % 994,3 hPa 0,0 mm 1,2 km/h (1 Bft) W-NW 292 0 min 0,3 C 4,2 km/h (1 Bft)
13.02.2016 15:09 5,7 C 5,9 C 68 % 994,3 hPa 0,0 mm 1,5 km/h (1 Bft) W 270 0 min 0,3 C 5,7 km/h (1 Bft)
13.02.2016 15:10 5,7 C 5,9 C 68 % 994,3 hPa 0,0 mm 1,5 km/h (1 Bft) W 270 0 min 0,3 C 5,7 km/h (1 Bft)
13.02.2016 15:11 5,6 C 5,8 C 68 % 994,3 hPa 0,0 mm 1,8 km/h (1 Bft) W-SW 247 0 min 0,2 C 0,0 km/h (0 Bft)
13.02.2016 15:12 5,6 C 5,8 C 68 % 994,3 hPa 0,0 mm 1,8 km/h (1 Bft) W-SW 247 0 min 0,2 C 0,0 km/h (0 Bft)
13.02.2016 15:13 5,6 C 5,8 C 68 % 994,3 hPa 0,0 mm 1,5 km/h (1 Bft) O-SO 112 0 min 0,2 C 0,0 km/h (0 Bft)
13.02.2016 15:14 5,6 C 5,8 C 68 % 994,3 hPa 0,0 mm 1,5 km/h (1 Bft) O-SO 112 0 min 0,2 C 0,0 km/h (0 Bft)
13.02.2016 15:15 5,6 C 5,7 C 69 % 994,3 hPa 0,0 mm 1,5 km/h (1 Bft) O-NO 67 0 min 0,4 C 3,6 km/h (1 Bft)
13.02.2016 15:16 5,6 C 5,7 C 69 % 994,3 hPa 0,0 mm 1,5 km/h (1 Bft) O-NO 67 0 min 0,4 C 3,6 km/h (1 Bft)
13.02.2016 15:17 5,5 C 5,6 C 68 % 994,3 hPa 0,0 mm 1,5 km/h (1 Bft) O-SO 112 0 min 0,1 C 0,0 km/h (0 Bft)
13.02.2016 15:18 5,5 C 5,6 C 68 % 994,3 hPa 0,0 mm 1,5 km/h (1 Bft) O-SO 112 0 min 0,1 C 0,0 km/h (0 Bft)
13.02.2016 15:19 5,5 C 5,5 C 69 % 994,3 hPa 0,0 mm 0,9 km/h (0 Bft) O-NO 67 0 min 0,3 C 0,0 km/h (0 Bft)
13.02.2016 15:20 5,5 C 5,5 C 69 % 994,3 hPa 0,0 mm 0,9 km/h (0 Bft) O-NO 67 0 min 0,3 C 0,0 km/h (0 Bft)
13.02.2016 15:21 5,5 C 5,5 C 69 % 994,3 hPa 0,0 mm 0,9 km/h (0 Bft) NO 45 0 min 0,3 C 4,5 km/h (1 Bft)
13.02.2016 15:22 5,5 C 5,5 C 69 % 994,3 hPa 0,0 mm 0,9 km/h (0 Bft) NO 45 0 min 0,3 C 4,5 km/h (1 Bft)
13.02.2016 15:23 5,4 C 5,4 C 69 % 993,9 hPa 0,0 mm 1,8 km/h (1 Bft) NO 45 0 min 0,2 C 4,2 km/h (1 Bft)
13.02.2016 15:24 5,4 C 5,4 C 69 % 993,9 hPa 0,0 mm 1,8 km/h (1 Bft) NO 45 0 min 0,2 C 4,2 km/h (1 Bft)
13.02.2016 15:25 5,5 C 5,4 C 69 % 993,9 hPa 0,0 mm 1,8 km/h (1 Bft) NO 45 0 min 0,3 C 0,0 km/h (0 Bft)
13.02.2016 15:26 5,5 C 5,4 C 69 % 993,9 hPa 0,0 mm 1,8 km/h (1 Bft) NO 45 0 min 0,3 C 0,0 km/h (0 Bft)
13.02.2016 15:27 5,5 C 5,5 C 69 % 993,9 hPa 0,0 mm 1,5 km/h (1 Bft) O-NO 67 0 min 0,3 C 0,0 km/h (0 Bft)
13.02.2016 15:28 5,5 C 5,5 C 69 % 993,9 hPa 0,0 mm 1,5 km/h (1 Bft) O-NO 67 0 min 0,3 C 0,0 km/h (0 Bft)
13.02.2016 15:29 5,5 C 5,5 C 69 % 993,9 hPa 0,0 mm 1,5 km/h (1 Bft) O 90 0 min 0,3 C 0,0 km/h (0 Bft)
13.02.2016 15:30 5,5 C 5,5 C 69 % 993,9 hPa 0,0 mm 1,5 km/h (1 Bft) O 90 0 min 0,3 C 0,0 km/h (0 Bft)
13.02.2016 15:31 5,5 C 5,6 C 69 % 993,9 hPa 0,0 mm 1,2 km/h (1 Bft) NO 45 0 min 0,3 C 0,0 km/h (0 Bft)
13.02.2016 15:32 5,5 C 5,6 C 69 % 993,9 hPa 0,0 mm 1,2 km/h (1 Bft) NO 45 0 min 0,3 C 0,0 km/h (0 Bft)
13.02.2016 15:33 5,5 C 5,6 C 69 % 993,9 hPa 0,0 mm 0,3 km/h (0 Bft) O 90 0 min 0,3 C 0,0 km/h (0 Bft)
13.02.2016 15:34 5,5 C 5,6 C 69 % 993,9 hPa 0,0 mm 0,3 km/h (0 Bft) O 90 0 min 0,3 C 0,0 km/h (0 Bft)
13.02.2016 15:35 5,4 C 5,6 C 69 % 993,9 hPa 0,0 mm 0,0 km/h (0 Bft) O-NO 67 0 min 0,2 C 0,0 km/h (0 Bft)
13.02.2016 15:36 5,4 C 5,6 C 69 % 993,9 hPa 0,0 mm 0,0 km/h (0 Bft) O-NO 67 0 min 0,2 C 0,0 km/h (0 Bft)
13.02.2016 15:37 5,3 C 5,5 C 69 % 993,9 hPa 0,0 mm 0,3 km/h (0 Bft) NO 45 0 min 0,1 C 6,0 km/h (2 Bft)
13.02.2016 15:38 5,3 C 5,5 C 69 % 993,9 hPa 0,0 mm 0,3 km/h (0 Bft) NO 45 0 min 0,1 C 6,0 km/h (2 Bft)
13.02.2016 15:39 5,3 C 5,4 C 69 % 993,9 hPa 0,0 mm 1,5 km/h (1 Bft) O-NO 67 0 min 0,1 C 6,6 km/h (2 Bft)
13.02.2016 15:40 5,3 C 5,4 C 69 % 993,9 hPa 0,0 mm 1,5 km/h (1 Bft) O-NO 67 0 min 0,1 C 6,6 km/h (2 Bft)
13.02.2016 15:41 5,2 C 5,4 C 69 % 993,9 hPa 0,0 mm 2,1 km/h (1 Bft) N-NW 337 0 min -0,0 C 4,8 km/h (1 Bft)
13.02.2016 15:42 5,2 C 5,4 C 69 % 993,9 hPa 0,0 mm 2,1 km/h (1 Bft) N-NW 337 0 min -0,0 C 4,8 km/h (1 Bft)
13.02.2016 15:43 5,2 C 5,3 C 69 % 993,7 hPa 0,0 mm 2,4 km/h (1 Bft) N-NO 22 0 min -0,0 C 4,8 km/h (1 Bft)
13.02.2016 15:44 5,2 C 5,3 C 69 % 993,7 hPa 0,0 mm 2,4 km/h (1 Bft) N-NO 22 0 min -0,0 C 4,8 km/h (1 Bft)
13.02.2016 15:45 5,2 C 5,3 C 69 % 993,7 hPa 0,0 mm 2,4 km/h (1 Bft) N 360 0 min -0,0 C 0,0 km/h (0 Bft)
13.02.2016 15:46 5,2 C 5,3 C 69 % 993,7 hPa 0,0 mm 2,4 km/h (1 Bft) N 360 0 min -0,0 C 0,0 km/h (0 Bft)
13.02.2016 15:47 5,3 C 5,3 C 69 % 993,7 hPa 0,0 mm 2,4 km/h (1 Bft) N-NO 22 0 min 0,1 C 0,0 km/h (0 Bft)
13.02.2016 15:48 5,3 C 5,3 C 69 % 993,7 hPa 0,0 mm 2,4 km/h (1 Bft) N-NO 22 0 min 0,1 C 0,0 km/h (0 Bft)
13.02.2016 15:49 5,2 C 5,4 C 69 % 993,7 hPa 0,0 mm 1,8 km/h (1 Bft) N-NW 337 0 min -0,0 C 0,0 km/h (0 Bft)
13.02.2016 15:50 5,2 C 5,4 C 69 % 993,7 hPa 0,0 mm 1,8 km/h (1 Bft) N-NW 337 0 min -0,0 C 0,0 km/h (0 Bft)
13.02.2016 15:51 5,2 C 5,4 C 69 % 993,7 hPa 0,0 mm 0,6 km/h (0 Bft) N-NW 337 0 min -0,0 C 0,0 km/h (0 Bft)
13.02.2016 15:52 5,2 C 5,4 C 69 % 993,7 hPa 0,0 mm 0,6 km/h (0 Bft) N-NW 337 0 min -0,0 C 0,0 km/h (0 Bft)
13.02.2016 15:53 5,2 C 5,4 C 69 % 993,7 hPa 0,0 mm 0,0 km/h (0 Bft) O-NO 67 0 min -0,0 C 0,0 km/h (0 Bft)
13.02.2016 15:54 5,2 C 5,4 C 69 % 993,7 hPa 0,0 mm 0,0 km/h (0 Bft) O-NO 67 0 min -0,0 C 0,0 km/h (0 Bft)
13.02.2016 15:55 5,2 C 5,5 C 69 % 993,7 hPa 0,0 mm 0,3 km/h (0 Bft) O-NO 67 0 min -0,0 C 5,4 km/h (1 Bft)
13.02.2016 15:56 5,2 C 5,5 C 69 % 993,7 hPa 0,0 mm 0,3 km/h (0 Bft) O-NO 67 0 min -0,0 C 5,4 km/h (1 Bft)
13.02.2016 15:57 5,2 C 5,5 C 69 % 993,7 hPa 0,0 mm 0,6 km/h (0 Bft) O-NO 67 0 min -0,0 C 5,1 km/h (1 Bft)
13.02.2016 15:58 5,2 C 5,5 C 69 % 993,7 hPa 0,0 mm 0,6 km/h (0 Bft) O-NO 67 0 min -0,0 C 5,1 km/h (1 Bft)
13.02.2016 15:59 5,2 C 5,6 C 69 % 993,7 hPa 0,0 mm 0,9 km/h (0 Bft) NO 45 0 min -0,0 C 5,7 km/h (1 Bft)
13.02.2016 16:00 5,2 C 5,6 C 69 % 993,7 hPa 0,0 mm 0,9 km/h (0 Bft) NO 45 0 min -0,0 C 5,7 km/h (1 Bft)
13.02.2016 16:01 5,2 C 5,6 C 70 % 993,7 hPa 0,0 mm 1,8 km/h (1 Bft) O-NO 67 0 min 0,2 C 0,0 km/h (0 Bft)
13.02.2016 16:02 5,2 C 5,6 C 70 % 993,7 hPa 0,0 mm 1,8 km/h (1 Bft) O-NO 67 0 min 0,2 C 0,0 km/h (0 Bft)
13.02.2016 16:03 5,2 C 5,8 C 70 % 993,1 hPa 0,0 mm 2,1 km/h (1 Bft) NO 45 0 min 0,2 C 3,0 km/h (1 Bft)
13.02.2016 16:04 5,2 C 5,8 C 70 % 993,1 hPa 0,0 mm 2,1 km/h (1 Bft) NO 45 0 min 0,2 C 3,0 km/h (1 Bft)
13.02.2016 16:05 5,4 C 5,8 C 70 % 993,1 hPa 0,0 mm 3,0 km/h (1 Bft) NO 45 0 min 0,4 C 9,5 km/h (2 Bft)
13.02.2016 16:06 5,4 C 5,8 C 70 % 993,1 hPa 0,0 mm 3,0 km/h (1 Bft) NO 45 0 min 0,4 C 9,5 km/h (2 Bft)
13.02.2016 16:07 5,4 C 5,7 C 70 % 993,1 hPa 0,0 mm 3,9 km/h (1 Bft) O-NO 67 0 min 0,4 C 9,5 km/h (2 Bft)
13.02.2016 16:08 5,4 C 5,7 C 70 % 993,1 hPa 0,0 mm 3,9 km/h (1 Bft) O-NO 67 0 min 0,4 C 9,5 km/h (2 Bft)
13.02.2016 16:09 5,3 C 5,6 C 70 % 993,1 hPa 0,0 mm 4,8 km/h (1 Bft) O-NO 67 0 min 0,3 C 5,1 km/h (1 Bft)
13.02.2016 16:10 5,3 C 5,6 C 70 % 993,1 hPa 0,0 mm 4,8 km/h (1 Bft) O-NO 67 0 min 0,3 C 5,1 km/h (1 Bft)
13.02.2016 16:11 5,2 C 5,4 C 70 % 993,1 hPa 0,0 mm 5,1 km/h (1 Bft) N-NO 22 0 min 0,2 C 11,6 km/h (2 Bft)
13.02.2016 16:12 5,2 C 5,4 C 70 % 993,1 hPa 0,0 mm 5,1 km/h (1 Bft) N-NO 22 0 min 0,2 C 11,6 km/h (2 Bft)
13.02.2016 16:13 5,2 C 5,4 C 70 % 993,1 hPa 0,0 mm 5,4 km/h (1 Bft) N-NO 22 0 min 0,2 C 5,1 km/h (1 Bft)
13.02.2016 16:14 5,2 C 5,4 C 70 % 993,1 hPa 0,0 mm 5,4 km/h (1 Bft) N-NO 22 0 min 0,2 C 5,1 km/h (1 Bft)
13.02.2016 16:15 5,2 C 5,3 C 70 % 993,1 hPa 0,0 mm 5,4 km/h (1 Bft) W 270 0 min 0,2 C 0,0 km/h (0 Bft)
13.02.2016 16:16 5,2 C 5,3 C 70 % 993,1 hPa 0,0 mm 5,4 km/h (1 Bft) W 270 0 min 0,2 C 0,0 km/h (0 Bft)
13.02.2016 16:17 5,1 C 5,3 C 70 % 993,1 hPa 0,0 mm 3,9 km/h (1 Bft) O-NO 67 0 min 0,1 C 5,7 km/h (1 Bft)
13.02.2016 16:18 5,1 C 5,3 C 70 % 993,1 hPa 0,0 mm 3,9 km/h (1 Bft) O-NO 67 0 min 0,1 C 5,7 km/h (1 Bft)
13.02.2016 16:19 5,0 C 5,3 C 71 % 993,1 hPa 0,0 mm 3,6 km/h (1 Bft) O 90 0 min 0,2 C 4,5 km/h (1 Bft)
13.02.2016 16:20 5,0 C 5,3 C 71 % 993,1 hPa 0,0 mm 3,6 km/h (1 Bft) O 90 0 min 0,2 C 4,5 km/h (1 Bft)
13.02.2016 16:21 4,9 C 5,3 C 71 % 993,1 hPa 0,0 mm 3,0 km/h (1 Bft) NO 45 0 min 0,1 C 0,0 km/h (0 Bft)
13.02.2016 16:22 4,9 C 5,3 C 71 % 993,1 hPa 0,0 mm 3,0 km/h (1 Bft) NO 45 0 min 0,1 C 0,0 km/h (0 Bft)
13.02.2016 16:23 4,9 C 5,2 C 71 % 993,2 hPa 0,0 mm 2,7 km/h (1 Bft) N 360 0 min 0,1 C 6,9 km/h (2 Bft)
13.02.2016 16:24 4,9 C 5,2 C 71 % 993,2 hPa 0,0 mm 2,7 km/h (1 Bft) N 360 0 min 0,1 C 6,9 km/h (2 Bft)
13.02.2016 16:25 4,9 C 5,1 C 72 % 993,2 hPa 0,0 mm 3,9 km/h (1 Bft) NW 315 0 min 0,3 C 8,9 km/h (2 Bft)
13.02.2016 16:26 4,9 C 5,1 C 72 % 993,2 hPa 0,0 mm 3,9 km/h (1 Bft) NW 315 0 min 0,3 C 8,9 km/h (2 Bft)
13.02.2016 16:27 4,9 C 5,1 C 72 % 993,2 hPa 0,0 mm 4,5 km/h (1 Bft) W-NW 292 0 min 0,3 C 0,0 km/h (0 Bft)
13.02.2016 16:28 4,9 C 5,1 C 72 % 993,2 hPa 0,0 mm 4,5 km/h (1 Bft) W-NW 292 0 min 0,3 C 0,0 km/h (0 Bft)
13.02.2016 16:29 4,9 C 5,0 C 72 % 993,2 hPa 0,0 mm 3,9 km/h (1 Bft) O-SO 112 0 min 0,3 C 4,2 km/h (1 Bft)
13.02.2016 16:30 4,9 C 5,0 C 72 % 993,2 hPa 0,0 mm 3,9 km/h (1 Bft) O-SO 112 0 min 0,3 C 4,2 km/h (1 Bft)
13.02.2016 16:31 4,9 C 5,0 C 73 % 993,2 hPa 0,0 mm 4,2 km/h (1 Bft) O-SO 112 0 min 0,5 C 4,5 km/h (1 Bft)
13.02.2016 16:32 4,9 C 5,0 C 73 % 993,2 hPa 0,0 mm 4,2 km/h (1 Bft) O-SO 112 0 min 0,5 C 4,5 km/h (1 Bft)
13.02.2016 16:33 4,8 C 5,0 C 73 % 993,2 hPa 0,0 mm 3,9 km/h (1 Bft) O-NO 67 0 min 0,4 C 4,8 km/h (1 Bft)
13.02.2016 16:34 4,8 C 5,0 C 73 % 993,2 hPa 0,0 mm 3,9 km/h (1 Bft) O-NO 67 0 min 0,4 C 4,8 km/h (1 Bft)
13.02.2016 16:35 4,7 C 5,0 C 73 % 993,2 hPa 0,0 mm 2,7 km/h (1 Bft) NO 45 0 min 0,3 C 0,0 km/h (0 Bft)
13.02.2016 16:36 4,7 C 5,0 C 73 % 993,2 hPa 0,0 mm 2,7 km/h (1 Bft) NO 45 0 min 0,3 C 0,0 km/h (0 Bft)
13.02.2016 16:37 4,7 C 4,8 C 73 % 993,2 hPa 0,0 mm 2,1 km/h (1 Bft) O-NO 67 0 min 0,3 C 5,4 km/h (1 Bft)
13.02.2016 16:38 4,7 C 4,8 C 73 % 993,2 hPa 0,0 mm 2,1 km/h (1 Bft) O-NO 67 0 min 0,3 C 5,4 km/h (1 Bft)
13.02.2016 16:39 4,7 C 4,8 C 73 % 993,2 hPa 0,0 mm 3,3 km/h (1 Bft) NO 45 0 min 0,3 C 11,9 km/h (2 Bft)
13.02.2016 16:40 4,7 C 4,8 C 73 % 993,2 hPa 0,0 mm 3,3 km/h (1 Bft) NO 45 0 min 0,3 C 11,9 km/h (2 Bft)
13.02.2016 16:41 4,8 C 4,8 C 72 % 993,2 hPa 0,0 mm 4,2 km/h (1 Bft) N-NO 22 0 min 0,2 C 10,1 km/h (2 Bft)
13.02.2016 16:42 4,8 C 4,8 C 72 % 993,2 hPa 0,0 mm 4,2 km/h (1 Bft) N-NO 22 0 min 0,2 C 10,1 km/h (2 Bft)
13.02.2016 16:43 4,8 C 4,8 C 72 % 993,2 hPa 0,0 mm 4,2 km/h (1 Bft) N-NO 22 0 min 0,2 C 3,6 km/h (1 Bft)
13.02.2016 16:44 4,8 C 4,8 C 72 % 993,2 hPa 0,0 mm 4,2 km/h (1 Bft) N-NO 22 0 min 0,2 C 3,6 km/h (1 Bft)
13.02.2016 16:45 4,8 C 4,8 C 72 % 993,2 hPa 0,0 mm 4,8 km/h (1 Bft) N-NO 22 0 min 0,2 C 3,0 km/h (1 Bft)
13.02.2016 16:46 4,8 C 4,8 C 72 % 993,2 hPa 0,0 mm 4,8 km/h (1 Bft) N-NO 22 0 min 0,2 C 3,0 km/h (1 Bft)
13.02.2016 16:47 4,8 C 4,8 C 72 % 993,2 hPa 0,0 mm 5,7 km/h (1 Bft) NO 45 0 min 0,2 C 8,3 km/h (2 Bft)
13.02.2016 16:48 4,8 C 4,8 C 72 % 993,2 hPa 0,0 mm 5,7 km/h (1 Bft) NO 45 0 min 0,2 C 8,3 km/h (2 Bft)
13.02.2016 16:49 4,8 C 4,9 C 73 % 993,2 hPa 0,0 mm 6,0 km/h (2 Bft) O-NO 67 0 min 0,4 C 7,7 km/h (2 Bft)
13.02.2016 16:50 4,8 C 4,9 C 73 % 993,2 hPa 0,0 mm 6,0 km/h (2 Bft) O-NO 67 0 min 0,4 C 7,7 km/h (2 Bft)
13.02.2016 16:51 4,8 C 5,0 C 73 % 993,2 hPa 0,0 mm 5,1 km/h (1 Bft) O-NO 67 0 min 0,4 C 4,5 km/h (1 Bft)
13.02.2016 16:52 4,8 C 5,0 C 73 % 993,2 hPa 0,0 mm 5,1 km/h (1 Bft) O-NO 67 0 min 0,4 C 4,5 km/h (1 Bft)
13.02.2016 16:53 4,7 C 4,8 C 73 % 993,2 hPa 0,0 mm 5,4 km/h (1 Bft) NO 45 0 min 0,3 C 7,7 km/h (2 Bft)
13.02.2016 16:54 4,7 C 4,8 C 73 % 993,2 hPa 0,0 mm 5,4 km/h (1 Bft) NO 45 0 min 0,3 C 7,7 km/h (2 Bft)
13.02.2016 16:55 4,6 C 4,8 C 73 % 993,2 hPa 0,0 mm 5,1 km/h (1 Bft) O-SO 112 0 min 0,2 C 0,0 km/h (0 Bft)
13.02.2016 16:56 4,6 C 4,8 C 73 % 993,2 hPa 0,0 mm 5,1 km/h (1 Bft) O-SO 112 0 min 0,2 C 0,0 km/h (0 Bft)
13.02.2016 16:57 4,4 C 4,7 C 73 % 993,2 hPa 0,0 mm 4,8 km/h (1 Bft) O-SO 112 0 min -0,0 C 0,0 km/h (0 Bft)
13.02.2016 16:58 4,4 C 4,7 C 73 % 993,2 hPa 0,0 mm 4,8 km/h (1 Bft) O-SO 112 0 min -0,0 C 0,0 km/h (0 Bft)
13.02.2016 16:59 4,2 C 4,5 C 74 % 993,2 hPa 0,0 mm 3,3 km/h (1 Bft) O-NO 67 0 min -0,0 C 0,0 km/h (0 Bft)
13.02.2016 17:00 4,2 C 4,5 C 74 % 993,2 hPa 0,0 mm 3,3 km/h (1 Bft) O-NO 67 0 min -0,0 C 0,0 km/h (0 Bft)
13.02.2016 17:01 3,9 C 4,3 C 74 % 993,2 hPa 0,0 mm 2,7 km/h (1 Bft) NO 45 0 min -0,3 C 0,0 km/h (0 Bft)
13.02.2016 17:02 3,9 C 4,3 C 74 % 993,2 hPa 0,0 mm 2,7 km/h (1 Bft) NO 45 0 min -0,3 C 0,0 km/h (0 Bft)
13.02.2016 17:03 3,8 C 4,3 C 74 % 992,5 hPa 0,0 mm 2,1 km/h (1 Bft) O-SO 112 0 min -0,4 C 3,0 km/h (1 Bft)
13.02.2016 17:04 3,8 C 4,3 C 74 % 992,5 hPa 0,0 mm 2,1 km/h (1 Bft) O-SO 112 0 min -0,4 C 3,0 km/h (1 Bft)
13.02.2016 17:05 3,7 C 4,3 C 75 % 992,5 hPa 0,0 mm 1,5 km/h (1 Bft) O-NO 67 0 min -0,3 C 3,0 km/h (1 Bft)
13.02.2016 17:06 3,7 C 4,3 C 75 % 992,5 hPa 0,0 mm 1,5 km/h (1 Bft) O-NO 67 0 min -0,3 C 3,0 km/h (1 Bft)
13.02.2016 17:07 3,6 C 4,4 C 74 % 992,5 hPa 0,0 mm 0,9 km/h (0 Bft) S 180 0 min -0,6 C 0,0 km/h (0 Bft)
13.02.2016 17:08 3,6 C 4,4 C 74 % 992,5 hPa 0,0 mm 0,9 km/h (0 Bft) S 180 0 min -0,6 C 0,0 km/h (0 Bft)
13.02.2016 17:09 3,4 C 4,4 C 75 % 992,5 hPa 0,0 mm 0,9 km/h (0 Bft) O-SO 112 0 min -0,6 C 0,0 km/h (0 Bft)
13.02.2016 17:10 3,4 C 4,4 C 75 % 992,5 hPa 0,0 mm 0,9 km/h (0 Bft) O-SO 112 0 min -0,6 C 0,0 km/h (0 Bft)
13.02.2016 17:11 3,4 C 4,3 C 75 % 992,5 hPa 0,0 mm 0,9 km/h (0 Bft) O-SO 112 0 min -0,6 C 0,0 km/h (0 Bft)
13.02.2016 17:12 3,4 C 4,3 C 75 % 992,5 hPa 0,0 mm 0,9 km/h (0 Bft) O-SO 112 0 min -0,6 C 0,0 km/h (0 Bft)
13.02.2016 17:13 3,2 C 4,0 C 75 % 992,5 hPa 0,0 mm 0,9 km/h (0 Bft) NW 315 0 min -0,8 C 0,0 km/h (0 Bft)
13.02.2016 17:14 3,2 C 4,0 C 75 % 992,5 hPa 0,0 mm 0,9 km/h (0 Bft) NW 315 0 min -0,8 C 0,0 km/h (0 Bft)
13.02.2016 17:15 3,2 C 3,7 C 75 % 992,5 hPa 0,0 mm 0,0 km/h (0 Bft) N-NW 337 0 min -0,8 C 0,0 km/h (0 Bft)
13.02.2016 17:16 3,2 C 3,7 C 75 % 992,5 hPa 0,0 mm 0,0 km/h (0 Bft) N-NW 337 0 min -0,8 C 0,0 km/h (0 Bft)
13.02.2016 17:17 3,2 C 3,4 C 75 % 992,5 hPa 0,0 mm 0,3 km/h (0 Bft) S 180 0 min -0,8 C 3,9 km/h (1 Bft)
13.02.2016 17:18 3,2 C 3,4 C 75 % 992,5 hPa 0,0 mm 0,3 km/h (0 Bft) S 180 0 min -0,8 C 3,9 km/h (1 Bft)
13.02.2016 17:19 3,2 C 3,3 C 75 % 992,5 hPa 0,0 mm 0,3 km/h (0 Bft) NW 315 0 min -0,8 C 0,0 km/h (0 Bft)
13.02.2016 17:20 3,2 C 3,3 C 75 % 992,5 hPa 0,0 mm 0,3 km/h (0 Bft) NW 315 0 min -0,8 C 0,0 km/h (0 Bft)
13.02.2016 17:21 3,1 C 3,1 C 75 % 992,5 hPa 0,0 mm 0,3 km/h (0 Bft) SO 135 0 min -0,9 C 0,0 km/h (0 Bft)
13.02.2016 17:22 3,1 C 3,1 C 75 % 992,5 hPa 0,0 mm 0,3 km/h (0 Bft) SO 135 0 min -0,9 C 0,0 km/h (0 Bft)
13.02.2016 17:23 3,1 C 2,9 C 76 % 992,5 hPa 0,0 mm 0,3 km/h (0 Bft) SO 135 0 min -0,7 C 0,0 km/h (0 Bft)
13.02.2016 17:24 3,1 C 2,9 C 76 % 992,5 hPa 0,0 mm 0,3 km/h (0 Bft) SO 135 0 min -0,7 C 0,0 km/h (0 Bft)
13.02.2016 17:25 3,1 C 2,9 C 76 % 992,5 hPa 0,0 mm 0,3 km/h (0 Bft) SO 135 0 min -0,7 C 0,0 km/h (0 Bft)
13.02.2016 17:26 3,1 C 2,9 C 76 % 992,5 hPa 0,0 mm 0,3 km/h (0 Bft) SO 135 0 min -0,7 C 0,0 km/h (0 Bft)
13.02.2016 17:27 3,1 C 2,8 C 76 % 992,5 hPa 0,0 mm 0,3 km/h (0 Bft) O-SO 112 0 min -0,7 C 0,0 km/h (0 Bft)
13.02.2016 17:28 3,1 C 2,8 C 76 % 992,5 hPa 0,0 mm 0,3 km/h (0 Bft) O-SO 112 0 min -0,7 C 0,0 km/h (0 Bft)
13.02.2016 17:29 3,0 C 2,7 C 76 % 992,5 hPa 0,0 mm 0,0 km/h (0 Bft) O 90 0 min -0,8 C 0,0 km/h (0 Bft)
13.02.2016 17:30 3,0 C 2,7 C 76 % 992,5 hPa 0,0 mm 0,0 km/h (0 Bft) O 90 0 min -0,8 C 0,0 km/h (0 Bft)
13.02.2016 17:31 2,9 C 2,5 C 77 % 992,5 hPa 0,0 mm 0,3 km/h (0 Bft) W 270 0 min -0,7 C 0,0 km/h (0 Bft)
13.02.2016 17:32 2,9 C 2,5 C 77 % 992,5 hPa 0,0 mm 0,3 km/h (0 Bft) W 270 0 min -0,7 C 0,0 km/h (0 Bft)
13.02.2016 17:33 2,9 C 2,5 C 77 % 992,5 hPa 0,0 mm 0,6 km/h (0 Bft) SW 225 0 min -0,7 C 4,8 km/h (1 Bft)
13.02.2016 17:34 2,9 C 2,5 C 77 % 992,5 hPa 0,0 mm 0,6 km/h (0 Bft) SW 225 0 min -0,7 C 4,8 km/h (1 Bft)
13.02.2016 17:35 3,0 C 2,6 C 76 % 992,5 hPa 0,0 mm 0,6 km/h (0 Bft) O-SO 112 0 min -0,8 C 0,0 km/h (0 Bft)
13.02.2016 17:36 3,0 C 2,6 C 76 % 992,5 hPa 0,0 mm 0,6 km/h (0 Bft) O-SO 112 0 min -0,8 C 0,0 km/h (0 Bft)
13.02.2016 17:37 3,0 C 2,6 C 76 % 992,5 hPa 0,0 mm 0,6 km/h (0 Bft) SO 135 0 min -0,8 C 0,0 km/h (0 Bft)
13.02.2016 17:38 3,0 C 2,6 C 76 % 992,5 hPa 0,0 mm 0,6 km/h (0 Bft) SO 135 0 min -0,8 C 0,0 km/h (0 Bft)
13.02.2016 17:39 2,8 C 2,4 C 77 % 992,5 hPa 0,0 mm 0,6 km/h (0 Bft) O-SO 112 0 min -0,8 C 0,0 km/h (0 Bft)
13.02.2016 17:40 2,8 C 2,4 C 77 % 992,5 hPa 0,0 mm 0,6 km/h (0 Bft) O-SO 112 0 min -0,8 C 0,0 km/h (0 Bft)
13.02.2016 17:41 2,7 C 2,3 C 77 % 992,5 hPa 0,0 mm 0,6 km/h (0 Bft) S-SW 202 0 min -0,9 C 0,0 km/h (0 Bft)
13.02.2016 17:42 2,7 C 2,3 C 77 % 992,5 hPa 0,0 mm 0,6 km/h (0 Bft) S-SW 202 0 min -0,9 C 0,0 km/h (0 Bft)
13.02.2016 17:43 2,6 C 2,1 C 77 % 992,4 hPa 0,0 mm 0,3 km/h (0 Bft) S 180 0 min -1,0 C 3,0 km/h (1 Bft)
13.02.2016 17:44 2,6 C 2,1 C 77 % 992,4 hPa 0,0 mm 0,3 km/h (0 Bft) S 180 0 min -1,0 C 3,0 km/h (1 Bft)
13.02.2016 17:45 2,6 C 2,1 C 77 % 992,4 hPa 0,0 mm 0,3 km/h (0 Bft) SO 135 0 min -1,0 C 3,0 km/h (1 Bft)
13.02.2016 17:46 2,6 C 2,1 C 77 % 992,4 hPa 0,0 mm 0,3 km/h (0 Bft) SO 135 0 min -1,0 C 3,0 km/h (1 Bft)
13.02.2016 17:47 2,7 C 2,1 C 77 % 992,4 hPa 0,0 mm 0,3 km/h (0 Bft) SO 135 0 min -0,9 C 0,0 km/h (0 Bft)
13.02.2016 17:48 2,7 C 2,1 C 77 % 992,4 hPa 0,0 mm 0,3 km/h (0 Bft) SO 135 0 min -0,9 C 0,0 km/h (0 Bft)
13.02.2016 17:49 2,7 C 2,1 C 78 % 992,4 hPa 0,0 mm 0,6 km/h (0 Bft) O-SO 112 0 min -0,7 C 3,3 km/h (1 Bft)
13.02.2016 17:50 2,7 C 2,1 C 78 % 992,4 hPa 0,0 mm 0,6 km/h (0 Bft) O-SO 112 0 min -0,7 C 3,3 km/h (1 Bft)
13.02.2016 17:51 2,6 C 2,1 C 78 % 992,4 hPa 0,0 mm 0,6 km/h (0 Bft) SO 135 0 min -0,8 C 0,0 km/h (0 Bft)
13.02.2016 17:52 2,6 C 2,1 C 78 % 992,4 hPa 0,0 mm 0,6 km/h (0 Bft) SO 135 0 min -0,8 C 0,0 km/h (0 Bft)
13.02.2016 17:53 2,5 C 2,0 C 78 % 992,4 hPa 0,0 mm 0,9 km/h (0 Bft) W-SW 247 0 min -0,9 C 5,4 km/h (1 Bft)
13.02.2016 17:54 2,5 C 2,0 C 78 % 992,4 hPa 0,0 mm 0,9 km/h (0 Bft) W-SW 247 0 min -0,9 C 5,4 km/h (1 Bft)
13.02.2016 17:55 2,5 C 2,0 C 78 % 992,4 hPa 0,0 mm 1,2 km/h (1 Bft) S 180 0 min -0,9 C 4,8 km/h (1 Bft)
13.02.2016 17:56 2,5 C 2,0 C 78 % 992,4 hPa 0,0 mm 1,2 km/h (1 Bft) S 180 0 min -0,9 C 4,8 km/h (1 Bft)
13.02.2016 17:57 2,5 C 2,0 C 78 % 992,4 hPa 0,0 mm 1,2 km/h (1 Bft) S 180 0 min -0,9 C 0,0 km/h (0 Bft)
13.02.2016 17:58 2,5 C 2,0 C 78 % 992,4 hPa 0,0 mm 1,2 km/h (1 Bft) S 180 0 min -0,9 C 0,0 km/h (0 Bft)
13.02.2016 17:59 2,6 C 2,1 C 78 % 992,4 hPa 0,0 mm 1,2 km/h (1 Bft) S 180 0 min -0,8 C 0,0 km/h (0 Bft)
13.02.2016 18:00 2,6 C 2,1 C 78 % 992,4 hPa 0,0 mm 1,2 km/h (1 Bft) S 180 0 min -0,8 C 0,0 km/h (0 Bft)
13.02.2016 18:01 2,5 C 2,1 C 78 % 992,4 hPa 0,0 mm 0,9 km/h (0 Bft) SO 135 0 min -0,9 C 0,0 km/h (0 Bft)
13.02.2016 18:02 2,5 C 2,1 C 78 % 992,4 hPa 0,0 mm 0,9 km/h (0 Bft) SO 135 0 min -0,9 C 0,0 km/h (0 Bft)
13.02.2016 18:03 2,4 C 2,0 C 78 % 992,3 hPa 0,0 mm 0,9 km/h (0 Bft) SO 135 0 min -1,0 C 0,0 km/h (0 Bft)
13.02.2016 18:04 2,4 C 2,0 C 78 % 992,3 hPa 0,0 mm 0,9 km/h (0 Bft) SO 135 0 min -1,0 C 0,0 km/h (0 Bft)
13.02.2016 18:05 2,5 C 2,1 C 78 % 992,3 hPa 0,0 mm 0,3 km/h (0 Bft) O 90 0 min -0,9 C 0,0 km/h (0 Bft)
13.02.2016 18:06 2,5 C 2,1 C 78 % 992,3 hPa 0,0 mm 0,3 km/h (0 Bft) O 90 0 min -0,9 C 0,0 km/h (0 Bft)
13.02.2016 18:07 2,5 C 2,1 C 78 % 992,3 hPa 0,0 mm 0,3 km/h (0 Bft) S 180 0 min -0,9 C 0,0 km/h (0 Bft)
13.02.2016 18:08 2,5 C 2,1 C 78 % 992,3 hPa 0,0 mm 0,3 km/h (0 Bft) S 180 0 min -0,9 C 0,0 km/h (0 Bft)
13.02.2016 18:09 2,5 C 2,1 C 78 % 992,3 hPa 0,0 mm 0,0 km/h (0 Bft) W-SW 247 0 min -0,9 C 0,0 km/h (0 Bft)
13.02.2016 18:10 2,5 C 2,1 C 78 % 992,3 hPa 0,0 mm 0,0 km/h (0 Bft) W-SW 247 0 min -0,9 C 0,0 km/h (0 Bft)
13.02.2016 18:11 2,2 C 2,0 C 78 % 992,3 hPa 0,0 mm 0,0 km/h (0 Bft) NW 315 0 min -1,2 C 0,0 km/h (0 Bft)
13.02.2016 18:12 2,2 C 2,0 C 78 % 992,3 hPa 0,0 mm 0,0 km/h (0 Bft) NW 315 0 min -1,2 C 0,0 km/h (0 Bft)
13.02.2016 18:13 2,1 C 1,9 C 78 % 992,3 hPa 0,0 mm 0,3 km/h (0 Bft) W 270 0 min -1,3 C 3,3 km/h (1 Bft)
13.02.2016 18:14 2,1 C 1,9 C 78 % 992,3 hPa 0,0 mm 0,3 km/h (0 Bft) W 270 0 min -1,3 C 3,3 km/h (1 Bft)
13.02.2016 18:15 2,0 C 1,8 C 78 % 992,3 hPa 0,0 mm 0,3 km/h (0 Bft) SW 225 0 min -1,4 C 0,0 km/h (0 Bft)
13.02.2016 18:16 2,0 C 1,8 C 78 % 992,3 hPa 0,0 mm 0,3 km/h (0 Bft) SW 225 0 min -1,4 C 0,0 km/h (0 Bft)
13.02.2016 18:17 2,1 C 1,9 C 79 % 992,3 hPa 0,0 mm 0,6 km/h (0 Bft) SO 135 0 min -1,2 C 4,8 km/h (1 Bft)
13.02.2016 18:18 2,1 C 1,9 C 79 % 992,3 hPa 0,0 mm 0,6 km/h (0 Bft) SO 135 0 min -1,2 C 4,8 km/h (1 Bft)
13.02.2016 18:19 2,2 C 2,0 C 79 % 992,3 hPa 0,0 mm 1,5 km/h (1 Bft) O-SO 112 0 min -1,1 C 4,8 km/h (1 Bft)
13.02.2016 18:20 2,2 C 2,0 C 79 % 992,3 hPa 0,0 mm 1,5 km/h (1 Bft) O-SO 112 0 min -1,1 C 4,8 km/h (1 Bft)
13.02.2016 18:21 2,3 C 2,2 C 77 % 992,3 hPa 0,0 mm 2,1 km/h (1 Bft) NO 45 0 min -1,3 C 3,9 km/h (1 Bft)
13.02.2016 18:22 2,3 C 2,2 C 77 % 992,3 hPa 0,0 mm 2,1 km/h (1 Bft) NO 45 0 min -1,3 C 3,9 km/h (1 Bft)
13.02.2016 18:23 2,3 C 2,1 C 80 % 992,3 hPa 0,0 mm 2,4 km/h (1 Bft) W 270 0 min -0,8 C 7,2 km/h (2 Bft)
13.02.2016 18:24 2,3 C 2,1 C 80 % 992,3 hPa 0,0 mm 2,4 km/h (1 Bft) W 270 0 min -0,8 C 7,2 km/h (2 Bft)
13.02.2016 18:25 2,2 C 2,1 C 80 % 992,3 hPa 0,0 mm 4,2 km/h (1 Bft) W 270 0 min -0,9 C 12,8 km/h (3 Bft)
13.02.2016 18:26 2,2 C 2,1 C 80 % 992,3 hPa 0,0 mm 4,2 km/h (1 Bft) W 270 0 min -0,9 C 12,8 km/h (3 Bft)
13.02.2016 18:27 2,1 C 2,0 C 80 % 992,3 hPa 0,0 mm 4,8 km/h (1 Bft) W 270 0 min -1,0 C 3,3 km/h (1 Bft)
13.02.2016 18:28 2,1 C 2,0 C 80 % 992,3 hPa 0,0 mm 4,8 km/h (1 Bft) W 270 0 min -1,0 C 3,3 km/h (1 Bft)
13.02.2016 18:29 2,2 C 2,0 C 80 % 992,3 hPa 0,0 mm 5,1 km/h (1 Bft) O-SO 112 0 min -0,9 C 8,6 km/h (2 Bft)
13.02.2016 18:30 2,2 C 2,0 C 80 % 992,3 hPa 0,0 mm 5,1 km/h (1 Bft) O-SO 112 0 min -0,9 C 8,6 km/h (2 Bft)
13.02.2016 18:31 2,3 C 2,1 C 78 % 992,3 hPa 0,0 mm 5,4 km/h (1 Bft) O 90 0 min -1,1 C 0,0 km/h (0 Bft)
13.02.2016 18:32 2,3 C 2,1 C 78 % 992,3 hPa 0,0 mm 5,4 km/h (1 Bft) O 90 0 min -1,1 C 0,0 km/h (0 Bft)
13.02.2016 18:33 2,3 C 2,2 C 78 % 992,3 hPa 0,0 mm 5,4 km/h (1 Bft) W 270 0 min -1,1 C 6,3 km/h (2 Bft)
13.02.2016 18:34 2,3 C 2,2 C 78 % 992,3 hPa 0,0 mm 5,4 km/h (1 Bft) W 270 0 min -1,1 C 6,3 km/h (2 Bft)
13.02.2016 18:35 2,4 C 2,3 C 78 % 992,3 hPa 0,0 mm 5,7 km/h (1 Bft) W 270 0 min -1,0 C 9,8 km/h (2 Bft)
13.02.2016 18:36 2,4 C 2,3 C 78 % 992,3 hPa 0,0 mm 5,7 km/h (1 Bft) W 270 0 min -1,0 C 9,8 km/h (2 Bft)
13.02.2016 18:37 2,4 C 2,3 C 81 % 992,3 hPa 0,0 mm 4,5 km/h (1 Bft) S 180 0 min -0,5 C 0,0 km/h (0 Bft)
13.02.2016 18:38 2,4 C 2,3 C 81 % 992,3 hPa 0,0 mm 4,5 km/h (1 Bft) S 180 0 min -0,5 C 0,0 km/h (0 Bft)
13.02.2016 18:39 2,5 C 2,4 C 81 % 992,3 hPa 0,0 mm 4,8 km/h (1 Bft) SO 135 0 min -0,4 C 6,6 km/h (2 Bft)
13.02.2016 18:40 2,5 C 2,4 C 81 % 992,3 hPa 0,0 mm 4,8 km/h (1 Bft) SO 135 0 min -0,4 C 6,6 km/h (2 Bft)
13.02.2016 18:41 2,5 C 2,5 C 78 % 992,3 hPa 0,0 mm 4,2 km/h (1 Bft) O-SO 112 0 min -0,9 C 4,8 km/h (1 Bft)
13.02.2016 18:42 2,5 C 2,5 C 78 % 992,3 hPa 0,0 mm 4,2 km/h (1 Bft) O-SO 112 0 min -0,9 C 4,8 km/h (1 Bft)
13.02.2016 18:43 2,6 C 2,5 C 78 % 992,8 hPa 0,0 mm 5,1 km/h (1 Bft) W 270 0 min -0,8 C 12,2 km/h (2 Bft)
13.02.2016 18:44 2,6 C 2,5 C 78 % 992,8 hPa 0,0 mm 5,1 km/h (1 Bft) W 270 0 min -0,8 C 12,2 km/h (2 Bft)
13.02.2016 18:45 2,6 C 2,4 C 81 % 992,8 hPa 0,0 mm 5,7 km/h (1 Bft) NW 315 0 min -0,3 C 11,3 km/h (2 Bft)
13.02.2016 18:47 2,5 C 2,4 C 81 % 992,8 hPa 0,0 mm 5,1 km/h (1 Bft) SO 135 0 min -0,4 C 4,5 km/h (1 Bft)
13.02.2016 18:48 2,5 C 2,4 C 81 % 992,8 hPa 0,0 mm 5,1 km/h (1 Bft) SO 135 0 min -0,4 C 4,5 km/h (1 Bft)
13.02.2016 18:49 2,5 C 2,4 C 82 % 992,8 hPa 0,0 mm 6,0 km/h (2 Bft) SO 135 0 min -0,3 C 7,5 km/h (2 Bft)
13.02.2016 18:50 2,5 C 2,4 C 82 % 992,8 hPa 0,0 mm 6,0 km/h (2 Bft) SO 135 0 min -0,3 C 7,5 km/h (2 Bft)
13.02.2016 18:51 2,6 C 2,3 C 82 % 992,8 hPa 0,0 mm 6,6 km/h (2 Bft) SW 225 0 min -0,2 C 11,9 km/h (2 Bft)
13.02.2016 18:52 2,6 C 2,3 C 82 % 992,8 hPa 0,0 mm 6,6 km/h (2 Bft) SW 225 0 min -0,2 C 11,9 km/h (2 Bft)
13.02.2016 18:53 2,6 C 2,3 C 82 % 992,8 hPa 0,0 mm 6,9 km/h (2 Bft) S 180 0 min -0,2 C 3,9 km/h (1 Bft)
13.02.2016 18:54 2,6 C 2,3 C 82 % 992,8 hPa 0,0 mm 6,9 km/h (2 Bft) S 180 0 min -0,2 C 3,9 km/h (1 Bft)
13.02.2016 18:55 2,6 C 2,5 C 81 % 992,8 hPa 0,0 mm 5,4 km/h (1 Bft) O-SO 112 0 min -0,3 C 0,0 km/h (0 Bft)
13.02.2016 18:56 2,6 C 2,5 C 81 % 992,8 hPa 0,0 mm 5,4 km/h (1 Bft) O-SO 112 0 min -0,3 C 0,0 km/h (0 Bft)
13.02.2016 18:57 2,5 C 2,5 C 81 % 992,8 hPa 0,0 mm 3,9 km/h (1 Bft) SO 135 0 min -0,4 C 0,0 km/h (0 Bft)
13.02.2016 18:58 2,5 C 2,5 C 81 % 992,8 hPa 0,0 mm 3,9 km/h (1 Bft) SO 135 0 min -0,4 C 0,0 km/h (0 Bft)
13.02.2016 18:59 2,5 C 2,4 C 81 % 992,8 hPa 0,0 mm 4,8 km/h (1 Bft) SW 225 0 min -0,4 C 11,3 km/h (2 Bft)
13.02.2016 19:00 2,5 C 2,4 C 81 % 992,8 hPa 0,0 mm 4,8 km/h (1 Bft) SW 225 0 min -0,4 C 11,3 km/h (2 Bft)
13.02.2016 19:01 2,5 C 2,4 C 81 % 992,8 hPa 0,0 mm 5,4 km/h (1 Bft) S 180 0 min -0,4 C 7,5 km/h (2 Bft)
13.02.2016 19:02 2,5 C 2,4 C 81 % 992,8 hPa 0,0 mm 5,4 km/h (1 Bft) S 180 0 min -0,4 C 7,5 km/h (2 Bft)
13.02.2016 19:03 2,5 C 2,4 C 81 % 993,1 hPa 0,0 mm 4,2 km/h (1 Bft) SW 225 0 min -0,4 C 5,7 km/h (1 Bft)
13.02.2016 19:04 2,5 C 2,4 C 81 % 993,1 hPa 0,0 mm 4,2 km/h (1 Bft) SW 225 0 min -0,4 C 5,7 km/h (1 Bft)
13.02.2016 19:05 2,5 C 2,3 C 81 % 993,1 hPa 0,0 mm 4,5 km/h (1 Bft) S 180 0 min -0,4 C 3,6 km/h (1 Bft)
13.02.2016 19:06 2,5 C 2,3 C 81 % 993,1 hPa 0,0 mm 4,5 km/h (1 Bft) S 180 0 min -0,4 C 3,6 km/h (1 Bft)
13.02.2016 19:07 2,5 C 2,2 C 81 % 993,1 hPa 0,0 mm 5,7 km/h (1 Bft) W-SW 247 0 min -0,4 C 10,7 km/h (2 Bft)
13.02.2016 19:08 2,5 C 2,2 C 81 % 993,1 hPa 0,0 mm 5,7 km/h (1 Bft) W-SW 247 0 min -0,4 C 10,7 km/h (2 Bft)
13.02.2016 19:09 2,4 C 2,1 C 81 % 993,1 hPa 0,0 mm 6,3 km/h (2 Bft) SW 225 0 min -0,5 C 5,7 km/h (1 Bft)
13.02.2016 19:10 2,4 C 2,1 C 81 % 993,1 hPa 0,0 mm 6,3 km/h (2 Bft) SW 225 0 min -0,5 C 5,7 km/h (1 Bft)
13.02.2016 19:11 2,4 C 2,2 C 81 % 993,1 hPa 0,0 mm 4,8 km/h (1 Bft) SO 135 0 min -0,5 C 3,6 km/h (1 Bft)
13.02.2016 19:12 2,4 C 2,2 C 81 % 993,1 hPa 0,0 mm 4,8 km/h (1 Bft) SO 135 0 min -0,5 C 3,6 km/h (1 Bft)
13.02.2016 19:13 2,4 C 2,2 C 81 % 993,1 hPa 0,0 mm 4,2 km/h (1 Bft) W-SW 247 0 min -0,5 C 3,3 km/h (1 Bft)
13.02.2016 19:14 2,4 C 2,2 C 81 % 993,1 hPa 0,0 mm 4,2 km/h (1 Bft) W-SW 247 0 min -0,5 C 3,3 km/h (1 Bft)
13.02.2016 19:15 2,4 C 2,2 C 81 % 993,1 hPa 0,0 mm 5,1 km/h (1 Bft) S-SW 202 0 min -0,5 C 10,1 km/h (2 Bft)
13.02.2016 19:16 2,4 C 2,2 C 81 % 993,1 hPa 0,0 mm 5,1 km/h (1 Bft) S-SW 202 0 min -0,5 C 10,1 km/h (2 Bft)
13.02.2016 19:17 2,5 C 2,1 C 81 % 993,1 hPa 0,0 mm 6,3 km/h (2 Bft) S-SO 157 0 min -0,4 C 12,5 km/h (3 Bft)
13.02.2016 19:18 2,5 C 2,1 C 81 % 993,1 hPa 0,0 mm 6,3 km/h (2 Bft) S-SO 157 0 min -0,4 C 12,5 km/h (3 Bft)
13.02.2016 19:19 2,5 C 2,3 C 82 % 993,1 hPa 0,0 mm 5,1 km/h (1 Bft) S 180 0 min -0,3 C 9,8 km/h (2 Bft)
13.02.2016 19:20 2,5 C 2,3 C 82 % 993,1 hPa 0,0 mm 5,1 km/h (1 Bft) S 180 0 min -0,3 C 9,8 km/h (2 Bft)
13.02.2016 19:21 2,6 C 2,3 C 82 % 993,1 hPa 0,0 mm 5,7 km/h (1 Bft) W-SW 247 0 min -0,2 C 8,0 km/h (2 Bft)
13.02.2016 19:22 2,6 C 2,3 C 82 % 993,1 hPa 0,0 mm 5,7 km/h (1 Bft) W-SW 247 0 min -0,2 C 8,0 km/h (2 Bft)
13.02.2016 19:23 2,6 C 2,3 C 82 % 993,1 hPa 0,0 mm 6,3 km/h (2 Bft) SO 135 0 min -0,2 C 9,2 km/h (2 Bft)
13.02.2016 19:24 2,6 C 2,3 C 82 % 993,1 hPa 0,0 mm 6,3 km/h (2 Bft) SO 135 0 min -0,2 C 9,2 km/h (2 Bft)
13.02.2016 19:25 2,6 C 2,3 C 82 % 993,1 hPa 0,0 mm 6,6 km/h (2 Bft) SW 225 0 min -0,2 C 11,9 km/h (2 Bft)
13.02.2016 19:26 2,6 C 2,3 C 82 % 993,1 hPa 0,0 mm 6,6 km/h (2 Bft) SW 225 0 min -0,2 C 11,9 km/h (2 Bft)
13.02.2016 19:27 2,6 C 2,3 C 82 % 993,1 hPa 0,0 mm 6,3 km/h (2 Bft) O-SO 112 0 min -0,2 C 4,2 km/h (1 Bft)
13.02.2016 19:28 2,6 C 2,3 C 82 % 993,1 hPa 0,0 mm 6,3 km/h (2 Bft) O-SO 112 0 min -0,2 C 4,2 km/h (1 Bft)
13.02.2016 19:29 2,6 C 2,3 C 82 % 993,1 hPa 0,0 mm 6,3 km/h (2 Bft) O-SO 112 0 min -0,2 C 0,0 km/h (0 Bft)
13.02.2016 19:30 2,6 C 2,3 C 82 % 993,1 hPa 0,0 mm 6,3 km/h (2 Bft) O-SO 112 0 min -0,2 C 0,0 km/h (0 Bft)
13.02.2016 19:31 2,5 C 2,3 C 82 % 993,1 hPa 0,0 mm 5,7 km/h (1 Bft) SW 225 0 min -0,3 C 7,5 km/h (2 Bft)
13.02.2016 19:32 2,5 C 2,3 C 82 % 993,1 hPa 0,0 mm 5,7 km/h (1 Bft) SW 225 0 min -0,3 C 7,5 km/h (2 Bft)
13.02.2016 19:33 2,6 C 2,3 C 82 % 993,1 hPa 0,0 mm 6,9 km/h (2 Bft) SW 225 0 min -0,2 C 14,3 km/h (3 Bft)
13.02.2016 19:34 2,6 C 2,3 C 82 % 993,1 hPa 0,0 mm 6,9 km/h (2 Bft) SW 225 0 min -0,2 C 14,3 km/h (3 Bft)
13.02.2016 19:35 2,7 C 2,3 C 82 % 993,1 hPa 0,0 mm 7,2 km/h (2 Bft) SW 225 0 min -0,1 C 4,8 km/h (1 Bft)
13.02.2016 19:36 2,7 C 2,3 C 82 % 993,1 hPa 0,0 mm 7,2 km/h (2 Bft) SW 225 0 min -0,1 C 4,8 km/h (1 Bft)
13.02.2016 19:37 2,7 C 2,4 C 82 % 993,1 hPa 0,0 mm 6,3 km/h (2 Bft) NW 315 0 min -0,1 C 7,5 km/h (2 Bft)
13.02.2016 19:38 2,7 C 2,4 C 82 % 993,1 hPa 0,0 mm 6,3 km/h (2 Bft) NW 315 0 min -0,1 C 7,5 km/h (2 Bft)
13.02.2016 19:39 2,6 C 2,4 C 81 % 993,1 hPa 0,0 mm 6,3 km/h (2 Bft) W-SW 247 0 min -0,3 C 6,0 km/h (2 Bft)
13.02.2016 19:40 2,6 C 2,4 C 81 % 993,1 hPa 0,0 mm 6,3 km/h (2 Bft) W-SW 247 0 min -0,3 C 6,0 km/h (2 Bft)
13.02.2016 19:41 2,6 C 2,3 C 81 % 993,1 hPa 0,0 mm 7,2 km/h (2 Bft) SW 225 0 min -0,3 C 8,3 km/h (2 Bft)
13.02.2016 19:42 2,6 C 2,3 C 81 % 993,1 hPa 0,0 mm 7,2 km/h (2 Bft) SW 225 0 min -0,3 C 8,3 km/h (2 Bft)
13.02.2016 19:43 2,7 C 2,4 C 82 % 993,5 hPa 0,0 mm 7,2 km/h (2 Bft) SW 225 0 min -0,1 C 7,7 km/h (2 Bft)
13.02.2016 19:44 2,7 C 2,4 C 82 % 993,5 hPa 0,0 mm 7,2 km/h (2 Bft) SW 225 0 min -0,1 C 7,7 km/h (2 Bft)
13.02.2016 19:45 2,7 C 2,4 C 81 % 993,5 hPa 0,0 mm 6,6 km/h (2 Bft) S-SW 202 0 min -0,2 C 6,3 km/h (2 Bft)
13.02.2016 19:46 2,7 C 2,4 C 81 % 993,5 hPa 0,0 mm 6,6 km/h (2 Bft) S-SW 202 0 min -0,2 C 6,3 km/h (2 Bft)
13.02.2016 19:47 2,8 C 2,6 C 82 % 993,5 hPa 0,0 mm 6,0 km/h (2 Bft) S 180 0 min 0,0 C 6,3 km/h (2 Bft)
13.02.2016 19:48 2,8 C 2,6 C 82 % 993,5 hPa 0,0 mm 6,0 km/h (2 Bft) S 180 0 min 0,0 C 6,3 km/h (2 Bft)
13.02.2016 19:49 2,8 C 2,5 C 81 % 993,5 hPa 0,0 mm 6,6 km/h (2 Bft) SW 225 0 min -0,1 C 7,7 km/h (2 Bft)
13.02.2016 19:50 2,8 C 2,5 C 81 % 993,5 hPa 0,0 mm 6,6 km/h (2 Bft) SW 225 0 min -0,1 C 7,7 km/h (2 Bft)
13.02.2016 19:51 2,7 C 2,5 C 81 % 993,5 hPa 0,0 mm 6,3 km/h (2 Bft) W-SW 247 0 min -0,2 C 5,1 km/h (1 Bft)
13.02.2016 19:52 2,7 C 2,5 C 81 % 993,5 hPa 0,0 mm 6,3 km/h (2 Bft) W-SW 247 0 min -0,2 C 5,1 km/h (1 Bft)
13.02.2016 19:53 2,7 C 2,6 C 81 % 993,5 hPa 0,0 mm 5,1 km/h (1 Bft) SW 225 0 min -0,2 C 3,0 km/h (1 Bft)
13.02.2016 19:54 2,7 C 2,6 C 81 % 993,5 hPa 0,0 mm 5,1 km/h (1 Bft) SW 225 0 min -0,2 C 3,0 km/h (1 Bft)
13.02.2016 19:55 2,7 C 2,6 C 81 % 993,5 hPa 0,0 mm 4,5 km/h (1 Bft) SW 225 0 min -0,2 C 5,4 km/h (1 Bft)
13.02.2016 19:56 2,7 C 2,6 C 81 % 993,5 hPa 0,0 mm 4,5 km/h (1 Bft) SW 225 0 min -0,2 C 5,4 km/h (1 Bft)
13.02.2016 19:57 2,8 C 2,7 C 82 % 993,5 hPa 0,0 mm 4,8 km/h (1 Bft) SW 225 0 min 0,0 C 16,1 km/h (3 Bft)
13.02.2016 19:58 2,8 C 2,7 C 82 % 993,5 hPa 0,0 mm 4,8 km/h (1 Bft) SW 225 0 min 0,0 C 16,1 km/h (3 Bft)
13.02.2016 19:59 2,9 C 2,7 C 82 % 993,5 hPa 0,0 mm 5,4 km/h (1 Bft) W-SW 247 0 min 0,1 C 6,3 km/h (2 Bft)
13.02.2016 20:00 2,9 C 2,7 C 82 % 993,5 hPa 0,0 mm 5,4 km/h (1 Bft) W-SW 247 0 min 0,1 C 6,3 km/h (2 Bft)
13.02.2016 20:01 2,9 C 2,8 C 82 % 993,5 hPa 0,0 mm 5,1 km/h (1 Bft) W-SW 247 0 min 0,1 C 6,0 km/h (2 Bft)
13.02.2016 20:02 2,9 C 2,8 C 82 % 993,5 hPa 0,0 mm 5,1 km/h (1 Bft) W-SW 247 0 min 0,1 C 6,0 km/h (2 Bft)
13.02.2016 20:03 2,9 C 2,7 C 82 % 993,5 hPa 0,0 mm 5,4 km/h (1 Bft) SW 225 0 min 0,1 C 8,9 km/h (2 Bft)
13.02.2016 20:04 2,9 C 2,7 C 82 % 993,5 hPa 0,0 mm 5,4 km/h (1 Bft) SW 225 0 min 0,1 C 8,9 km/h (2 Bft)
13.02.2016 20:05 3,0 C 2,7 C 80 % 993,5 hPa 0,0 mm 6,3 km/h (2 Bft) S 180 0 min -0,1 C 8,3 km/h (2 Bft)
13.02.2016 20:06 3,0 C 2,7 C 80 % 993,5 hPa 0,0 mm 6,3 km/h (2 Bft) S 180 0 min -0,1 C 8,3 km/h (2 Bft)
13.02.2016 20:07 3,0 C 2,7 C 80 % 993,5 hPa 0,0 mm 6,0 km/h (2 Bft) S-SO 157 0 min -0,1 C 5,1 km/h (1 Bft)
13.02.2016 20:08 3,0 C 2,7 C 80 % 993,5 hPa 0,0 mm 6,0 km/h (2 Bft) S-SO 157 0 min -0,1 C 5,1 km/h (1 Bft)
13.02.2016 20:09 3,0 C 2,7 C 81 % 993,5 hPa 0,0 mm 5,7 km/h (1 Bft) S 180 0 min 0,1 C 5,7 km/h (1 Bft)
13.02.2016 20:10 3,0 C 2,7 C 81 % 993,5 hPa 0,0 mm 5,7 km/h (1 Bft) S 180 0 min 0,1 C 5,7 km/h (1 Bft)
13.02.2016 20:11 3,0 C 2,8 C 81 % 993,5 hPa 0,0 mm 4,8 km/h (1 Bft) SW 225 0 min 0,1 C 0,0 km/h (0 Bft)
13.02.2016 20:12 3,0 C 2,8 C 81 % 993,5 hPa 0,0 mm 4,8 km/h (1 Bft) SW 225 0 min 0,1 C 0,0 km/h (0 Bft)
13.02.2016 20:13 2,9 C 2,7 C 82 % 993,5 hPa 0,0 mm 4,5 km/h (1 Bft) N 360 0 min 0,1 C 0,0 km/h (0 Bft)
13.02.2016 20:14 2,9 C 2,7 C 82 % 993,5 hPa 0,0 mm 4,5 km/h (1 Bft) N 360 0 min 0,1 C 0,0 km/h (0 Bft)
13.02.2016 20:15 2,8 C 2,7 C 82 % 993,5 hPa 0,0 mm 2,7 km/h (1 Bft) NW 315 0 min 0,0 C 0,0 km/h (0 Bft)
13.02.2016 20:16 2,8 C 2,7 C 82 % 993,5 hPa 0,0 mm 2,7 km/h (1 Bft) NW 315 0 min 0,0 C 0,0 km/h (0 Bft)
13.02.2016 20:17 2,7 C 2,6 C 82 % 993,5 hPa 0,0 mm 2,1 km/h (1 Bft) W-SW 247 0 min -0,1 C 3,9 km/h (1 Bft)
13.02.2016 20:18 2,7 C 2,6 C 82 % 993,5 hPa 0,0 mm 2,1 km/h (1 Bft) W-SW 247 0 min -0,1 C 3,9 km/h (1 Bft)
13.02.2016 20:19 2,7 C 2,5 C 82 % 993,5 hPa 0,0 mm 1,8 km/h (1 Bft) W-SW 247 0 min -0,1 C 4,5 km/h (1 Bft)
13.02.2016 20:20 2,7 C 2,5 C 82 % 993,5 hPa 0,0 mm 1,8 km/h (1 Bft) W-SW 247 0 min -0,1 C 4,5 km/h (1 Bft)
13.02.2016 20:21 2,9 C 2,7 C 82 % 993,5 hPa 0,0 mm 1,2 km/h (1 Bft) O-NO 67 0 min 0,1 C 3,6 km/h (1 Bft)
13.02.2016 20:22 2,9 C 2,7 C 82 % 993,5 hPa 0,0 mm 1,2 km/h (1 Bft) O-NO 67 0 min 0,1 C 3,6 km/h (1 Bft)
13.02.2016 20:23 2,9 C 2,7 C 83 % 992,8 hPa 0,0 mm 1,2 km/h (1 Bft) O-NO 67 0 min 0,3 C 3,3 km/h (1 Bft)
13.02.2016 20:24 2,9 C 2,7 C 83 % 992,8 hPa 0,0 mm 1,2 km/h (1 Bft) O-NO 67 0 min 0,3 C 3,3 km/h (1 Bft)
13.02.2016 20:25 2,7 C 2,6 C 82 % 992,8 hPa 0,0 mm 1,5 km/h (1 Bft) W 270 0 min -0,1 C 4,2 km/h (1 Bft)
13.02.2016 20:26 2,7 C 2,6 C 82 % 992,8 hPa 0,0 mm 1,5 km/h (1 Bft) W 270 0 min -0,1 C 4,2 km/h (1 Bft)
13.02.2016 20:27 2,6 C 2,5 C 82 % 992,8 hPa 0,0 mm 2,1 km/h (1 Bft) NW 315 0 min -0,2 C 7,2 km/h (2 Bft)
13.02.2016 20:28 2,6 C 2,5 C 82 % 992,8 hPa 0,0 mm 2,1 km/h (1 Bft) NW 315 0 min -0,2 C 7,2 km/h (2 Bft)
13.02.2016 20:29 2,7 C 2,5 C 82 % 992,8 hPa 0,0 mm 2,7 km/h (1 Bft) W-SW 247 0 min -0,1 C 11,0 km/h (2 Bft)
13.02.2016 20:30 2,7 C 2,5 C 82 % 992,8 hPa 0,0 mm 2,7 km/h (1 Bft) W-SW 247 0 min -0,1 C 11,0 km/h (2 Bft)
13.02.2016 20:31 2,8 C 2,6 C 82 % 992,8 hPa 0,0 mm 3,3 km/h (1 Bft) W-NW 292 0 min 0,0 C 6,9 km/h (2 Bft)
13.02.2016 20:32 2,8 C 2,6 C 82 % 992,8 hPa 0,0 mm 3,3 km/h (1 Bft) W-NW 292 0 min 0,0 C 6,9 km/h (2 Bft)
13.02.2016 20:33 2,8 C 2,7 C 82 % 992,8 hPa 0,0 mm 3,9 km/h (1 Bft) S 180 0 min 0,0 C 5,4 km/h (1 Bft)
13.02.2016 20:34 2,8 C 2,7 C 82 % 992,8 hPa 0,0 mm 3,9 km/h (1 Bft) S 180 0 min 0,0 C 5,4 km/h (1 Bft)
13.02.2016 20:35 2,8 C 2,7 C 82 % 992,8 hPa 0,0 mm 4,2 km/h (1 Bft) O-SO 112 0 min 0,0 C 0,0 km/h (0 Bft)
13.02.2016 20:36 2,8 C 2,7 C 82 % 992,8 hPa 0,0 mm 4,2 km/h (1 Bft) O-SO 112 0 min 0,0 C 0,0 km/h (0 Bft)
13.02.2016 20:37 2,8 C 2,7 C 82 % 992,8 hPa 0,0 mm 3,9 km/h (1 Bft) O-SO 112 0 min 0,0 C 0,0 km/h (0 Bft)
13.02.2016 20:38 2,8 C 2,7 C 82 % 992,8 hPa 0,0 mm 3,9 km/h (1 Bft) O-SO 112 0 min 0,0 C 0,0 km/h (0 Bft)
13.02.2016 20:39 2,8 C 2,7 C 82 % 992,8 hPa 0,0 mm 3,0 km/h (1 Bft) O-NO 67 0 min 0,0 C 0,0 km/h (0 Bft)
13.02.2016 20:40 2,8 C 2,7 C 82 % 992,8 hPa 0,0 mm 3,0 km/h (1 Bft) O-NO 67 0 min 0,0 C 0,0 km/h (0 Bft)
13.02.2016 20:41 2,7 C 2,6 C 82 % 992,8 hPa 0,0 mm 2,4 km/h (1 Bft) SW 225 0 min -0,1 C 18,5 km/h (3 Bft)
13.02.2016 20:42 2,7 C 2,6 C 82 % 992,8 hPa 0,0 mm 2,4 km/h (1 Bft) SW 225 0 min -0,1 C 18,5 km/h (3 Bft)
13.02.2016 20:43 3,0 C 2,9 C 81 % 993,2 hPa 0,0 mm 2,4 km/h (1 Bft) O-SO 112 0 min 0,1 C 0,0 km/h (0 Bft)
13.02.2016 20:44 3,0 C 2,9 C 81 % 993,2 hPa 0,0 mm 2,4 km/h (1 Bft) O-SO 112 0 min 0,1 C 0,0 km/h (0 Bft)
13.02.2016 20:45 3,1 C 3,0 C 81 % 993,2 hPa 0,0 mm 2,1 km/h (1 Bft) O 90 0 min 0,2 C 0,0 km/h (0 Bft)
13.02.2016 20:46 3,1 C 3,0 C 81 % 993,2 hPa 0,0 mm 2,1 km/h (1 Bft) O 90 0 min 0,2 C 0,0 km/h (0 Bft)
13.02.2016 20:47 3,1 C 3,0 C 81 % 993,2 hPa 0,0 mm 2,4 km/h (1 Bft) O-NO 67 0 min 0,2 C 4,2 km/h (1 Bft)
13.02.2016 20:48 3,1 C 3,0 C 81 % 993,2 hPa 0,0 mm 2,4 km/h (1 Bft) O-NO 67 0 min 0,2 C 4,2 km/h (1 Bft)
13.02.2016 20:49 3,1 C 3,0 C 81 % 993,2 hPa 0,0 mm 2,7 km/h (1 Bft) NW 315 0 min 0,2 C 0,0 km/h (0 Bft)
13.02.2016 20:50 3,1 C 3,0 C 81 % 993,2 hPa 0,0 mm 2,7 km/h (1 Bft) NW 315 0 min 0,2 C 0,0 km/h (0 Bft)
13.02.2016 20:51 3,0 C 3,0 C 81 % 993,2 hPa 0,0 mm 2,7 km/h (1 Bft) O-SO 112 0 min 0,1 C 0,0 km/h (0 Bft)
13.02.2016 20:52 3,0 C 3,0 C 81 % 993,2 hPa 0,0 mm 2,7 km/h (1 Bft) O-SO 112 0 min 0,1 C 0,0 km/h (0 Bft)
13.02.2016 20:53 3,2 C 3,1 C 81 % 993,2 hPa 0,0 mm 1,2 km/h (1 Bft) O-SO 112 0 min 0,3 C 0,0 km/h (0 Bft)
13.02.2016 20:54 3,2 C 3,1 C 81 % 993,2 hPa 0,0 mm 1,2 km/h (1 Bft) O-SO 112 0 min 0,3 C 0,0 km/h (0 Bft)
13.02.2016 20:55 3,3 C 3,2 C 81 % 993,2 hPa 0,0 mm 1,5 km/h (1 Bft) W-NW 292 0 min 0,4 C 3,3 km/h (1 Bft)
13.02.2016 20:56 3,3 C 3,2 C 81 % 993,2 hPa 0,0 mm 1,5 km/h (1 Bft) W-NW 292 0 min 0,4 C 3,3 km/h (1 Bft)
13.02.2016 20:57 3,3 C 3,2 C 80 % 993,2 hPa 0,0 mm 1,5 km/h (1 Bft) O 90 0 min 0,2 C 0,0 km/h (0 Bft)
13.02.2016 20:58 3,3 C 3,2 C 80 % 993,2 hPa 0,0 mm 1,5 km/h (1 Bft) O 90 0 min 0,2 C 0,0 km/h (0 Bft)
13.02.2016 20:59 3,3 C 3,3 C 78 % 993,2 hPa 0,0 mm 1,5 km/h (1 Bft) O-SO 112 0 min -0,2 C 4,5 km/h (1 Bft)
13.02.2016 21:00 3,3 C 3,3 C 78 % 993,2 hPa 0,0 mm 1,5 km/h (1 Bft) O-SO 112 0 min -0,2 C 4,5 km/h (1 Bft)
13.02.2016 21:01 3,3 C 3,2 C 80 % 993,2 hPa 0,0 mm 2,4 km/h (1 Bft) O-SO 112 0 min 0,2 C 6,9 km/h (2 Bft)
13.02.2016 21:02 3,3 C 3,2 C 80 % 993,2 hPa 0,0 mm 2,4 km/h (1 Bft) O-SO 112 0 min 0,2 C 6,9 km/h (2 Bft)
13.02.2016 21:03 3,3 C 3,3 C 78 % 992,8 hPa 0,0 mm 3,6 km/h (1 Bft) NO 45 0 min -0,2 C 6,3 km/h (2 Bft)
13.02.2016 21:04 3,3 C 3,3 C 78 % 992,8 hPa 0,0 mm 3,6 km/h (1 Bft) NO 45 0 min -0,2 C 6,3 km/h (2 Bft)
13.02.2016 21:05 3,3 C 3,2 C 79 % 992,8 hPa 0,0 mm 3,9 km/h (1 Bft) W-NW 292 0 min 0,0 C 3,0 km/h (1 Bft)
13.02.2016 21:06 3,3 C 3,2 C 79 % 992,8 hPa 0,0 mm 3,9 km/h (1 Bft) W-NW 292 0 min 0,0 C 3,0 km/h (1 Bft)
13.02.2016 21:07 3,2 C 3,2 C 79 % 992,8 hPa 0,0 mm 4,2 km/h (1 Bft) NW 315 0 min -0,1 C 3,0 km/h (1 Bft)
13.02.2016 21:08 3,2 C 3,2 C 79 % 992,8 hPa 0,0 mm 4,2 km/h (1 Bft) NW 315 0 min -0,1 C 3,0 km/h (1 Bft)
13.02.2016 21:09 3,2 C 3,2 C 79 % 992,8 hPa 0,0 mm 3,9 km/h (1 Bft) O 90 0 min -0,1 C 0,0 km/h (0 Bft)
13.02.2016 21:10 3,2 C 3,2 C 79 % 992,8 hPa 0,0 mm 3,9 km/h (1 Bft) O 90 0 min -0,1 C 0,0 km/h (0 Bft)
13.02.2016 21:11 3,3 C 3,2 C 79 % 992,8 hPa 0,0 mm 3,0 km/h (1 Bft) O 90 0 min 0,0 C 0,0 km/h (0 Bft)
13.02.2016 21:12 3,3 C 3,2 C 79 % 992,8 hPa 0,0 mm 3,0 km/h (1 Bft) O 90 0 min 0,0 C 0,0 km/h (0 Bft)
13.02.2016 21:13 3,2 C 3,2 C 79 % 992,8 hPa 0,0 mm 2,1 km/h (1 Bft) O 90 0 min -0,1 C 0,0 km/h (0 Bft)
13.02.2016 21:14 3,2 C 3,2 C 79 % 992,8 hPa 0,0 mm 2,1 km/h (1 Bft) O 90 0 min -0,1 C 0,0 km/h (0 Bft)
13.02.2016 21:15 3,1 C 3,1 C 79 % 992,8 hPa 0,0 mm 0,9 km/h (0 Bft) O-NO 67 0 min -0,2 C 0,0 km/h (0 Bft)
13.02.2016 21:16 3,1 C 3,1 C 79 % 992,8 hPa 0,0 mm 0,9 km/h (0 Bft) O-NO 67 0 min -0,2 C 0,0 km/h (0 Bft)
13.02.2016 21:17 3,0 C 3,1 C 79 % 992,8 hPa 0,0 mm 0,3 km/h (0 Bft) O 90 0 min -0,3 C 0,0 km/h (0 Bft)
13.02.2016 21:18 3,0 C 3,1 C 79 % 992,8 hPa 0,0 mm 0,3 km/h (0 Bft) O 90 0 min -0,3 C 0,0 km/h (0 Bft)
13.02.2016 21:19 2,9 C 3,0 C 79 % 992,8 hPa 0,0 mm 0,3 km/h (0 Bft) NW 315 0 min -0,4 C 0,0 km/h (0 Bft)
13.02.2016 21:20 2,9 C 3,0 C 79 % 992,8 hPa 0,0 mm 0,3 km/h (0 Bft) NW 315 0 min -0,4 C 0,0 km/h (0 Bft)
13.02.2016 21:21 2,9 C 3,0 C 79 % 992,8 hPa 0,0 mm 1,2 km/h (1 Bft) NW 315 0 min -0,4 C 7,7 km/h (2 Bft)
13.02.2016 21:22 2,9 C 3,0 C 79 % 992,8 hPa 0,0 mm 1,2 km/h (1 Bft) NW 315 0 min -0,4 C 7,7 km/h (2 Bft)
13.02.2016 21:23 3,1 C 3,1 C 79 % 993,0 hPa 0,0 mm 2,1 km/h (1 Bft) W 270 0 min -0,2 C 4,8 km/h (1 Bft)
13.02.2016 21:24 3,1 C 3,1 C 79 % 993,0 hPa 0,0 mm 2,1 km/h (1 Bft) W 270 0 min -0,2 C 4,8 km/h (1 Bft)
13.02.2016 21:25 3,1 C 3,1 C 79 % 993,0 hPa 0,0 mm 2,4 km/h (1 Bft) W 270 0 min -0,2 C 5,4 km/h (1 Bft)
13.02.2016 21:26 3,1 C 3,1 C 79 % 993,0 hPa 0,0 mm 2,4 km/h (1 Bft) W 270 0 min -0,2 C 5,4 km/h (1 Bft)
13.02.2016 21:27 3,1 C 3,1 C 79 % 993,0 hPa 0,0 mm 3,0 km/h (1 Bft) SW 225 0 min -0,2 C 4,5 km/h (1 Bft)
13.02.2016 21:28 3,1 C 3,1 C 79 % 993,0 hPa 0,0 mm 3,0 km/h (1 Bft) SW 225 0 min -0,2 C 4,5 km/h (1 Bft)
13.02.2016 21:29 3,2 C 3,2 C 79 % 993,0 hPa 0,0 mm 3,0 km/h (1 Bft) O-SO 112 0 min -0,1 C 0,0 km/h (0 Bft)
13.02.2016 21:30 3,2 C 3,2 C 79 % 993,0 hPa 0,0 mm 3,0 km/h (1 Bft) O-SO 112 0 min -0,1 C 0,0 km/h (0 Bft)
13.02.2016 21:31 3,3 C 3,2 C 79 % 993,0 hPa 0,0 mm 2,4 km/h (1 Bft) W-SW 247 0 min 0,0 C 0,0 km/h (0 Bft)
13.02.2016 21:32 3,3 C 3,2 C 79 % 993,0 hPa 0,0 mm 2,4 km/h (1 Bft) W-SW 247 0 min 0,0 C 0,0 km/h (0 Bft)
13.02.2016 21:33 3,2 C 3,2 C 79 % 993,0 hPa 0,0 mm 1,5 km/h (1 Bft) S 180 0 min -0,1 C 3,6 km/h (1 Bft)
13.02.2016 21:34 3,2 C 3,2 C 79 % 993,0 hPa 0,0 mm 1,5 km/h (1 Bft) S 180 0 min -0,1 C 3,6 km/h (1 Bft)
13.02.2016 21:35 3,2 C 3,1 C 78 % 993,0 hPa 0,0 mm 1,2 km/h (1 Bft) SW 225 0 min -0,3 C 3,3 km/h (1 Bft)
13.02.2016 21:36 3,2 C 3,1 C 78 % 993,0 hPa 0,0 mm 1,2 km/h (1 Bft) SW 225 0 min -0,3 C 3,3 km/h (1 Bft)
13.02.2016 21:37 3,3 C 3,2 C 78 % 993,0 hPa 0,0 mm 0,9 km/h (0 Bft) S 180 0 min -0,2 C 0,0 km/h (0 Bft)
13.02.2016 21:38 3,3 C 3,2 C 78 % 993,0 hPa 0,0 mm 0,9 km/h (0 Bft) S 180 0 min -0,2 C 0,0 km/h (0 Bft)
13.02.2016 21:39 3,3 C 3,2 C 79 % 993,0 hPa 0,0 mm 0,9 km/h (0 Bft) S-SW 202 0 min 0,0 C 0,0 km/h (0 Bft)
13.02.2016 21:40 3,3 C 3,2 C 79 % 993,0 hPa 0,0 mm 0,9 km/h (0 Bft) S-SW 202 0 min 0,0 C 0,0 km/h (0 Bft)
13.02.2016 21:41 3,3 C 3,2 C 78 % 993,0 hPa 0,0 mm 0,9 km/h (0 Bft) O 90 0 min -0,2 C 0,0 km/h (0 Bft)
13.02.2016 21:42 3,3 C 3,2 C 78 % 993,0 hPa 0,0 mm 0,9 km/h (0 Bft) O 90 0 min -0,2 C 0,0 km/h (0 Bft)
13.02.2016 21:43 3,2 C 3,1 C 78 % 992,8 hPa 0,0 mm 2,7 km/h (1 Bft) W-SW 247 0 min -0,3 C 10,7 km/h (2 Bft)
13.02.2016 21:44 3,2 C 3,1 C 78 % 992,8 hPa 0,0 mm 2,7 km/h (1 Bft) W-SW 247 0 min -0,3 C 25,9 km/h (4 Bft)
13.02.2016 21:45 3,6 C 3,5 C 77 % 992,8 hPa 0,0 mm 3,9 km/h (1 Bft) NW 315 0 min -0,0 C 10,1 km/h (2 Bft)
13.02.2016 21:46 3,6 C 3,5 C 77 % 992,8 hPa 0,0 mm 3,9 km/h (1 Bft) NW 315 0 min -0,0 C 10,1 km/h (2 Bft)
13.02.2016 21:47 3,5 C 3,4 C 77 % 992,8 hPa 0,0 mm 4,8 km/h (1 Bft) W 270 0 min -0,1 C 8,3 km/h (2 Bft)
13.02.2016 21:48 3,5 C 3,4 C 77 % 992,8 hPa 0,0 mm 4,8 km/h (1 Bft) W 270 0 min -0,1 C 8,3 km/h (2 Bft)
13.02.2016 21:49 3,4 C 3,3 C 77 % 992,8 hPa 0,0 mm 5,1 km/h (1 Bft) SW 225 0 min -0,2 C 5,4 km/h (1 Bft)
13.02.2016 21:50 3,4 C 3,3 C 77 % 992,8 hPa 0,0 mm 5,1 km/h (1 Bft) SW 225 0 min -0,2 C 5,4 km/h (1 Bft)
13.02.2016 21:51 3,3 C 3,2 C 77 % 992,8 hPa 0,0 mm 5,1 km/h (1 Bft) SW 225 0 min -0,3 C 3,3 km/h (1 Bft)
13.02.2016 21:52 3,3 C 3,2 C 77 % 992,8 hPa 0,0 mm 5,1 km/h (1 Bft) SW 225 0 min -0,3 C 3,3 km/h (1 Bft)
13.02.2016 21:53 3,3 C 3,2 C 77 % 992,8 hPa 0,0 mm 5,7 km/h (1 Bft) S 180 0 min -0,3 C 4,5 km/h (1 Bft)
13.02.2016 21:54 3,3 C 3,2 C 77 % 992,8 hPa 0,0 mm 5,7 km/h (1 Bft) S 180 0 min -0,3 C 4,5 km/h (1 Bft)
13.02.2016 21:55 3,7 C 3,5 C 77 % 992,8 hPa 0,0 mm 4,2 km/h (1 Bft) W-SW 247 0 min 0,1 C 6,9 km/h (2 Bft)
13.02.2016 21:56 3,7 C 3,5 C 77 % 992,8 hPa 0,0 mm 4,2 km/h (1 Bft) W-SW 247 0 min 0,1 C 6,9 km/h (2 Bft)
13.02.2016 21:57 3,9 C 3,7 C 77 % 992,8 hPa 0,0 mm 3,9 km/h (1 Bft) S-SO 157 0 min 0,2 C 5,1 km/h (1 Bft)
13.02.2016 21:58 3,9 C 3,7 C 77 % 992,8 hPa 0,0 mm 3,9 km/h (1 Bft) S-SO 157 0 min 0,2 C 5,1 km/h (1 Bft)
13.02.2016 21:59 4,0 C 3,9 C 76 % 992,8 hPa 0,0 mm 3,6 km/h (1 Bft) W-SW 247 0 min 0,2 C 5,4 km/h (1 Bft)
13.02.2016 22:00 4,0 C 3,9 C 76 % 992,8 hPa 0,0 mm 3,6 km/h (1 Bft) W-SW 247 0 min 0,2 C 5,4 km/h (1 Bft)
13.02.2016 22:01 4,0 C 3,9 C 76 % 992,8 hPa 0,0 mm 3,0 km/h (1 Bft) SO 135 0 min 0,2 C 0,0 km/h (0 Bft)
13.02.2016 22:02 4,0 C 3,9 C 76 % 992,8 hPa 0,0 mm 3,0 km/h (1 Bft) SO 135 0 min 0,2 C 0,0 km/h (0 Bft)
13.02.2016 22:03 4,0 C 4,0 C 75 % 992,6 hPa 0,0 mm 2,7 km/h (1 Bft) S-SO 157 0 min -0,0 C 0,0 km/h (0 Bft)
13.02.2016 22:04 4,0 C 4,0 C 75 % 992,6 hPa 0,0 mm 2,7 km/h (1 Bft) S-SO 157 0 min -0,0 C 0,0 km/h (0 Bft)
13.02.2016 22:05 4,2 C 4,1 C 75 % 992,6 hPa 0,0 mm 2,1 km/h (1 Bft) O-SO 112 0 min 0,2 C 4,5 km/h (1 Bft)
13.02.2016 22:06 4,2 C 4,1 C 75 % 992,6 hPa 0,0 mm 2,1 km/h (1 Bft) O-SO 112 0 min 0,2 C 4,5 km/h (1 Bft)
13.02.2016 22:07 4,2 C 4,1 C 74 % 992,6 hPa 0,0 mm 1,5 km/h (1 Bft) O 90 0 min -0,0 C 0,0 km/h (0 Bft)
13.02.2016 22:08 4,2 C 4,1 C 74 % 992,6 hPa 0,0 mm 1,5 km/h (1 Bft) O 90 0 min -0,0 C 0,0 km/h (0 Bft)
13.02.2016 22:09 4,1 C 4,1 C 74 % 992,6 hPa 0,0 mm 0,9 km/h (0 Bft) W 270 0 min -0,1 C 0,0 km/h (0 Bft)
13.02.2016 22:10 4,1 C 4,1 C 74 % 992,6 hPa 0,0 mm 0,9 km/h (0 Bft) W 270 0 min -0,1 C 0,0 km/h (0 Bft)
13.02.2016 22:11 4,0 C 4,0 C 74 % 992,6 hPa 0,0 mm 0,6 km/h (0 Bft) W-SW 247 0 min -0,2 C 0,0 km/h (0 Bft)
13.02.2016 22:12 4,0 C 4,0 C 74 % 992,6 hPa 0,0 mm 0,6 km/h (0 Bft) W-SW 247 0 min -0,2 C 0,0 km/h (0 Bft)
13.02.2016 22:13 4,0 C 4,0 C 74 % 992,6 hPa 0,0 mm 0,6 km/h (0 Bft) SW 225 0 min -0,2 C 0,0 km/h (0 Bft)
13.02.2016 22:14 4,0 C 4,0 C 74 % 992,6 hPa 0,0 mm 0,6 km/h (0 Bft) SW 225 0 min -0,2 C 0,0 km/h (0 Bft)
13.02.2016 22:15 4,1 C 4,1 C 73 % 992,6 hPa 0,0 mm 1,2 km/h (1 Bft) S-SO 157 0 min -0,3 C 4,2 km/h (1 Bft)
13.02.2016 22:16 4,1 C 4,1 C 73 % 992,6 hPa 0,0 mm 1,2 km/h (1 Bft) S-SO 157 0 min -0,3 C 4,2 km/h (1 Bft)
13.02.2016 22:17 4,1 C 4,0 C 73 % 992,6 hPa 0,0 mm 1,5 km/h (1 Bft) O 90 0 min -0,3 C 5,1 km/h (1 Bft)
13.02.2016 22:18 4,1 C 4,0 C 73 % 992,6 hPa 0,0 mm 1,5 km/h (1 Bft) O 90 0 min -0,3 C 5,1 km/h (1 Bft)
13.02.2016 22:19 3,9 C 3,9 C 73 % 992,6 hPa 0,0 mm 1,5 km/h (1 Bft) N-NO 22 0 min -0,5 C 0,0 km/h (0 Bft)
13.02.2016 22:20 3,9 C 3,9 C 73 % 992,6 hPa 0,0 mm 1,5 km/h (1 Bft) N-NO 22 0 min -0,5 C 0,0 km/h (0 Bft)
13.02.2016 22:21 3,8 C 3,9 C 73 % 992,6 hPa 0,0 mm 2,4 km/h (1 Bft) W 270 0 min -0,6 C 12,2 km/h (2 Bft)
13.02.2016 22:22 3,8 C 3,9 C 73 % 992,6 hPa 0,0 mm 2,4 km/h (1 Bft) W 270 0 min -0,6 C 12,2 km/h (2 Bft)
13.02.2016 22:23 3,7 C 3,8 C 73 % 992,8 hPa 0,0 mm 3,6 km/h (1 Bft) NO 45 0 min -0,7 C 8,9 km/h (2 Bft)
13.02.2016 22:24 3,7 C 3,8 C 73 % 992,8 hPa 0,0 mm 3,6 km/h (1 Bft) NO 45 0 min -0,7 C 8,9 km/h (2 Bft)
13.02.2016 22:25 3,8 C 3,8 C 73 % 992,8 hPa 0,0 mm 3,9 km/h (1 Bft) S-SO 157 0 min -0,6 C 3,3 km/h (1 Bft)
13.02.2016 22:26 3,8 C 3,8 C 73 % 992,8 hPa 0,0 mm 3,9 km/h (1 Bft) S-SO 157 0 min -0,6 C 3,3 km/h (1 Bft)
13.02.2016 22:27 3,8 C 3,8 C 73 % 992,8 hPa 0,0 mm 4,2 km/h (1 Bft) W-NW 292 0 min -0,6 C 7,2 km/h (2 Bft)
13.02.2016 22:28 3,8 C 3,8 C 73 % 992,8 hPa 0,0 mm 4,2 km/h (1 Bft) W-NW 292 0 min -0,6 C 7,2 km/h (2 Bft)
13.02.2016 22:29 3,8 C 3,8 C 73 % 992,8 hPa 0,0 mm 3,9 km/h (1 Bft) W 270 0 min -0,6 C 0,0 km/h (0 Bft)
13.02.2016 22:30 3,8 C 3,8 C 73 % 992,8 hPa 0,0 mm 3,9 km/h (1 Bft) W 270 0 min -0,6 C 0,0 km/h (0 Bft)
13.02.2016 22:31 3,7 C 3,8 C 73 % 992,8 hPa 0,0 mm 4,2 km/h (1 Bft) O-NO 67 0 min -0,7 C 5,7 km/h (1 Bft)
13.02.2016 22:32 3,7 C 3,8 C 73 % 992,8 hPa 0,0 mm 4,2 km/h (1 Bft) O-NO 67 0 min -0,7 C 5,7 km/h (1 Bft)
13.02.2016 22:33 3,6 C 3,8 C 73 % 992,8 hPa 0,0 mm 3,0 km/h (1 Bft) O 90 0 min -0,8 C 0,0 km/h (0 Bft)
13.02.2016 22:34 3,6 C 3,8 C 73 % 992,8 hPa 0,0 mm 3,0 km/h (1 Bft) O 90 0 min -0,8 C 0,0 km/h (0 Bft)
13.02.2016 22:35 3,5 C 3,7 C 73 % 992,8 hPa 0,0 mm 2,4 km/h (1 Bft) W-SW 247 0 min -0,9 C 0,0 km/h (0 Bft)
13.02.2016 22:36 3,5 C 3,7 C 73 % 992,8 hPa 0,0 mm 2,4 km/h (1 Bft) W-SW 247 0 min -0,9 C 0,0 km/h (0 Bft)
13.02.2016 22:37 3,4 C 3,6 C 73 % 992,8 hPa 0,0 mm 1,8 km/h (1 Bft) NO 45 0 min -1,0 C 0,0 km/h (0 Bft)
13.02.2016 22:38 3,4 C 3,6 C 73 % 992,8 hPa 0,0 mm 1,8 km/h (1 Bft) NO 45 0 min -1,0 C 0,0 km/h (0 Bft)
13.02.2016 22:39 3,5 C 3,5 C 73 % 992,8 hPa 0,0 mm 0,9 km/h (0 Bft) W-SW 247 0 min -0,9 C 8,3 km/h (2 Bft)
13.02.2016 22:40 3,5 C 3,5 C 73 % 992,8 hPa 0,0 mm 0,9 km/h (0 Bft) W-SW 247 0 min -0,9 C 8,3 km/h (2 Bft)
13.02.2016 22:41 3,8 C 3,7 C 73 % 992,8 hPa 0,0 mm 2,1 km/h (1 Bft) SW 225 0 min -0,6 C 3,0 km/h (1 Bft)
13.02.2016 22:42 3,8 C 3,7 C 73 % 992,8 hPa 0,0 mm 2,1 km/h (1 Bft) SW 225 0 min -0,6 C 3,0 km/h (1 Bft)
13.02.2016 22:43 4,0 C 3,9 C 72 % 993,0 hPa 0,0 mm 2,7 km/h (1 Bft) SW 225 0 min -0,6 C 8,0 km/h (2 Bft)
13.02.2016 22:44 4,0 C 3,9 C 72 % 993,0 hPa 0,0 mm 2,7 km/h (1 Bft) SW 225 0 min -0,6 C 8,0 km/h (2 Bft)
13.02.2016 22:45 4,2 C 4,1 C 72 % 993,0 hPa 0,0 mm 3,6 km/h (1 Bft) S-SO 157 0 min -0,4 C 4,5 km/h (1 Bft)
13.02.2016 22:46 4,2 C 4,1 C 72 % 993,0 hPa 0,0 mm 3,6 km/h (1 Bft) S-SO 157 0 min -0,4 C 4,5 km/h (1 Bft)
13.02.2016 22:47 4,2 C 4,1 C 72 % 993,0 hPa 0,0 mm 3,6 km/h (1 Bft) S-SO 157 0 min -0,4 C 0,0 km/h (0 Bft)
13.02.2016 22:48 4,2 C 4,1 C 72 % 993,0 hPa 0,0 mm 3,6 km/h (1 Bft) S-SO 157 0 min -0,4 C 0,0 km/h (0 Bft)
13.02.2016 22:49 4,0 C 4,1 C 71 % 993,0 hPa 0,0 mm 3,6 km/h (1 Bft) S-SW 202 0 min -0,8 C 4,2 km/h (1 Bft)
13.02.2016 22:50 4,0 C 4,1 C 71 % 993,0 hPa 0,0 mm 3,6 km/h (1 Bft) S-SW 202 0 min -0,8 C 4,2 km/h (1 Bft)
13.02.2016 22:51 4,1 C 4,1 C 71 % 993,0 hPa 0,0 mm 4,5 km/h (1 Bft) W-SW 247 0 min -0,7 C 22,4 km/h (4 Bft)
13.02.2016 22:52 4,1 C 4,1 C 71 % 993,0 hPa 0,0 mm 4,5 km/h (1 Bft) W-SW 247 0 min -0,7 C 22,4 km/h (4 Bft)
13.02.2016 22:53 4,3 C 4,3 C 71 % 993,0 hPa 0,0 mm 4,5 km/h (1 Bft) O 90 0 min -0,5 C 7,5 km/h (2 Bft)
13.02.2016 22:54 4,3 C 4,3 C 71 % 993,0 hPa 0,0 mm 4,5 km/h (1 Bft) O 90 0 min -0,5 C 7,5 km/h (2 Bft)
13.02.2016 22:55 4,6 C 4,5 C 70 % 993,0 hPa 0,0 mm 5,4 km/h (1 Bft) S-SW 202 0 min -0,4 C 18,5 km/h (3 Bft)
13.02.2016 22:56 4,6 C 4,5 C 70 % 993,0 hPa 0,0 mm 5,4 km/h (1 Bft) S-SW 202 0 min -0,4 C 18,5 km/h (3 Bft)
13.02.2016 22:57 5,1 C 4,8 C 69 % 993,0 hPa 0,0 mm 7,2 km/h (2 Bft) W-SW 247 0 min -0,1 C 16,7 km/h (3 Bft)
13.02.2016 22:58 5,1 C 4,8 C 69 % 993,0 hPa 0,0 mm 7,2 km/h (2 Bft) W-SW 247 0 min -0,1 C 16,7 km/h (3 Bft)
13.02.2016 22:59 5,3 C 4,9 C 68 % 993,0 hPa 0,0 mm 9,2 km/h (2 Bft) S 180 0 min -0,1 C 7,5 km/h (2 Bft)
13.02.2016 23:00 5,3 C 4,9 C 68 % 993,0 hPa 0,0 mm 9,2 km/h (2 Bft) S 180 0 min -0,1 C 7,5 km/h (2 Bft)
13.02.2016 23:01 5,2 C 4,9 C 68 % 993,0 hPa 0,0 mm 9,2 km/h (2 Bft) W-NW 292 0 min -0,2 C 5,1 km/h (1 Bft)
13.02.2016 23:02 5,2 C 4,9 C 68 % 993,0 hPa 0,0 mm 9,2 km/h (2 Bft) W-NW 292 0 min -0,2 C 5,1 km/h (1 Bft)
13.02.2016 23:03 5,4 C 5,0 C 67 % 992,1 hPa 0,0 mm 9,8 km/h (2 Bft) NW 315 0 min -0,2 C 8,9 km/h (2 Bft)
13.02.2016 23:04 5,4 C 5,0 C 67 % 992,1 hPa 0,0 mm 9,8 km/h (2 Bft) NW 315 0 min -0,2 C 31,0 km/h (5 Bft)
13.02.2016 23:05 5,4 C 5,0 C 66 % 992,1 hPa 0,0 mm 9,8 km/h (2 Bft) W-SW 247 0 min -0,4 C 9,2 km/h (2 Bft)
13.02.2016 23:06 5,4 C 5,0 C 66 % 992,1 hPa 0,0 mm 9,8 km/h (2 Bft) W-SW 247 0 min -0,4 C 9,2 km/h (2 Bft)
13.02.2016 23:07 5,4 C 5,1 C 66 % 992,1 hPa 0,0 mm 8,6 km/h (2 Bft) O-SO 112 0 min -0,4 C 5,7 km/h (1 Bft)
13.02.2016 23:08 5,4 C 5,1 C 66 % 992,1 hPa 0,0 mm 8,6 km/h (2 Bft) O-SO 112 0 min -0,4 C 5,7 km/h (1 Bft)
13.02.2016 23:09 5,3 C 5,1 C 65 % 992,1 hPa 0,0 mm 8,0 km/h (2 Bft) SW 225 0 min -0,7 C 11,0 km/h (2 Bft)
13.02.2016 23:10 5,3 C 5,1 C 65 % 992,1 hPa 0,0 mm 8,0 km/h (2 Bft) SW 225 0 min -0,7 C 11,0 km/h (2 Bft)
13.02.2016 23:11 5,2 C 5,0 C 65 % 992,1 hPa 0,0 mm 7,7 km/h (2 Bft) W-SW 247 0 min -0,8 C 11,3 km/h (2 Bft)
13.02.2016 23:12 5,2 C 5,0 C 65 % 992,1 hPa 0,0 mm 7,7 km/h (2 Bft) W-SW 247 0 min -0,8 C 11,3 km/h (2 Bft)
13.02.2016 23:13 5,3 C 5,1 C 64 % 992,1 hPa 0,0 mm 7,7 km/h (2 Bft) SW 225 0 min -0,9 C 9,2 km/h (2 Bft)
13.02.2016 23:14 5,3 C 5,1 C 64 % 992,1 hPa 0,0 mm 7,7 km/h (2 Bft) SW 225 0 min -0,9 C 9,2 km/h (2 Bft)
13.02.2016 23:15 5,2 C 5,0 C 63 % 992,1 hPa 0,0 mm 8,3 km/h (2 Bft) SW 225 0 min -1,3 C 37,9 km/h (5 Bft)
13.02.2016 23:16 5,2 C 5,0 C 63 % 992,1 hPa 0,0 mm 8,3 km/h (2 Bft) SW 225 0 min -1,3 C 37,9 km/h (5 Bft)
13.02.2016 23:17 5,6 C 5,2 C 60 % 992,1 hPa 0,0 mm 8,6 km/h (2 Bft) S 180 0 min -1,5 C 10,7 km/h (2 Bft)
13.02.2016 23:18 5,6 C 5,2 C 60 % 992,1 hPa 0,0 mm 8,6 km/h (2 Bft) S 180 0 min -1,5 C 10,7 km/h (2 Bft)
13.02.2016 23:19 5,5 C 5,1 C 61 % 992,1 hPa 0,0 mm 9,2 km/h (2 Bft) S-SW 202 0 min -1,4 C 24,7 km/h (4 Bft)
13.02.2016 23:20 5,5 C 5,1 C 61 % 992,1 hPa 0,0 mm 9,2 km/h (2 Bft) S-SW 202 0 min -1,4 C 24,7 km/h (4 Bft)
13.02.2016 23:21 5,4 C 5,1 C 61 % 992,1 hPa 0,0 mm 8,9 km/h (2 Bft) SO 135 0 min -1,5 C 5,4 km/h (1 Bft)
13.02.2016 23:22 5,4 C 5,1 C 61 % 992,1 hPa 0,0 mm 8,9 km/h (2 Bft) SO 135 0 min -1,5 C 5,4 km/h (1 Bft)
13.02.2016 23:23 5,1 C 5,0 C 61 % 992,0 hPa 0,0 mm 7,7 km/h (2 Bft) SO 135 0 min -1,8 C 0,0 km/h (0 Bft)
13.02.2016 23:24 5,1 C 5,0 C 61 % 992,0 hPa 0,0 mm 7,7 km/h (2 Bft) SO 135 0 min -1,8 C 37,9 km/h (5 Bft)
13.02.2016 23:25 4,9 C 4,9 C 61 % 992,0 hPa 0,0 mm 6,9 km/h (2 Bft) W-SW 247 0 min -2,0 C 4,8 km/h (1 Bft)
13.02.2016 23:26 4,9 C 4,9 C 61 % 992,0 hPa 0,0 mm 6,9 km/h (2 Bft) W-SW 247 0 min -2,0 C 4,8 km/h (1 Bft)
13.02.2016 23:27 4,9 C 5,2 C 61 % 992,0 hPa 0,0 mm 4,2 km/h (1 Bft) S-SO 157 0 min -2,0 C 3,6 km/h (1 Bft)
13.02.2016 23:28 4,9 C 5,2 C 61 % 992,0 hPa 0,0 mm 4,2 km/h (1 Bft) S-SO 157 0 min -2,0 C 3,6 km/h (1 Bft)
13.02.2016 23:29 5,0 C 5,2 C 62 % 992,0 hPa 0,0 mm 3,3 km/h (1 Bft) NW 315 0 min -1,7 C 3,9 km/h (1 Bft)
13.02.2016 23:30 5,0 C 5,2 C 62 % 992,0 hPa 0,0 mm 3,3 km/h (1 Bft) NW 315 0 min -1,7 C 3,9 km/h (1 Bft)
13.02.2016 23:31 5,0 C 5,2 C 62 % 992,0 hPa 0,0 mm 2,7 km/h (1 Bft) W 270 0 min -1,7 C 5,7 km/h (1 Bft)
13.02.2016 23:32 5,0 C 5,2 C 62 % 992,0 hPa 0,0 mm 2,7 km/h (1 Bft) W 270 0 min -1,7 C 5,7 km/h (1 Bft)
13.02.2016 23:33 5,0 C 5,2 C 62 % 992,0 hPa 0,0 mm 3,3 km/h (1 Bft) S-SW 202 0 min -1,7 C 9,5 km/h (2 Bft)
13.02.2016 23:34 5,0 C 5,2 C 62 % 992,0 hPa 0,0 mm 3,3 km/h (1 Bft) S-SW 202 0 min -1,7 C 9,5 km/h (2 Bft)
13.02.2016 23:35 5,3 C 5,3 C 62 % 992,0 hPa 0,0 mm 4,2 km/h (1 Bft) W 270 0 min -1,4 C 8,3 km/h (2 Bft)
13.02.2016 23:36 5,3 C 5,3 C 62 % 992,0 hPa 0,0 mm 4,2 km/h (1 Bft) W 270 0 min -1,4 C 8,3 km/h (2 Bft)
13.02.2016 23:37 5,2 C 5,2 C 61 % 992,0 hPa 0,0 mm 4,8 km/h (1 Bft) W-NW 292 0 min -1,7 C 6,6 km/h (2 Bft)
13.02.2016 23:38 5,2 C 5,2 C 61 % 992,0 hPa 0,0 mm 4,8 km/h (1 Bft) W-NW 292 0 min -1,7 C 6,6 km/h (2 Bft)
13.02.2016 23:39 5,1 C 5,2 C 61 % 992,0 hPa 0,0 mm 5,1 km/h (1 Bft) SO 135 0 min -1,8 C 4,5 km/h (1 Bft)
13.02.2016 23:40 5,1 C 5,2 C 61 % 992,0 hPa 0,0 mm 5,1 km/h (1 Bft) SO 135 0 min -1,8 C 4,5 km/h (1 Bft)
13.02.2016 23:41 5,0 C 5,2 C 61 % 992,0 hPa 0,0 mm 4,5 km/h (1 Bft) O-SO 112 0 min -1,9 C 0,0 km/h (0 Bft)
13.02.2016 23:42 5,0 C 5,2 C 61 % 992,0 hPa 0,0 mm 4,5 km/h (1 Bft) O-SO 112 0 min -1,9 C 0,0 km/h (0 Bft)
13.02.2016 23:43 4,9 C 5,0 C 61 % 992,1 hPa 0,0 mm 3,6 km/h (1 Bft) S 180 0 min -2,0 C 0,0 km/h (0 Bft)
13.02.2016 23:44 4,9 C 5,0 C 61 % 992,1 hPa 0,0 mm 3,6 km/h (1 Bft) S 180 0 min -2,0 C 0,0 km/h (0 Bft)
13.02.2016 23:45 5,0 C 5,0 C 61 % 992,1 hPa 0,0 mm 2,1 km/h (1 Bft) O-SO 112 0 min -1,9 C 0,0 km/h (0 Bft)
13.02.2016 23:46 5,0 C 5,0 C 61 % 992,1 hPa 0,0 mm 2,1 km/h (1 Bft) O-SO 112 0 min -1,9 C 0,0 km/h (0 Bft)
13.02.2016 23:47 4,9 C 4,9 C 61 % 992,1 hPa 0,0 mm 1,5 km/h (1 Bft) W-SW 247 0 min -2,0 C 4,5 km/h (1 Bft)
13.02.2016 23:48 4,9 C 4,9 C 61 % 992,1 hPa 0,0 mm 1,5 km/h (1 Bft) W-SW 247 0 min -2,0 C 4,5 km/h (1 Bft)
13.02.2016 23:49 4,7 C 4,7 C 62 % 992,1 hPa 0,0 mm 0,6 km/h (0 Bft) O-NO 67 0 min -1,9 C 0,0 km/h (0 Bft)
13.02.2016 23:50 4,7 C 4,7 C 62 % 992,1 hPa 0,0 mm 0,6 km/h (0 Bft) O-NO 67 0 min -1,9 C 0,0 km/h (0 Bft)
13.02.2016 23:51 4,9 C 4,8 C 62 % 992,1 hPa 0,0 mm 0,6 km/h (0 Bft) S 180 0 min -1,8 C 0,0 km/h (0 Bft)
13.02.2016 23:52 4,9 C 4,8 C 62 % 992,1 hPa 0,0 mm 0,6 km/h (0 Bft) S 180 0 min -1,8 C 0,0 km/h (0 Bft)
13.02.2016 23:53 4,9 C 4,8 C 62 % 992,1 hPa 0,0 mm 0,6 km/h (0 Bft) S-SO 157 0 min -1,8 C 0,0 km/h (0 Bft)
13.02.2016 23:54 4,9 C 4,8 C 62 % 992,1 hPa 0,0 mm 0,6 km/h (0 Bft) S-SO 157 0 min -1,8 C 0,0 km/h (0 Bft)
13.02.2016 23:55 5,2 C 5,0 C 62 % 992,1 hPa 0,0 mm 1,5 km/h (1 Bft) SO 135 0 min -1,5 C 5,7 km/h (1 Bft)
13.02.2016 23:56 5,2 C 5,0 C 62 % 992,1 hPa 0,0 mm 1,5 km/h (1 Bft) SO 135 0 min -1,5 C 5,7 km/h (1 Bft)
13.02.2016 23:57 5,3 C 5,1 C 62 % 992,1 hPa 0,0 mm 1,8 km/h (1 Bft) O-SO 112 0 min -1,4 C 3,6 km/h (1 Bft)
13.02.2016 23:58 5,3 C 5,1 C 62 % 992,1 hPa 0,0 mm 1,8 km/h (1 Bft) O-SO 112 0 min -1,4 C 3,6 km/h (1 Bft)
13.02.2016 23:59 5,3 C 5,1 C 61 % 992,1 hPa 0,0 mm 2,1 km/h (1 Bft) S-SO 157 0 min -1,6 C 0,0 km/h (0 Bft)
_ Min-Zeit 01:28 01:08 23:18 23:42 - 18:12 - - - 00:14 23:59
Minimum _ -0,6 C -0,9 C 60 % 992,0 hPa - 0,0 km/h (0 Bft) - - - -4,4 C 0,0 km/h (0 Bft)
_ Max-Zeit 14:20 11:59 08:54 09:42 07:13 23:06 - - 12:39 13:24 23:24
Maximum _ 6,2 C 11,5 C 87 % 997,1 hPa 0,7 mm 9,8 km/h
W-SW (2 Bft)
- - 5 min 1,2 C 37,9 km/h
SO (5 Bft)
Durchschnitt _ 2,7 C 3,1 C 77 % 994,9 hPa #0,7 mm 2,7 km/h (1 Bft) SW - #1:09 h -1,0 C 3,6 km/h (1 Bft)